Provisional Data: Ninemile Run near Walton, PA


Please select a monitoring station.
Please select start date.
Please select start date.

Toggle Unit: C/F Toggle Unit: C/F
Sample Time Temperature (C) Temperature (F) Specific Conductivity (mS/cm) pH   Turbidity (NTU+) DO (mg/L)
1/12/2021 12:00:00 AM 2.88 37.184 0.056 6.46 1.94 12.8
1/12/2021 12:15:00 AM 2.87 37.166 0.056 6.46 1.9 12.81
1/12/2021 12:30:00 AM 2.86 37.148 0.057 6.46 1.95 12.81
1/12/2021 12:45:00 AM 2.85 37.13 0.057 6.44 1.95 12.81
1/12/2021 1:00:00 AM 2.85 37.13 0.057 6.47 1.99 12.82
1/12/2021 1:15:00 AM 2.84 37.112 0.057 6.47 2 12.82
1/12/2021 1:30:00 AM 2.84 37.112 0.057 6.46 2.07 12.82
1/12/2021 1:45:00 AM 2.84 37.112 0.057 6.45 1.92 12.82
1/12/2021 2:00:00 AM 2.83 37.094 0.057 6.48 1.89 12.83
1/12/2021 2:15:00 AM 2.82 37.076 0.057 6.47 1.96 12.83
1/12/2021 2:30:00 AM 2.82 37.076 0.057 6.46 1.89 12.83
1/12/2021 2:45:00 AM 2.81 37.058 0.057 6.45 1.9 12.84
1/12/2021 3:00:00 AM 2.8 37.04 0.057 6.47 1.95 12.84
1/12/2021 3:15:00 AM 2.79 37.022 0.057 6.46 2.04 12.84
1/12/2021 3:30:00 AM 2.78 37.004 0.057 6.44 2.06 12.84
1/12/2021 3:45:00 AM 2.77 36.986 0.057 6.46 1.99 12.85
1/12/2021 4:00:00 AM 2.75 36.95 0.057 6.46 2 12.85
1/12/2021 4:15:00 AM 2.73 36.914 0.057 6.47 2.07 12.85
1/12/2021 4:30:00 AM 2.72 36.896 0.057 6.46 1.99 12.86
1/12/2021 4:45:00 AM 2.71 36.878 0.057 6.46 1.95 12.86
1/12/2021 5:00:00 AM 2.7 36.86 0.057 6.46 1.97 12.86
1/12/2021 5:15:00 AM 2.69 36.842 0.057 6.47 2.05 12.87
1/12/2021 5:30:00 AM 2.68 36.824 0.057 6.45 2.12 12.87
1/12/2021 5:45:00 AM 2.66 36.788 0.057 6.47 2 12.88
1/12/2021 6:00:00 AM 2.65 36.77 0.057 6.46 2 12.88
1/12/2021 6:15:00 AM 2.64 36.752 0.057 6.47 2.01 12.89
1/12/2021 6:30:00 AM 2.62 36.716 0.057 6.44 1.97 12.89
1/12/2021 6:45:00 AM 2.61 36.698 0.057 6.45 2.17 12.9
1/12/2021 7:00:00 AM 2.6 36.68 0.057 6.47 1.94 12.9
1/12/2021 7:15:00 AM 2.59 36.662 0.057 6.47 2.2 12.91
1/12/2021 7:30:00 AM 2.58 36.644 0.057 6.46 1.94 12.91
1/12/2021 7:45:00 AM 2.57 36.626 0.057 6.46 2.42 12.92
1/12/2021 8:00:00 AM 2.56 36.608 0.057 6.45 3.19 12.93
1/12/2021 8:15:00 AM 2.55 36.59 0.057 6.47 3.08 12.95
1/12/2021 8:30:00 AM 2.54 36.572 0.057 6.48 2.24 12.98
1/12/2021 8:45:00 AM 2.54 36.572 0.057 6.49 1.94 13.02
1/12/2021 9:00:00 AM 2.55 36.59 0.057 6.5 1.88 13.05
1/12/2021 9:15:00 AM 2.56 36.608 0.057 6.51 1.84 13.08
1/12/2021 9:30:00 AM 2.57 36.626 0.056 6.49 1.87 13.09
1/12/2021 9:45:00 AM 2.59 36.662 0.056 6.51 1.87 13.11
1/12/2021 10:00:00 AM 2.63 36.734 0.056 6.52 1.81 13.13
1/12/2021 10:15:00 AM 2.65 36.77 0.056 6.54 1.83 13.14
1/12/2021 10:30:00 AM 2.68 36.824 0.056 6.53 1.89 13.14
1/12/2021 10:45:00 AM 2.71 36.878 0.056 6.54 1.82 13.14
1/12/2021 11:00:00 AM 2.74 36.932 0.056 6.54 1.77 13.15
1/12/2021 11:15:00 AM 2.79 37.022 0.056 6.55 1.87 13.15
1/12/2021 11:30:00 AM 2.85 37.13 0.056 6.55 2.07 13.13
1/12/2021 11:45:00 AM 2.91 37.238 0.056 6.56 2.03 13.13
1/12/2021 12:00:00 PM 2.97 37.346 0.056 6.54 1.91 13.11
1/12/2021 12:15:00 PM 3.02 37.436 0.056 6.57 1.86 13.1
1/12/2021 12:30:00 PM 3.07 37.526 0.056 6.56 1.92 13.08
1/12/2021 12:45:00 PM 3.13 37.634 0.056 6.57 1.78 13.07
1/12/2021 1:00:00 PM 3.19 37.742 0.056 6.54 1.8 13.05
1/12/2021 1:15:00 PM 3.24 37.832 0.056 6.57 1.8 13.03
1/12/2021 1:30:00 PM 3.29 37.922 0.056 6.56 1.78 13.01
1/12/2021 1:45:00 PM 3.33 37.994 0.056 6.57 1.77 12.99
1/12/2021 2:00:00 PM 3.37 38.066 0.056 6.54 1.77 12.97
1/12/2021 2:15:00 PM 3.41 38.138 0.056 6.57 1.74 12.96
1/12/2021 2:30:00 PM 3.42 38.156 0.056 6.57 1.79 12.94
1/12/2021 2:45:00 PM 3.44 38.192 0.056 6.58 1.8 12.92
1/12/2021 3:00:00 PM 3.44 38.192 0.056 6.55 1.74 12.89
1/12/2021 3:15:00 PM 3.42 38.156 0.056 6.52 1.8 12.85
1/12/2021 3:30:00 PM 3.4 38.12 0.056 6.53 1.77 12.84
1/12/2021 3:45:00 PM 3.39 38.102 0.056 6.52 1.8 12.81
1/12/2021 4:00:00 PM 3.37 38.066 0.056 6.53 1.86 12.8
1/12/2021 4:15:00 PM 3.35 38.03 0.056 6.5 1.82 12.78
1/12/2021 4:30:00 PM 3.33 37.994 0.056 6.51 1.79 12.75
1/12/2021 4:45:00 PM 3.31 37.958 0.056 6.5 1.84 12.74
1/12/2021 5:00:00 PM 3.29 37.922 0.056 6.51 1.81 12.72
1/12/2021 5:15:00 PM 3.26 37.868 0.056 6.5 1.83 12.72
1/12/2021 5:30:00 PM 3.24 37.832 0.056 6.49 1.84 12.7
1/12/2021 5:45:00 PM 3.21 37.778 0.056 6.49 1.86 12.7
1/12/2021 6:00:00 PM 3.2 37.76 0.056 6.48 1.9 12.7
1/12/2021 6:15:00 PM 3.18 37.724 0.056 6.48 1.92 12.69
1/12/2021 6:30:00 PM 3.16 37.688 0.056 6.46 1.93 12.7
1/12/2021 6:45:00 PM 3.15 37.67 0.056 6.48 1.96 12.7
1/12/2021 7:00:00 PM 3.13 37.634 0.056 6.47 1.98 12.7
1/12/2021 7:15:00 PM 3.12 37.616 0.056 6.45 1.99 12.71
1/12/2021 7:30:00 PM 3.11 37.598 0.056 6.46 2.09 12.71
1/12/2021 7:45:00 PM 3.09 37.562 0.056 6.48 2 12.71
1/12/2021 8:00:00 PM 3.08 37.544 0.056 6.47 1.95 12.72
1/12/2021 8:15:00 PM 3.07 37.526 0.056 6.44 2.27 12.72
1/12/2021 8:30:00 PM 3.06 37.508 0.056 6.48 2.6 12.71
1/12/2021 8:45:00 PM 3.04 37.472 0.056 6.47 2.38 12.72
1/12/2021 9:00:00 PM 3.02 37.436 0.056 6.46 2.31 12.73
1/12/2021 9:15:00 PM 3.01 37.418 0.056 6.46 2.29 12.74
1/12/2021 9:30:00 PM 2.99 37.382 0.056 6.47 1.98 12.74
1/12/2021 9:45:00 PM 2.97 37.346 0.056 6.47 2.21 12.75
1/12/2021 10:00:00 PM 2.96 37.328 0.056 6.44 1.99 12.76
1/12/2021 10:15:00 PM 2.94 37.292 0.056 6.47 2.08 12.76
1/12/2021 10:30:00 PM 2.92 37.256 0.056 6.47 2.13 12.77
1/12/2021 10:45:00 PM 2.91 37.238 0.056 6.47 2.1 12.78
1/12/2021 11:00:00 PM 2.89 37.202 0.056 6.47 2.19 12.78
1/12/2021 11:15:00 PM 2.88 37.184 0.056 6.47 2.27 12.78
1/12/2021 11:30:00 PM 2.87 37.166 0.056 6.45 2.26 12.79
1/12/2021 11:45:00 PM 2.85 37.13 0.056 6.47 2.32 12.8
1/13/2021 12:00:00 AM 2.84 37.112 0.056 6.46 2.22 12.79
1/13/2021 12:15:00 AM 2.83 37.094 0.056 6.46 2.17 12.8
1/13/2021 12:30:00 AM 2.81 37.058 0.056 6.45 2.04 12.81
1/13/2021 12:45:00 AM 2.8 37.04 0.056 6.47 2.02 12.81
1/13/2021 1:00:00 AM 2.79 37.022 0.056 6.44 2 12.81
1/13/2021 1:15:00 AM 2.77 36.986 0.056 6.48 2 12.82
1/13/2021 1:30:00 AM 2.76 36.968 0.056 6.46 1.99 12.82
1/13/2021 1:45:00 AM 2.74 36.932 0.056 6.46 1.97 12.83
1/13/2021 2:00:00 AM 2.73 36.914 0.056 6.47 2.03 12.83
1/13/2021 2:15:00 AM 2.71 36.878 0.056 6.47 1.98 12.84
1/13/2021 2:30:00 AM 2.7 36.86 0.056 6.48 2.01 12.84
1/13/2021 2:45:00 AM 2.69 36.842 0.056 6.45 2.39 12.84
1/13/2021 3:00:00 AM 2.68 36.824 0.056 6.46 2.15 12.85
1/13/2021 3:15:00 AM 2.66 36.788 0.056 6.48 2.21 12.86
1/13/2021 3:30:00 AM 2.64 36.752 0.056 6.48 2.27 12.85
1/13/2021 3:45:00 AM 2.63 36.734 0.056 6.47 2.13 12.87
1/13/2021 4:00:00 AM 2.61 36.698 0.056 6.47 2.08 12.87
1/13/2021 4:15:00 AM 2.6 36.68 0.056 6.47 2.05 12.87
1/13/2021 4:30:00 AM 2.57 36.626 0.056 6.47 2.18 12.88
1/13/2021 4:45:00 AM 2.56 36.608 0.056 6.47 2.08 12.88
1/13/2021 5:00:00 AM 2.55 36.59 0.056 6.44 2.03 12.89
1/13/2021 5:15:00 AM 2.53 36.554 0.056 6.48 2.21 12.89
1/13/2021 5:30:00 AM 2.52 36.536 0.056 6.47 2 12.9
1/13/2021 5:45:00 AM 2.51 36.518 0.056 6.48 2.12 12.9
1/13/2021 6:00:00 AM 2.5 36.5 0.056 6.47 2.03 12.9
1/13/2021 6:15:00 AM 2.49 36.482 0.056 6.47 2.26 12.91
1/13/2021 6:30:00 AM 2.49 36.482 0.056 6.48 2 12.91
1/13/2021 6:45:00 AM 2.48 36.464 0.056 6.46 2.21 12.91
1/13/2021 7:00:00 AM 2.48 36.464 0.056 6.47 2.09 12.91
1/13/2021 7:15:00 AM 2.48 36.464 0.056 6.48 2.15 12.91
1/13/2021 7:30:00 AM 2.47 36.446 0.056 6.47 2.04 12.91
1/13/2021 7:45:00 AM 2.47 36.446 0.056 6.48 2.05 12.92
1/13/2021 8:00:00 AM 2.47 36.446 0.056 6.48 2.06 12.92
1/13/2021 8:15:00 AM 2.47 36.446 0.056 6.46 2.17 12.92
1/13/2021 8:30:00 AM 2.47 36.446 0.056 6.48 2.17 12.94
1/13/2021 8:45:00 AM 2.47 36.446 0.056 6.46 1.98 12.95
1/13/2021 9:00:00 AM 2.48 36.464 0.056 6.48 1.89 12.98
1/13/2021 9:15:00 AM 2.48 36.464 0.056 6.48 2.04 13
1/13/2021 9:30:00 AM 2.49 36.482 0.056 6.51 1.87 13.02
1/13/2021 9:45:00 AM 2.51 36.518 0.056 6.49 1.89 13.04
1/13/2021 10:00:00 AM 2.52 36.536 0.056 6.52 1.96 13.06
1/13/2021 10:15:00 AM 2.54 36.572 0.056 6.53 2.2 13.07
1/13/2021 10:30:00 AM 2.56 36.608 0.056 6.52 1.81 13.08
1/13/2021 10:45:00 AM 2.58 36.644 0.056 6.54 1.83 13.1
1/13/2021 11:00:00 AM 2.6 36.68 0.056 6.55 1.91 13.11
1/13/2021 11:15:00 AM 2.63 36.734 0.056 6.55 2.27 13.11
1/13/2021 11:30:00 AM 2.68 36.824 0.056 6.56 2.26 13.11
1/13/2021 11:45:00 AM 2.71 36.878 0.056 6.56 1.86 13.1
1/13/2021 12:00:00 PM 2.75 36.95 0.056 6.56 1.85 13.09
1/13/2021 12:15:00 PM 2.79 37.022 0.056 6.56 1.8 13.08
1/13/2021 12:30:00 PM 2.84 37.112 0.056 6.56 1.82 13.07
1/13/2021 12:45:00 PM 2.88 37.184 0.056 6.57 1.78 13.07
1/13/2021 1:00:00 PM 2.94 37.292 0.056 6.58 1.76 13.05
1/13/2021 1:15:00 PM 3 37.4 0.056 6.57 1.82 13.04
1/13/2021 1:30:00 PM 3.07 37.526 0.056 6.56 1.77 13.02
1/13/2021 1:45:00 PM 3.15 37.67 0.055 6.59 1.77 13
1/13/2021 2:00:00 PM 3.19 37.742 0.055 6.56 1.8 12.97
1/13/2021 2:15:00 PM 3.28 37.904 0.055 6.58 1.79 12.96
1/13/2021 2:30:00 PM 3.32 37.976 0.055 6.58 1.77 12.94
1/13/2021 2:45:00 PM 3.38 38.084 0.055 6.59 1.78 12.92
1/13/2021 3:00:00 PM 3.41 38.138 0.055 6.56 1.81 12.89
1/13/2021 3:15:00 PM 3.44 38.192 0.055 6.59 1.75 12.87
1/13/2021 3:30:00 PM 3.48 38.264 0.055 6.58 1.76 12.86
1/13/2021 3:45:00 PM 3.52 38.336 0.055 6.58 1.77 12.83
1/13/2021 4:00:00 PM 3.51 38.318 0.055 6.57 1.78 12.8
1/13/2021 4:15:00 PM 3.51 38.318 0.055 6.56 1.82 12.75
1/13/2021 4:30:00 PM 3.51 38.318 0.055 6.54 1.82 12.73
1/13/2021 4:45:00 PM 3.51 38.318 0.055 6.55 1.85 12.68
1/13/2021 5:00:00 PM 3.49 38.282 0.055 6.52 1.86 12.63
1/13/2021 5:15:00 PM 3.48 38.264 0.055 6.5 1.87 12.6
1/13/2021 5:30:00 PM 3.47 38.246 0.055 6.51 1.85 12.57
1/13/2021 5:45:00 PM 3.46 38.228 0.055 6.49 1.85 12.56
1/13/2021 6:00:00 PM 3.46 38.228 0.055 6.48 1.95 12.54
1/13/2021 6:15:00 PM 3.45 38.21 0.055 6.49 1.88 12.54
1/13/2021 6:30:00 PM 3.44 38.192 0.055 6.48 1.89 12.53
1/13/2021 6:45:00 PM 3.44 38.192 0.055 6.49 1.86 12.52
1/13/2021 7:00:00 PM 3.43 38.174 0.056 6.47 1.86 12.51
1/13/2021 7:15:00 PM 3.42 38.156 0.056 6.47 1.94 12.51
1/13/2021 7:30:00 PM 3.41 38.138 0.056 6.48 1.97 12.52
1/13/2021 7:45:00 PM 3.4 38.12 0.056 6.45 1.86 12.51
1/13/2021 8:00:00 PM 3.4 38.12 0.056 6.48 1.93 12.51
1/13/2021 8:15:00 PM 3.39 38.102 0.056 6.45 1.91 12.51
1/13/2021 8:30:00 PM 3.38 38.084 0.056 6.47 1.92 12.51
1/13/2021 8:45:00 PM 3.38 38.084 0.056 6.47 1.86 12.52
1/13/2021 9:00:00 PM 3.37 38.066 0.056 6.46 1.89 12.52
1/13/2021 9:15:00 PM 3.36 38.048 0.056 6.46 1.9 12.52
1/13/2021 9:30:00 PM 3.35 38.03 0.056 6.47 1.93 12.52
1/13/2021 9:45:00 PM 3.34 38.012 0.056 6.45 1.91 12.53
1/13/2021 10:00:00 PM 3.32 37.976 0.056 6.45 1.94 12.53
1/13/2021 10:15:00 PM 3.3 37.94 0.056 6.46 1.93 12.53
1/13/2021 10:30:00 PM 3.28 37.904 0.056 6.47 1.93 12.54
1/13/2021 10:45:00 PM 3.26 37.868 0.056 6.46 1.91 12.55
1/13/2021 11:00:00 PM 3.24 37.832 0.056 6.45 1.93 12.56
1/13/2021 11:15:00 PM 3.23 37.814 0.056 6.46 1.96 12.56
1/13/2021 11:30:00 PM 3.21 37.778 0.056 6.46 1.98 12.56
1/13/2021 11:45:00 PM 3.2 37.76 0.056 6.45 1.9 12.57
1/14/2021 12:00:00 AM 3.19 37.742 0.056 6.45 1.85 12.57
1/14/2021 12:15:00 AM 3.17 37.706 0.056 6.47 1.94 12.58
1/14/2021 12:30:00 AM 3.15 37.67 0.056 6.46 1.92 12.59
1/14/2021 12:45:00 AM 3.13 37.634 0.056 6.44 1.84 12.58
1/14/2021 1:00:00 AM 3.12 37.616 0.056 6.47 1.98 12.6
1/14/2021 1:15:00 AM 3.11 37.598 0.056 6.46 2.06 12.6
1/14/2021 1:30:00 AM 3.1 37.58 0.056 6.45 2.05 12.6
1/14/2021 1:45:00 AM 3.08 37.544 0.056 6.47 2.07 12.6
1/14/2021 2:00:00 AM 3.08 37.544 0.056 6.46 1.96 12.61
1/14/2021 2:15:00 AM 3.07 37.526 0.056 6.47 1.87 12.61
1/14/2021 2:30:00 AM 3.07 37.526 0.056 6.44 1.94 12.61
1/14/2021 2:45:00 AM 3.06 37.508 0.056 6.46 1.91 12.61
1/14/2021 3:00:00 AM 3.05 37.49 0.056 6.44 1.94 12.62
1/14/2021 3:15:00 AM 3.04 37.472 0.056 6.47 1.92 12.62
1/14/2021 3:30:00 AM 3.04 37.472 0.056 6.46 1.94 12.62
1/14/2021 3:45:00 AM 3.04 37.472 0.056 6.46 1.97 12.62
1/14/2021 4:00:00 AM 3.03 37.454 0.056 6.44 2.09 12.62
1/14/2021 4:15:00 AM 3.02 37.436 0.056 6.46 1.92 12.62
1/14/2021 4:30:00 AM 3.02 37.436 0.056 6.47 1.96 12.62
1/14/2021 4:45:00 AM 3.02 37.436 0.056 6.45 1.92 12.63
1/14/2021 5:00:00 AM 3.02 37.436 0.056 6.45 1.96 12.62
1/14/2021 5:15:00 AM 3.02 37.436 0.056 6.45 1.9 12.62
1/14/2021 5:30:00 AM 3.02 37.436 0.056 6.45 1.92 12.62
1/14/2021 5:45:00 AM 3.02 37.436 0.056 6.47 1.91 12.63
1/14/2021 6:00:00 AM 3.02 37.436 0.056 6.46 1.88 12.63
1/14/2021 6:15:00 AM 3.02 37.436 0.056 6.46 1.95 12.63
1/14/2021 6:30:00 AM 3.01 37.418 0.056 6.46 2.01 12.63
1/14/2021 6:45:00 AM 3.01 37.418 0.056 6.44 1.88 12.63
1/14/2021 7:00:00 AM 3.02 37.436 0.056 6.45 1.87 12.62
1/14/2021 7:15:00 AM 3.02 37.436 0.056 6.46 1.9 12.63
1/14/2021 7:30:00 AM 3.02 37.436 0.056 6.45 1.88 12.62
1/14/2021 7:45:00 AM 3.03 37.454 0.056 6.45 1.87 12.63
1/14/2021 8:00:00 AM 3.03 37.454 0.056 6.45 1.96 12.64
1/14/2021 8:15:00 AM 3.04 37.472 0.056 6.46 1.93 12.67
1/14/2021 8:30:00 AM 3.06 37.508 0.056 6.47 1.84 12.69
1/14/2021 8:45:00 AM 3.07 37.526 0.056 6.49 1.82 12.71
1/14/2021 9:00:00 AM 3.09 37.562 0.056 6.49 1.83 12.73
1/14/2021 9:15:00 AM 3.12 37.616 0.056 6.49 1.83 12.76
1/14/2021 9:30:00 AM 3.15 37.67 0.056 6.51 1.81 12.77
1/14/2021 9:45:00 AM 3.19 37.742 0.056 6.49 1.82 12.8
1/14/2021 10:00:00 AM 3.23 37.814 0.056 6.51 1.79 12.82
1/14/2021 10:15:00 AM 3.29 37.922 0.056 6.53 1.83 12.82
1/14/2021 10:30:00 AM 3.33 37.994 0.055 6.54 2.11 12.82
1/14/2021 10:45:00 AM 3.42 38.156 0.055 6.55 1.84 12.83
1/14/2021 11:00:00 AM 3.52 38.336 0.055 6.55 1.8 12.82
1/14/2021 11:15:00 AM 3.63 38.534 0.055 6.57 1.83 12.81
1/14/2021 11:30:00 AM 3.72 38.696 0.055 6.57 1.8 12.8
1/14/2021 11:45:00 AM 3.8 38.84 0.055 6.58 1.8 12.78
1/14/2021 12:00:00 PM 3.86 38.948 0.055 6.57 1.82 12.75
1/14/2021 12:15:00 PM 3.95 39.11 0.055 6.58 1.8 12.73
1/14/2021 12:30:00 PM 4.02 39.236 0.055 6.59 1.78 12.7
1/14/2021 12:45:00 PM 4.06 39.308 0.055 6.58 1.77 12.67
1/14/2021 1:00:00 PM 4.11 39.398 0.055 6.58 1.8 12.65
1/14/2021 1:15:00 PM 4.14 39.452 0.055 6.59 1.79 12.62
1/14/2021 1:30:00 PM 4.17 39.506 0.055 6.58 1.84 12.59
1/14/2021 1:45:00 PM 4.19 39.542 0.055 6.58 1.87 12.56
1/14/2021 2:00:00 PM 4.23 39.614 0.055 6.57 1.82 12.55
1/14/2021 2:15:00 PM 4.25 39.65 0.055 6.58 1.84 12.53
1/14/2021 2:30:00 PM 4.27 39.686 0.055 6.57 1.82 12.52
1/14/2021 2:45:00 PM 4.29 39.722 0.055 6.58 1.82 12.51
1/14/2021 3:00:00 PM 4.3 39.74 0.055 6.54 1.8 12.47
1/14/2021 3:15:00 PM 4.31 39.758 0.055 6.56 1.82 12.45
1/14/2021 3:30:00 PM 4.32 39.776 0.055 6.54 1.8 12.42
1/14/2021 3:45:00 PM 4.33 39.794 0.055 6.53 1.82 12.41
1/14/2021 4:00:00 PM 4.34 39.812 0.055 6.55 1.83 12.39
1/14/2021 4:15:00 PM 4.35 39.83 0.055 6.51 1.82 12.37
1/14/2021 4:30:00 PM 4.35 39.83 0.055 6.53 1.78 12.35
1/14/2021 4:45:00 PM 4.34 39.812 0.055 6.5 1.84 12.32
1/14/2021 5:00:00 PM 4.33 39.794 0.055 6.5 1.81 12.29
1/14/2021 5:15:00 PM 4.32 39.776 0.055 6.48 1.85 12.27
1/14/2021 5:30:00 PM 4.31 39.758 0.055 6.48 1.85 12.25
1/14/2021 5:45:00 PM 4.3 39.74 0.055 6.47 1.87 12.24
1/14/2021 6:00:00 PM 4.29 39.722 0.055 6.48 1.89 12.24
1/14/2021 6:15:00 PM 4.28 39.704 0.055 6.45 1.89 12.23
1/14/2021 6:30:00 PM 4.27 39.686 0.055 6.47 1.87 12.23
1/14/2021 6:45:00 PM 4.24 39.632 0.055 6.46 1.98 12.22
1/14/2021 7:00:00 PM 4.19 39.542 0.055 6.45 1.98 12.23
1/14/2021 7:15:00 PM 4.14 39.452 0.055 6.45 1.9 12.24
1/14/2021 7:30:00 PM 4.1 39.38 0.055 6.45 1.9 12.25
1/14/2021 7:45:00 PM 4.06 39.308 0.055 6.45 1.94 12.26
1/14/2021 8:00:00 PM 4.01 39.218 0.055 6.45 1.97 12.27
1/14/2021 8:15:00 PM 3.97 39.146 0.056 6.47 1.9 12.29
1/14/2021 8:30:00 PM 3.93 39.074 0.056 6.46 1.86 12.3
1/14/2021 8:45:00 PM 3.89 39.002 0.056 6.45 1.86 12.31
1/14/2021 9:00:00 PM 3.86 38.948 0.056 6.46 1.89 12.33
1/14/2021 9:15:00 PM 3.82 38.876 0.056 6.46 1.95 12.34
1/14/2021 9:30:00 PM 3.77 38.786 0.056 6.46 1.92 12.36
1/14/2021 9:45:00 PM 3.72 38.696 0.056 6.45 1.9 12.37
1/14/2021 10:00:00 PM 3.68 38.624 0.056 6.46 1.91 12.4
1/14/2021 10:15:00 PM 3.63 38.534 0.056 6.45 1.94 12.41
1/14/2021 10:30:00 PM 3.6 38.48 0.056 6.46 1.9 12.42
1/14/2021 10:45:00 PM 3.57 38.426 0.056 6.46 1.91 12.43
1/14/2021 11:00:00 PM 3.55 38.39 0.056 6.46 1.96 12.44
1/14/2021 11:15:00 PM 3.53 38.354 0.056 6.46 1.97 12.45
1/14/2021 11:30:00 PM 3.51 38.318 0.056 6.46 1.92 12.46
1/14/2021 11:45:00 PM 3.49 38.282 0.056 6.45 1.92 12.47
1/15/2021 12:00:00 AM 3.47 38.246 0.056 6.47 1.99 12.48
1/15/2021 12:15:00 AM 3.45 38.21 0.056 6.47 1.94 12.49
1/15/2021 12:30:00 AM 3.43 38.174 0.056 6.46 2.14 12.49
1/15/2021 12:45:00 AM 3.42 38.156 0.056 6.46 2 12.5
1/15/2021 1:00:00 AM 3.4 38.12 0.056 6.46 1.95 12.51
1/15/2021 1:15:00 AM 3.38 38.084 0.056 6.48 1.92 12.52
1/15/2021 1:30:00 AM 3.36 38.048 0.056 6.46 2.02 12.53
1/15/2021 1:45:00 AM 3.34 38.012 0.056 6.46 1.91 12.54
1/15/2021 2:00:00 AM 3.32 37.976 0.056 6.45 1.9 12.54
1/15/2021 2:15:00 AM 3.3 37.94 0.056 6.48 2.02 12.54
1/15/2021 2:30:00 AM 3.28 37.904 0.056 6.47 1.91 12.55
1/15/2021 2:45:00 AM 3.26 37.868 0.056 6.48 2.03 12.56
1/15/2021 3:00:00 AM 3.25 37.85 0.056 6.47 1.9 12.58
1/15/2021 3:15:00 AM 3.24 37.832 0.056 6.46 1.95 12.57
1/15/2021 3:30:00 AM 3.23 37.814 0.056 6.48 1.92 12.58
1/15/2021 3:45:00 AM 3.22 37.796 0.056 6.47 2.15 12.58
1/15/2021 4:00:00 AM 3.21 37.778 0.056 6.45 3.07 12.58
1/15/2021 4:15:00 AM 3.2 37.76 0.056 6.48 3.01 12.59
1/15/2021 4:30:00 AM 3.19 37.742 0.056 6.45 2.21 12.58
1/15/2021 4:45:00 AM 3.19 37.742 0.056 6.48 2.01 12.6
1/15/2021 5:00:00 AM 3.19 37.742 0.056 6.46 2.87 12.6
1/15/2021 5:15:00 AM 3.18 37.724 0.056 6.48 3.37 12.59
1/15/2021 5:30:00 AM 3.19 37.742 0.056 6.45 2.36 12.6
1/15/2021 5:45:00 AM 3.19 37.742 0.056 6.47 2.84 12.59
1/15/2021 6:00:00 AM 3.2 37.76 0.056 6.48 3.41 12.59
1/15/2021 6:15:00 AM 3.2 37.76 0.056 6.47 3.47 12.59
1/15/2021 6:30:00 AM 3.21 37.778 0.056 6.46 3.46 12.58
1/15/2021 6:45:00 AM 3.22 37.796 0.056 6.46 3.21 12.59
1/15/2021 7:00:00 AM 3.23 37.814 0.056 6.48 2.34 12.58
1/15/2021 7:15:00 AM 3.23 37.814 0.056 6.47 2.11 12.58
1/15/2021 7:30:00 AM 3.24 37.832 0.056 6.48 2.02 12.58
1/15/2021 7:45:00 AM 3.25 37.85 0.056 6.47 2.01 12.58
1/15/2021 8:00:00 AM 3.26 37.868 0.056 6.48 1.93 12.58
1/15/2021 8:15:00 AM 3.27 37.886 0.056 6.49 1.92 12.59
1/15/2021 8:30:00 AM 3.28 37.904 0.056 6.46 1.87 12.6
1/15/2021 8:45:00 AM 3.29 37.922 0.056 6.5 1.89 12.62
1/15/2021 9:00:00 AM 3.31 37.958 0.056 6.48 1.9 12.65
1/15/2021 9:15:00 AM 3.34 38.012 0.056 6.52 1.84 12.69
1/15/2021 9:30:00 AM 3.37 38.066 0.056 6.53 1.83 12.71
1/15/2021 9:45:00 AM 3.41 38.138 0.056 6.52 1.84 12.74
1/15/2021 10:00:00 AM 3.44 38.192 0.056 6.55 1.81 12.74
1/15/2021 10:15:00 AM 3.47 38.246 0.056 6.55 1.82 12.75
1/15/2021 10:30:00 AM 3.54 38.372 0.056 6.57 1.81 12.77
1/15/2021 10:45:00 AM 3.57 38.426 0.056 6.57 1.8 12.75
1/15/2021 11:00:00 AM 3.6 38.48 0.056 6.55 1.81 12.75
1/15/2021 11:15:00 AM 3.63 38.534 0.056 6.58 1.84 12.74
1/15/2021 11:30:00 AM 3.67 38.606 0.056 6.58 1.85 12.74
1/15/2021 11:45:00 AM 3.7 38.66 0.056 6.58 1.82 12.72
1/15/2021 12:00:00 PM 3.72 38.696 0.056 6.55 1.81 12.71
1/15/2021 12:15:00 PM 3.75 38.75 0.056 6.57 1.82 12.7
1/15/2021 12:30:00 PM 3.79 38.822 0.056 6.59 1.81 12.71
1/15/2021 12:45:00 PM 3.83 38.894 0.055 6.58 1.85 12.71
1/15/2021 1:00:00 PM 3.84 38.912 0.055 6.6 1.85 12.69
1/15/2021 1:15:00 PM 3.86 38.948 0.056 6.57 1.83 12.68
1/15/2021 1:30:00 PM 3.89 39.002 0.055 6.6 1.94 12.68
1/15/2021 1:45:00 PM 3.94 39.092 0.055 6.6 1.9 12.67
1/15/2021 2:00:00 PM 4.03 39.254 0.055 6.59 1.85 12.66
1/15/2021 2:15:00 PM 4.05 39.29 0.055 6.61 1.81 12.63
1/15/2021 2:30:00 PM 4.04 39.272 0.055 6.57 1.87 12.61
1/15/2021 2:45:00 PM 4.05 39.29 0.055 6.6 1.9 12.6
1/15/2021 3:00:00 PM 4.06 39.308 0.055 6.57 1.94 12.57
1/15/2021 3:15:00 PM 4.07 39.326 0.055 6.57 1.95 12.53
1/15/2021 3:30:00 PM 4.06 39.308 0.055 6.57 1.95 12.5
1/15/2021 3:45:00 PM 4.06 39.308 0.055 6.55 1.9 12.5
1/15/2021 4:00:00 PM 4.05 39.29 0.056 6.56 1.9 12.46
1/15/2021 4:15:00 PM 4.05 39.29 0.056 6.55 1.83 12.43
1/15/2021 4:30:00 PM 4.05 39.29 0.056 6.51 1.92 12.41
1/15/2021 4:45:00 PM 4.04 39.272 0.056 6.52 1.88 12.37
1/15/2021 5:00:00 PM 4.04 39.272 0.056 6.52 1.85 12.34
1/15/2021 5:15:00 PM 4.03 39.254 0.056 6.49 1.91 12.32
1/15/2021 5:30:00 PM 4.02 39.236 0.056 6.51 1.93 12.31
1/15/2021 5:45:00 PM 4 39.2 0.056 6.5 1.93 12.3
1/15/2021 6:00:00 PM 3.99 39.182 0.056 6.49 1.98 12.29
1/15/2021 6:15:00 PM 3.98 39.164 0.056 6.49 2 12.29
1/15/2021 6:30:00 PM 3.97 39.146 0.056 6.48 2.06 12.29
1/15/2021 6:45:00 PM 3.95 39.11 0.056 6.48 2.07 12.28
1/15/2021 7:00:00 PM 3.93 39.074 0.056 6.44 2.07 12.28
1/15/2021 7:15:00 PM 3.91 39.038 0.056 6.46 2.1 12.28
1/15/2021 7:30:00 PM 3.88 38.984 0.056 6.46 2.09 12.29
1/15/2021 7:45:00 PM 3.86 38.948 0.056 6.44 2.02 12.29
1/15/2021 8:00:00 PM 3.85 38.93 0.056 6.46 2.7 12.29
1/15/2021 8:15:00 PM 3.83 38.894 0.056 6.43 2.18 12.3
1/15/2021 8:30:00 PM 3.81 38.858 0.056 6.44 2.22 12.3
1/15/2021 8:45:00 PM 3.79 38.822 0.056 6.43 2.22 12.31
1/15/2021 9:00:00 PM 3.78 38.804 0.056 6.45 2.21 12.32
1/15/2021 9:15:00 PM 3.76 38.768 0.056 6.45 2.13 12.32
1/15/2021 9:30:00 PM 3.74 38.732 0.056 6.44 2.2 12.32
1/15/2021 9:45:00 PM 3.68 38.624 0.056 6.42 2.29 12.33
1/15/2021 10:00:00 PM 3.57 38.426 0.056 6.44 2.22 12.34
1/15/2021 10:15:00 PM 3.55 38.39 0.056 6.44 2.22 12.35
1/15/2021 10:30:00 PM 3.55 38.39 0.056 6.43 2.24 12.36
1/15/2021 10:45:00 PM 3.53 38.354 0.057 6.44 2.23 12.37
1/15/2021 11:00:00 PM 3.5 38.3 0.057 6.43 2.27 12.38
1/15/2021 11:15:00 PM 3.46 38.228 0.057 6.42 2.2 12.39
1/15/2021 11:30:00 PM 3.44 38.192 0.057 6.43 2.24 12.4
1/15/2021 11:45:00 PM 3.44 38.192 0.057 6.43 2.35 12.41
1/16/2021 12:00:00 AM 3.43 38.174 0.058 6.44 2.26 12.42
1/16/2021 12:15:00 AM 3.42 38.156 0.058 6.41 2.25 12.42
1/16/2021 12:30:00 AM 3.41 38.138 0.059 6.44 2.24 12.42
1/16/2021 12:45:00 AM 3.4 38.12 0.059 6.45 2.63 12.43
1/16/2021 1:00:00 AM 3.4 38.12 0.06 6.45 2.48 12.42
1/16/2021 1:15:00 AM 3.4 38.12 0.061 6.44 2.51 12.42
1/16/2021 1:30:00 AM 3.4 38.12 0.061 6.45 2.44 12.43
1/16/2021 1:45:00 AM 3.4 38.12 0.062 6.45 2.37 12.43
1/16/2021 2:00:00 AM 3.4 38.12 0.062 6.43 2.23 12.43
1/16/2021 2:15:00 AM 3.4 38.12 0.063 6.45 2.22 12.43
1/16/2021 2:30:00 AM 3.39 38.102 0.063 6.44 2.2 12.43
1/16/2021 2:45:00 AM 3.39 38.102 0.063 6.46 2.17 12.43
1/16/2021 3:00:00 AM 3.39 38.102 0.064 6.45 2.16 12.43
1/16/2021 3:15:00 AM 3.38 38.084 0.064 6.45 2.14 12.43
1/16/2021 3:30:00 AM 3.37 38.066 0.065 6.45 2.24 12.43
1/16/2021 3:45:00 AM 3.35 38.03 0.065 6.46 2.07 12.43
1/16/2021 4:00:00 AM 3.36 38.048 0.065 6.45 2.13 12.43
1/16/2021 4:15:00 AM 3.35 38.03 0.065 6.46 2.05 12.42
1/16/2021 4:30:00 AM 3.34 38.012 0.066 6.47 2.16 12.43
1/16/2021 4:45:00 AM 3.33 37.994 0.066 6.47 2.72 12.43
1/16/2021 5:00:00 AM 3.34 38.012 0.066 6.45 2.99 12.43
1/16/2021 5:15:00 AM 3.33 37.994 0.066 6.48 2.47 12.43
1/16/2021 5:30:00 AM 3.29 37.922 0.066 6.47 2.24 12.43
1/16/2021 5:45:00 AM 3.26 37.868 0.066 6.46 2.38 12.44
1/16/2021 6:00:00 AM 3.23 37.814 0.066 6.46 2.53 12.45
1/16/2021 6:15:00 AM 3.2 37.76 0.066 6.47 2.19 12.45
1/16/2021 6:30:00 AM 3.16 37.688 0.066 6.47 2.12 12.45
1/16/2021 6:45:00 AM 3.13 37.634 0.066 6.48 2.13 12.47
1/16/2021 7:00:00 AM 3.09 37.562 0.066 6.49 2.06 12.47
1/16/2021 7:15:00 AM 3.05 37.49 0.066 6.48 2.02 12.48
1/16/2021 7:30:00 AM 3.02 37.436 0.066 6.48 2.07 12.5
1/16/2021 7:45:00 AM 2.98 37.364 0.066 6.48 2.05 12.53
1/16/2021 8:00:00 AM 2.96 37.328 0.066 6.47 2.01 12.56
1/16/2021 8:15:00 AM 2.95 37.31 0.066 6.49 2.01 12.61
1/16/2021 8:30:00 AM 2.94 37.292 0.067 6.52 2.01 12.66
1/16/2021 8:45:00 AM 2.95 37.31 0.067 6.53 1.96 12.7
1/16/2021 9:00:00 AM 2.97 37.346 0.067 6.54 1.97 12.72
1/16/2021 9:15:00 AM 3 37.4 0.067 6.53 1.92 12.75
1/16/2021 9:30:00 AM 3.03 37.454 0.067 6.55 1.91 12.77
1/16/2021 9:45:00 AM 3.07 37.526 0.067 6.57 1.91 12.8
1/16/2021 10:00:00 AM 3.11 37.598 0.067 6.59 1.9 12.8
1/16/2021 10:15:00 AM 3.14 37.652 0.067 6.59 1.93 12.8
1/16/2021 10:30:00 AM 3.17 37.706 0.067 6.59 1.94 12.8
1/16/2021 10:45:00 AM 3.21 37.778 0.067 6.6 1.92 12.8
1/16/2021 11:00:00 AM 3.27 37.886 0.067 6.59 1.86 12.81
1/16/2021 11:15:00 AM 3.33 37.994 0.067 6.6 1.9 12.8
1/16/2021 11:30:00 AM 3.41 38.138 0.067 6.63 1.91 12.79
1/16/2021 11:45:00 AM 3.46 38.228 0.067 6.62 1.9 12.77
1/16/2021 12:00:00 PM 3.53 38.354 0.067 6.63 1.88 12.75
1/16/2021 12:15:00 PM 3.58 38.444 0.067 6.63 1.84 12.73
1/16/2021 12:30:00 PM 3.63 38.534 0.067 6.61 1.9 12.72
1/16/2021 12:45:00 PM 3.67 38.606 0.067 6.62 1.86 12.71
1/16/2021 1:00:00 PM 3.72 38.696 0.067 6.64 1.9 12.69
1/16/2021 1:15:00 PM 3.75 38.75 0.067 6.63 1.89 12.67
1/16/2021 1:30:00 PM 3.78 38.804 0.067 6.63 1.91 12.66
1/16/2021 1:45:00 PM 3.81 38.858 0.067 6.63 1.91 12.65
1/16/2021 2:00:00 PM 3.84 38.912 0.067 6.63 1.88 12.63
1/16/2021 2:15:00 PM 3.84 38.912 0.067 6.63 1.91 12.6
1/16/2021 2:30:00 PM 3.83 38.894 0.067 6.59 1.89 12.57
1/16/2021 2:45:00 PM 3.82 38.876 0.067 6.6 1.86 12.56
1/16/2021 3:00:00 PM 3.82 38.876 0.067 6.61 1.89 12.55
1/16/2021 3:15:00 PM 3.83 38.894 0.067 6.61 1.87 12.55
1/16/2021 3:30:00 PM 3.84 38.912 0.067 6.61 1.88 12.56
1/16/2021 3:45:00 PM 3.83 38.894 0.067 6.59 1.91 12.54
1/16/2021 4:00:00 PM 3.82 38.876 0.067 6.61 1.94 12.53
1/16/2021 4:15:00 PM 3.8 38.84 0.067 6.59 1.92 12.52
1/16/2021 4:30:00 PM 3.78 38.804 0.067 6.59 1.9 12.5
1/16/2021 4:45:00 PM 3.74 38.732 0.067 6.59 1.9 12.48
1/16/2021 5:00:00 PM 3.71 38.678 0.067 6.57 1.94 12.43
1/16/2021 5:15:00 PM 3.67 38.606 0.067 6.56 1.9 12.39
1/16/2021 5:30:00 PM 3.63 38.534 0.067 6.53 1.91 12.37
1/16/2021 5:45:00 PM 3.6 38.48 0.067 6.52 1.99 12.36
1/16/2021 6:00:00 PM 3.49 38.282 0.067 6.52 1.99 12.35
1/16/2021 6:15:00 PM 3.47 38.246 0.067 6.53 2 12.35
1/16/2021 6:30:00 PM 3.46 38.228 0.067 6.52 2 12.35
1/16/2021 6:45:00 PM 3.45 38.21 0.067 6.52 1.96 12.35
1/16/2021 7:00:00 PM 3.42 38.156 0.067 6.52 1.99 12.35
1/16/2021 7:15:00 PM 3.4 38.12 0.067 6.51 2.05 12.36
1/16/2021 7:30:00 PM 3.38 38.084 0.067 6.51 2.02 12.37
1/16/2021 7:45:00 PM 3.35 38.03 0.067 6.51 1.97 12.37
1/16/2021 8:00:00 PM 3.31 37.958 0.067 6.49 1.91 12.38
1/16/2021 8:15:00 PM 3.27 37.886 0.067 6.52 1.91 12.39
1/16/2021 8:30:00 PM 3.26 37.868 0.067 6.49 1.98 12.4
1/16/2021 8:45:00 PM 3.24 37.832 0.067 6.5 1.99 12.41
1/16/2021 9:00:00 PM 3.23 37.814 0.067 6.51 2 12.41
1/16/2021 9:15:00 PM 3.21 37.778 0.067 6.52 1.95 12.42
1/16/2021 9:30:00 PM 3.19 37.742 0.067 6.52 2.03 12.42
1/16/2021 9:45:00 PM 3.18 37.724 0.067 6.49 1.96 12.42
1/16/2021 10:00:00 PM 3.16 37.688 0.067 6.5 1.98 12.44
1/16/2021 10:15:00 PM 3.12 37.616 0.067 6.51 1.99 12.44
1/16/2021 10:30:00 PM 3.07 37.526 0.067 6.48 1.95 12.44
1/16/2021 10:45:00 PM 3.03 37.454 0.067 6.49 2.02 12.46
1/16/2021 11:00:00 PM 3.02 37.436 0.067 6.52 2.03 12.48
1/16/2021 11:15:00 PM 3 37.4 0.067 6.51 1.99 12.48
1/16/2021 11:30:00 PM 2.97 37.346 0.067 6.51 1.98 12.5
1/16/2021 11:45:00 PM 2.93 37.274 0.067 6.51 1.93 12.5
1/17/2021 12:00:00 AM 2.9 37.22 0.067 6.52 1.91 12.52
1/17/2021 12:15:00 AM 2.86 37.148 0.067 6.51 1.94 12.53
1/17/2021 12:30:00 AM 2.83 37.094 0.067 6.51 1.92 12.54
1/17/2021 12:45:00 AM 2.8 37.04 0.067 6.51 1.93 12.56
1/17/2021 1:00:00 AM 2.77 36.986 0.067 6.51 1.92 12.56
1/17/2021 1:15:00 AM 2.75 36.95 0.067 6.5 1.95 12.57
1/17/2021 1:30:00 AM 2.72 36.896 0.067 6.51 1.97 12.59
1/17/2021 1:45:00 AM 2.7 36.86 0.067 6.51 1.97 12.6
1/17/2021 2:00:00 AM 2.67 36.806 0.067 6.51 1.94 12.61
1/17/2021 2:15:00 AM 2.65 36.77 0.067 6.51 1.95 12.62
1/17/2021 2:30:00 AM 2.63 36.734 0.067 6.5 1.94 12.63
1/17/2021 2:45:00 AM 2.61 36.698 0.067 6.52 1.93 12.64
1/17/2021 3:00:00 AM 2.59 36.662 0.067 6.49 2.02 12.65
1/17/2021 3:15:00 AM 2.57 36.626 0.067 6.51 2.03 12.65
1/17/2021 3:30:00 AM 2.55 36.59 0.067 6.52 1.99 12.66
1/17/2021 3:45:00 AM 2.53 36.554 0.067 6.52 1.93 12.67
1/17/2021 4:00:00 AM 2.51 36.518 0.067 6.51 1.97 12.68
1/17/2021 4:15:00 AM 2.5 36.5 0.067 6.5 2.01 12.68
1/17/2021 4:30:00 AM 2.49 36.482 0.067 6.51 1.99 12.69
1/17/2021 4:45:00 AM 2.47 36.446 0.067 6.51 1.97 12.69
1/17/2021 5:00:00 AM 2.46 36.428 0.067 6.52 1.99 12.7
1/17/2021 5:15:00 AM 2.45 36.41 0.067 6.52 2.03 12.7
1/17/2021 5:30:00 AM 2.44 36.392 0.067 6.5 1.97 12.71
1/17/2021 5:45:00 AM 2.43 36.374 0.067 6.51 1.95 12.71
1/17/2021 6:00:00 AM 2.41 36.338 0.067 6.5 1.95 12.72
1/17/2021 6:15:00 AM 2.41 36.338 0.067 6.52 1.9 12.72
1/17/2021 6:30:00 AM 2.4 36.32 0.067 6.52 1.98 12.73
1/17/2021 6:45:00 AM 2.39 36.302 0.067 6.5 2.09 12.73
1/17/2021 7:00:00 AM 2.4 36.32 0.067 6.52 2.1 12.73
1/17/2021 7:15:00 AM 2.4 36.32 0.067 6.52 2.11 12.74
1/17/2021 7:30:00 AM 2.4 36.32 0.067 6.5 2.04 12.74
1/17/2021 7:45:00 AM 2.4 36.32 0.067 6.51 2.12 12.75
1/17/2021 8:00:00 AM 2.4 36.32 0.067 6.51 2.06 12.75
1/17/2021 8:15:00 AM 2.41 36.338 0.067 6.53 1.93 12.78
1/17/2021 8:30:00 AM 2.42 36.356 0.066 6.54 1.87 12.82
1/17/2021 8:45:00 AM 2.44 36.392 0.066 6.54 1.87 12.84
1/17/2021 9:00:00 AM 2.44 36.392 0.066 6.55 1.86 12.85
1/17/2021 9:15:00 AM 2.47 36.446 0.066 6.55 1.88 12.89
1/17/2021 9:30:00 AM 2.5 36.5 0.066 6.56 1.83 12.94
1/17/2021 9:45:00 AM 2.52 36.536 0.066 6.59 1.84 12.96
1/17/2021 10:00:00 AM 2.53 36.554 0.066 6.56 1.85 12.94
1/17/2021 10:15:00 AM 2.56 36.608 0.066 6.58 1.83 12.97
1/17/2021 10:30:00 AM 2.59 36.662 0.066 6.59 1.87 12.99
1/17/2021 10:45:00 AM 2.61 36.698 0.066 6.6 1.96 12.97
1/17/2021 11:00:00 AM 2.64 36.752 0.066 6.6 1.88 12.98
1/17/2021 11:15:00 AM 2.66 36.788 0.066 6.61 1.86 12.99
1/17/2021 11:30:00 AM 2.69 36.842 0.066 6.58 1.84 12.99
1/17/2021 11:45:00 AM 2.72 36.896 0.066 6.6 1.84 12.98
1/17/2021 12:00:00 PM 2.74 36.932 0.066 6.6 1.82 12.97
1/17/2021 12:15:00 PM 2.77 36.986 0.066 6.61 1.82 12.97
1/17/2021 12:30:00 PM 2.81 37.058 0.066 6.62 1.81 12.97
1/17/2021 12:45:00 PM 2.85 37.13 0.065 6.62 1.83 12.97
1/17/2021 1:00:00 PM 2.88 37.184 0.065 6.62 1.82 12.95
1/17/2021 1:15:00 PM 2.89 37.202 0.065 6.62 1.82 12.93
1/17/2021 1:30:00 PM 2.93 37.274 0.065 6.62 1.86 12.93
1/17/2021 1:45:00 PM 2.98 37.364 0.065 6.61 1.8 12.94
1/17/2021 2:00:00 PM 3.02 37.436 0.065 6.64 1.88 12.93
1/17/2021 2:15:00 PM 3.04 37.472 0.065 6.63 1.83 12.9
1/17/2021 2:30:00 PM 3.05 37.49 0.065 6.62 1.82 12.87
1/17/2021 2:45:00 PM 3.08 37.544 0.065 6.61 1.83 12.87
1/17/2021 3:00:00 PM 3.1 37.58 0.065 6.62 1.8 12.84
1/17/2021 3:15:00 PM 3.11 37.598 0.065 6.62 1.79 12.82
1/17/2021 3:30:00 PM 3.11 37.598 0.065 6.61 1.82 12.79
1/17/2021 3:45:00 PM 3.1 37.58 0.065 6.6 1.82 12.75
1/17/2021 4:00:00 PM 3.08 37.544 0.065 6.58 1.86 12.73
1/17/2021 4:15:00 PM 3.1 37.58 0.065 6.59 1.83 12.71
1/17/2021 4:30:00 PM 3.11 37.598 0.065 6.57 1.83 12.69
1/17/2021 4:45:00 PM 3.11 37.598 0.065 6.57 1.85 12.65
1/17/2021 5:00:00 PM 3.11 37.598 0.065 6.56 1.84 12.63
1/17/2021 5:15:00 PM 3.11 37.598 0.065 6.55 1.83 12.62
1/17/2021 5:30:00 PM 3.1 37.58 0.065 6.53 1.85 12.59
1/17/2021 5:45:00 PM 3.1 37.58 0.066 6.53 1.84 12.57
1/17/2021 6:00:00 PM 3.09 37.562 0.066 6.52 1.9 12.57
1/17/2021 6:15:00 PM 3.1 37.58 0.066 6.54 1.85 12.57
1/17/2021 6:30:00 PM 3.09 37.562 0.066 6.52 1.9 12.56
1/17/2021 6:45:00 PM 3.1 37.58 0.066 6.51 1.9 12.54
1/17/2021 7:00:00 PM 3.1 37.58 0.066 6.53 1.97 12.54
1/17/2021 7:15:00 PM 3.1 37.58 0.066 6.53 1.95 12.54
1/17/2021 7:30:00 PM 3.09 37.562 0.066 6.52 1.88 12.54
1/17/2021 7:45:00 PM 3.09 37.562 0.066 6.52 1.89 12.54
1/17/2021 8:00:00 PM 3.09 37.562 0.066 6.52 1.91 12.54
1/17/2021 8:15:00 PM 3.09 37.562 0.066 6.52 1.91 12.53
1/17/2021 8:30:00 PM 3.05 37.49 0.065 6.52 2 12.53
1/17/2021 8:45:00 PM 3.03 37.454 0.065 6.52 1.98 12.55
1/17/2021 9:00:00 PM 3.01 37.418 0.065 6.52 1.91 12.55
1/17/2021 9:15:00 PM 3 37.4 0.065 6.51 1.96 12.55
1/17/2021 9:30:00 PM 2.96 37.328 0.065 6.5 1.92 12.55
1/17/2021 9:45:00 PM 2.9 37.22 0.065 6.52 1.99 12.56
1/17/2021 10:00:00 PM 2.87 37.166 0.065 6.51 1.94 12.57
1/17/2021 10:15:00 PM 2.87 37.166 0.065 6.49 1.92 12.58
1/17/2021 10:30:00 PM 2.87 37.166 0.065 6.52 1.92 12.59
1/17/2021 10:45:00 PM 2.85 37.13 0.065 6.49 1.97 12.6
1/17/2021 11:00:00 PM 2.83 37.094 0.065 6.51 1.89 12.6
1/17/2021 11:15:00 PM 2.81 37.058 0.065 6.5 2.02 12.61
1/17/2021 11:30:00 PM 2.78 37.004 0.065 6.5 1.92 12.62
1/17/2021 11:45:00 PM 2.78 37.004 0.065 6.5 1.97 12.63
1/18/2021 12:00:00 AM 2.77 36.986 0.065 6.5 2.01 12.63
1/18/2021 12:15:00 AM 2.77 36.986 0.065 6.52 1.97 12.63
1/18/2021 12:30:00 AM 2.75 36.95 0.065 6.5 1.96 12.64
1/18/2021 12:45:00 AM 2.74 36.932 0.065 6.51 1.96 12.64
1/18/2021 1:00:00 AM 2.75 36.95 0.065 6.52 1.92 12.64
1/18/2021 1:15:00 AM 2.75 36.95 0.065 6.52 2 12.65
1/18/2021 1:30:00 AM 2.74 36.932 0.065 6.51 1.96 12.65
1/18/2021 1:45:00 AM 2.73 36.914 0.065 6.49 1.95 12.65
1/18/2021 2:00:00 AM 2.73 36.914 0.065 6.52 1.95 12.65
1/18/2021 2:15:00 AM 2.73 36.914 0.065 6.51 1.93 12.65
1/18/2021 2:30:00 AM 2.73 36.914 0.065 6.51 1.97 12.66
1/18/2021 2:45:00 AM 2.73 36.914 0.065 6.51 1.95 12.66
1/18/2021 3:00:00 AM 2.72 36.896 0.065 6.49 1.91 12.65
1/18/2021 3:15:00 AM 2.7 36.86 0.065 6.51 1.91 12.65
1/18/2021 3:30:00 AM 2.71 36.878 0.065 6.51 1.9 12.66
1/18/2021 3:45:00 AM 2.71 36.878 0.065 6.5 1.94 12.66
1/18/2021 4:00:00 AM 2.69 36.842 0.065 6.48 1.92 12.66
1/18/2021 4:15:00 AM 2.67 36.806 0.065 6.51 1.94 12.67
1/18/2021 4:30:00 AM 2.67 36.806 0.065 6.51 1.86 12.67
1/18/2021 4:45:00 AM 2.67 36.806 0.065 6.51 1.87 12.67
1/18/2021 5:00:00 AM 2.65 36.77 0.065 6.51 2.11 12.67
1/18/2021 5:15:00 AM 2.64 36.752 0.065 6.51 2.15 12.68
1/18/2021 5:30:00 AM 2.63 36.734 0.065 6.51 2.03 12.68
1/18/2021 5:45:00 AM 2.63 36.734 0.065 6.49 1.95 12.69
1/18/2021 6:00:00 AM 2.62 36.716 0.065 6.5 1.94 12.69
1/18/2021 6:15:00 AM 2.61 36.698 0.065 6.5 1.94 12.7
1/18/2021 6:30:00 AM 2.6 36.68 0.065 6.51 2 12.7
1/18/2021 6:45:00 AM 2.58 36.644 0.065 6.49 2.03 12.71
1/18/2021 7:00:00 AM 2.57 36.626 0.065 6.51 1.98 12.71
1/18/2021 7:15:00 AM 2.56 36.608 0.065 6.49 1.99 12.71
1/18/2021 7:30:00 AM 2.55 36.59 0.065 6.51 1.93 12.72
1/18/2021 7:45:00 AM 2.54 36.572 0.065 6.49 1.91 12.74
1/18/2021 8:00:00 AM 2.52 36.536 0.065 6.52 1.91 12.77
1/18/2021 8:15:00 AM 2.52 36.536 0.065 6.53 1.86 12.81
1/18/2021 8:30:00 AM 2.52 36.536 0.065 6.54 1.86 12.86
1/18/2021 8:45:00 AM 2.53 36.554 0.065 6.55 1.84 12.9
1/18/2021 9:00:00 AM 2.56 36.608 0.064 6.57 1.88 12.95
1/18/2021 9:15:00 AM 2.58 36.644 0.064 6.58 1.85 12.97
1/18/2021 9:30:00 AM 2.57 36.626 0.064 6.58 1.84 12.98
1/18/2021 9:45:00 AM 2.61 36.698 0.064 6.6 1.85 13.03
1/18/2021 10:00:00 AM 2.67 36.806 0.064 6.59 1.86 13.05
1/18/2021 10:15:00 AM 2.72 36.896 0.064 6.61 1.84 13.07
1/18/2021 10:30:00 AM 2.74 36.932 0.064 6.63 1.82 13.06
1/18/2021 10:45:00 AM 2.77 36.986 0.064 6.62 1.93 13.06
1/18/2021 11:00:00 AM 2.87 37.166 0.064 6.64 1.8 13.07
1/18/2021 11:15:00 AM 2.91 37.238 0.064 6.62 1.84 13.05
1/18/2021 11:30:00 AM 2.92 37.256 0.064 6.63 1.8 13.04
1/18/2021 11:45:00 AM 2.97 37.346 0.064 6.64 1.85 13.03
1/18/2021 12:00:00 PM 3.04 37.472 0.064 6.64 1.83 13.04
1/18/2021 12:15:00 PM 3.11 37.598 0.064 6.63 1.85 13.03
1/18/2021 12:30:00 PM 3.19 37.742 0.064 6.66 1.81 13.01
1/18/2021 12:45:00 PM 3.2 37.76 0.064 6.65 1.85 12.98
1/18/2021 1:00:00 PM 3.17 37.706 0.064 6.64 1.88 12.94
1/18/2021 1:15:00 PM 3.19 37.742 0.063 6.64 1.85 12.93
1/18/2021 1:30:00 PM 3.24 37.832 0.063 6.65 1.83 12.94
1/18/2021 1:45:00 PM 3.26 37.868 0.063 6.62 1.84 12.94
1/18/2021 2:00:00 PM 3.24 37.832 0.063 6.65 1.81 12.9
1/18/2021 2:15:00 PM 3.25 37.85 0.063 6.64 1.82 12.91
1/18/2021 2:30:00 PM 3.28 37.904 0.063 6.65 1.82 12.92
1/18/2021 2:45:00 PM 3.3 37.94 0.063 6.63 1.8 12.92
1/18/2021 3:00:00 PM 3.3 37.94 0.063 6.65 1.83 12.9
1/18/2021 3:15:00 PM 3.27 37.886 0.064 6.61 1.86 12.85
1/18/2021 3:30:00 PM 3.25 37.85 0.064 6.62 1.86 12.84
1/18/2021 3:45:00 PM 3.24 37.832 0.064 6.62 1.85 12.84
1/18/2021 4:00:00 PM 3.22 37.796 0.064 6.61 1.85 12.8
1/18/2021 4:15:00 PM 3.19 37.742 0.064 6.6 1.86 12.76
1/18/2021 4:30:00 PM 3.16 37.688 0.064 6.56 1.84 12.74
1/18/2021 4:45:00 PM 3.14 37.652 0.064 6.58 1.85 12.71
1/18/2021 5:00:00 PM 3.12 37.616 0.064 6.56 1.85 12.7
1/18/2021 5:15:00 PM 3.09 37.562 0.064 6.54 1.89 12.68
1/18/2021 5:30:00 PM 3.06 37.508 0.064 6.56 1.88 12.67
1/18/2021 5:45:00 PM 3.04 37.472 0.065 6.54 1.88 12.66
1/18/2021 6:00:00 PM 3.02 37.436 0.065 6.53 1.88 12.66
1/18/2021 6:15:00 PM 3.01 37.418 0.065 6.54 1.88 12.67
1/18/2021 6:30:00 PM 2.99 37.382 0.065 6.51 1.91 12.66
1/18/2021 6:45:00 PM 2.97 37.346 0.065 6.54 1.91 12.66
1/18/2021 7:00:00 PM 2.95 37.31 0.065 6.53 1.92 12.67
1/18/2021 7:15:00 PM 2.93 37.274 0.065 6.53 1.87 12.67
1/18/2021 7:30:00 PM 2.91 37.238 0.065 6.52 1.93 12.67
1/18/2021 7:45:00 PM 2.9 37.22 0.065 6.53 1.9 12.68
1/18/2021 8:00:00 PM 2.88 37.184 0.065 6.52 1.97 12.69
1/18/2021 8:15:00 PM 2.86 37.148 0.065 6.53 1.9 12.7
1/18/2021 8:30:00 PM 2.84 37.112 0.065 6.5 1.89 12.7
1/18/2021 8:45:00 PM 2.83 37.094 0.065 6.51 1.9 12.71
1/18/2021 9:00:00 PM 2.81 37.058 0.065 6.52 1.86 12.72
1/18/2021 9:15:00 PM 2.8 37.04 0.065 6.5 1.91 12.72
1/18/2021 9:30:00 PM 2.76 36.968 0.065 6.53 1.92 12.73
1/18/2021 9:45:00 PM 2.73 36.914 0.065 6.52 1.9 12.74
1/18/2021 10:00:00 PM 2.72 36.896 0.065 6.52 1.89 12.75
1/18/2021 10:15:00 PM 2.71 36.878 0.065 6.5 1.99 12.76
1/18/2021 10:30:00 PM 2.7 36.86 0.065 6.51 1.91 12.76
1/18/2021 10:45:00 PM 2.67 36.806 0.065 6.52 1.92 12.77
1/18/2021 11:00:00 PM 2.66 36.788 0.065 6.52 1.97 12.78
1/18/2021 11:15:00 PM 2.65 36.77 0.065 6.52 1.92 12.79
1/18/2021 11:30:00 PM 2.64 36.752 0.065 6.51 1.91 12.79
1/18/2021 11:45:00 PM 2.62 36.716 0.065 6.51 1.91 12.8
1/19/2021 12:00:00 AM 2.61 36.698 0.065 6.52 1.9 12.81
1/19/2021 12:15:00 AM 2.59 36.662 0.065 6.49 1.9 12.81
1/19/2021 12:30:00 AM 2.57 36.626 0.065 6.52 1.93 12.81
1/19/2021 12:45:00 AM 2.55 36.59 0.065 6.53 1.95 12.82
1/19/2021 1:00:00 AM 2.53 36.554 0.065 6.52 2 12.83
1/19/2021 1:15:00 AM 2.5 36.5 0.065 6.52 2.02 12.84
1/19/2021 1:30:00 AM 2.48 36.464 0.065 6.49 1.88 12.85
1/19/2021 1:45:00 AM 2.46 36.428 0.065 6.52 1.96 12.86
1/19/2021 2:00:00 AM 2.44 36.392 0.065 6.51 1.89 12.86
1/19/2021 2:15:00 AM 2.4 36.32 0.065 6.52 2.02 12.87
1/19/2021 2:30:00 AM 2.38 36.284 0.065 6.5 2.34 12.88
1/19/2021 2:45:00 AM 2.37 36.266 0.065 6.52 2.14 12.89
1/19/2021 3:00:00 AM 2.35 36.23 0.065 6.53 1.96 12.9
1/19/2021 3:15:00 AM 2.33 36.194 0.065 6.52 1.96 12.91
1/19/2021 3:30:00 AM 2.31 36.158 0.065 6.5 1.98 12.91
1/19/2021 3:45:00 AM 2.29 36.122 0.065 6.52 2.55 12.92
1/19/2021 4:00:00 AM 2.28 36.104 0.065 6.52 2.23 12.93
1/19/2021 4:15:00 AM 2.26 36.068 0.065 6.52 2.06 12.94
1/19/2021 4:30:00 AM 2.24 36.032 0.065 6.53 1.97 12.94
1/19/2021 4:45:00 AM 2.23 36.014 0.065 6.52 1.91 12.95
1/19/2021 5:00:00 AM 2.19 35.942 0.065 6.53 1.9 12.96
1/19/2021 5:15:00 AM 2.15 35.87 0.065 6.52 1.94 12.97
1/19/2021 5:30:00 AM 2.11 35.798 0.065 6.52 1.9 12.99
1/19/2021 5:45:00 AM 2.07 35.726 0.065 6.52 1.93 13.01
1/19/2021 6:00:00 AM 2.03 35.654 0.065 6.52 1.96 13.01
1/19/2021 6:15:00 AM 1.99 35.582 0.065 6.52 1.88 13.02
1/19/2021 6:30:00 AM 1.97 35.546 0.065 6.53 1.89 13.04
1/19/2021 6:45:00 AM 1.97 35.546 0.065 6.53 1.97 13.05
1/19/2021 7:00:00 AM 1.97 35.546 0.065 6.53 1.95 13.05
1/19/2021 7:15:00 AM 1.97 35.546 0.065 6.53 2.01 13.05
1/19/2021 7:30:00 AM 1.97 35.546 0.065 6.53 1.95 13.06
1/19/2021 7:45:00 AM 1.96 35.528 0.065 6.52 1.97 13.07
1/19/2021 8:00:00 AM 1.96 35.528 0.065 6.53 2.13 13.09
1/19/2021 8:15:00 AM 1.94 35.492 0.065 6.53 1.97 13.12
1/19/2021 8:30:00 AM 1.93 35.474 0.065 6.52 1.89 13.16
1/19/2021 8:45:00 AM 1.95 35.51 0.065 6.56 1.9 13.21
1/19/2021 9:00:00 AM 1.98 35.564 0.065 6.57 1.89 13.25
1/19/2021 9:15:00 AM 2 35.6 0.065 6.57 1.83 13.28
1/19/2021 9:30:00 AM 2.02 35.636 0.065 6.6 1.85 13.3
1/19/2021 9:45:00 AM 2.04 35.672 0.065 6.6 1.84 13.33
1/19/2021 10:00:00 AM 2.08 35.744 0.065 6.6 1.83 13.37
1/19/2021 10:15:00 AM 2.13 35.834 0.065 6.64 1.82 13.39
1/19/2021 10:30:00 AM 2.17 35.906 0.064 6.61 1.84 13.4
1/19/2021 10:45:00 AM 2.21 35.978 0.064 6.65 1.83 13.4
1/19/2021 11:00:00 AM 2.26 36.068 0.064 6.65 1.84 13.41
1/19/2021 11:15:00 AM 2.32 36.176 0.064 6.66 1.86 13.41
1/19/2021 11:30:00 AM 2.38 36.284 0.064 6.66 1.83 13.4
1/19/2021 11:45:00 AM 2.41 36.338 0.064 6.64 1.81 13.38
1/19/2021 12:00:00 PM 2.44 36.392 0.064 6.66 1.89 13.37
1/19/2021 12:15:00 PM 2.47 36.446 0.064 6.67 1.82 13.36
1/19/2021 12:30:00 PM 2.5 36.5 0.064 6.66 1.84 13.34
1/19/2021 12:45:00 PM 2.56 36.608 0.064 6.67 1.86 13.34
1/19/2021 1:00:00 PM 2.64 36.752 0.064 6.67 1.81 13.32
1/19/2021 1:15:00 PM 2.68 36.824 0.064 6.65 1.8 13.3
1/19/2021 1:30:00 PM 2.7 36.86 0.064 6.68 1.83 13.29
1/19/2021 1:45:00 PM 2.72 36.896 0.064 6.67 1.84 13.27
1/19/2021 2:00:00 PM 2.76 36.968 0.064 6.67 1.82 13.26
1/19/2021 2:15:00 PM 2.77 36.986 0.064 6.67 1.81 13.24
1/19/2021 2:30:00 PM 2.76 36.968 0.064 6.66 1.83 13.23
1/19/2021 2:45:00 PM 2.76 36.968 0.064 6.65 1.84 13.21
1/19/2021 3:00:00 PM 2.77 36.986 0.064 6.67 1.83 13.2
1/19/2021 3:15:00 PM 2.8 37.04 0.064 6.64 1.83 13.21
1/19/2021 3:30:00 PM 2.79 37.022 0.064 6.65 1.84 13.15
1/19/2021 3:45:00 PM 2.78 37.004 0.064 6.65 1.83 13.11
1/19/2021 4:00:00 PM 2.77 36.986 0.064 6.63 1.86 13.09
1/19/2021 4:15:00 PM 2.76 36.968 0.064 6.61 1.82 13.07
1/19/2021 4:30:00 PM 2.76 36.968 0.064 6.63 1.82 13.06
1/19/2021 4:45:00 PM 2.74 36.932 0.064 6.61 1.93 13.04
1/19/2021 5:00:00 PM 2.71 36.878 0.065 6.59 1.83 13
1/19/2021 5:15:00 PM 2.67 36.806 0.065 6.59 1.88 12.96
1/19/2021 5:30:00 PM 2.63 36.734 0.065 6.57 1.86 12.94
1/19/2021 5:45:00 PM 2.59 36.662 0.065 6.56 1.87 12.92
1/19/2021 6:00:00 PM 2.55 36.59 0.065 6.56 1.91 12.92
1/19/2021 6:15:00 PM 2.5 36.5 0.065 6.56 1.91 12.92
1/19/2021 6:30:00 PM 2.46 36.428 0.065 6.55 1.88 12.92
1/19/2021 6:45:00 PM 2.43 36.374 0.065 6.54 1.88 12.92
1/19/2021 7:00:00 PM 2.39 36.302 0.065 6.55 1.92 12.93
1/19/2021 7:15:00 PM 2.37 36.266 0.065 6.53 1.84 12.93
1/19/2021 7:30:00 PM 2.35 36.23 0.065 6.52 1.9 12.94
1/19/2021 7:45:00 PM 2.33 36.194 0.065 6.54 1.86 12.94
1/19/2021 8:00:00 PM 2.3 36.14 0.065 6.52 1.87 12.95
1/19/2021 8:15:00 PM 2.28 36.104 0.065 6.53 1.88 12.95
1/19/2021 8:30:00 PM 2.26 36.068 0.065 6.52 1.94 12.96
1/19/2021 8:45:00 PM 2.25 36.05 0.066 6.54 1.98 12.95
1/19/2021 9:00:00 PM 2.24 36.032 0.066 6.52 2.1 12.96
1/19/2021 9:15:00 PM 2.23 36.014 0.066 6.54 2.18 12.96
1/19/2021 9:30:00 PM 2.22 35.996 0.066 6.54 2 12.96
1/19/2021 9:45:00 PM 2.2 35.96 0.066 6.54 2.01 12.97
1/19/2021 10:00:00 PM 2.19 35.942 0.066 6.54 1.95 12.97
1/19/2021 10:15:00 PM 2.17 35.906 0.066 6.51 1.95 12.98
1/19/2021 10:30:00 PM 2.17 35.906 0.066 6.55 1.9 12.98
1/19/2021 10:45:00 PM 2.16 35.888 0.066 6.53 1.93 12.98
1/19/2021 11:00:00 PM 2.15 35.87 0.066 6.54 1.92 12.98
1/19/2021 11:15:00 PM 2.14 35.852 0.066 6.51 1.93 12.98
1/19/2021 11:30:00 PM 2.13 35.834 0.066 6.54 1.9 12.99
1/19/2021 11:45:00 PM 2.12 35.816 0.066 6.51 1.89 12.99
1/20/2021 12:00:00 AM 2.11 35.798 0.066 6.54 1.87 12.99
1/20/2021 12:15:00 AM 2.09 35.762 0.066 6.53 1.96 13
1/20/2021 12:30:00 AM 2.07 35.726 0.066 6.54 1.86 13
1/20/2021 12:45:00 AM 2.05 35.69 0.066 6.54 1.9 13
1/20/2021 1:00:00 AM 2.04 35.672 0.065 6.54 1.88 13
1/20/2021 1:15:00 AM 2.03 35.654 0.065 6.54 1.95 13
1/20/2021 1:30:00 AM 2.01 35.618 0.065 6.53 1.89 13
1/20/2021 1:45:00 AM 2 35.6 0.065 6.53 1.95 13.01
1/20/2021 2:00:00 AM 1.99 35.582 0.065 6.52 2 13.01
1/20/2021 2:15:00 AM 1.98 35.564 0.065 6.55 1.92 13.01
1/20/2021 2:30:00 AM 1.97 35.546 0.065 6.54 1.88 13.01
1/20/2021 2:45:00 AM 1.95 35.51 0.065 6.54 1.86 13.01
1/20/2021 3:00:00 AM 1.92 35.456 0.065 6.54 1.97 13.02
1/20/2021 3:15:00 AM 1.9 35.42 0.065 6.51 1.95 13.02
1/20/2021 3:30:00 AM 1.88 35.384 0.065 6.54 1.9 13.03
1/20/2021 3:45:00 AM 1.86 35.348 0.065 6.52 1.92 13.03
1/20/2021 4:00:00 AM 1.85 35.33 0.065 6.52 1.94 13.03
1/20/2021 4:15:00 AM 1.83 35.294 0.065 6.54 1.93 13.04
1/20/2021 4:30:00 AM 1.8 35.24 0.065 6.53 1.9 13.04
1/20/2021 4:45:00 AM 1.81 35.258 0.065 6.54 2.04 13.05
1/20/2021 5:00:00 AM 1.8 35.24 0.065 6.54 1.98 13.05
1/20/2021 5:15:00 AM 1.77 35.186 0.065 6.51 1.97 13.06
1/20/2021 5:30:00 AM 1.76 35.168 0.065 6.54 1.94 13.07
1/20/2021 5:45:00 AM 1.76 35.168 0.065 6.54 1.97 13.08
1/20/2021 6:00:00 AM 1.73 35.114 0.065 6.51 1.91 13.08
1/20/2021 6:15:00 AM 1.7 35.06 0.065 6.54 1.92 13.09
1/20/2021 6:30:00 AM 1.67 35.006 0.065 6.54 1.94 13.1
1/20/2021 6:45:00 AM 1.66 34.988 0.065 6.51 1.95 13.11
1/20/2021 7:00:00 AM 1.63 34.934 0.065 6.53 2.03 13.12
1/20/2021 7:15:00 AM 1.6 34.88 0.065 6.52 2.07 13.13
1/20/2021 7:30:00 AM 1.56 34.808 0.065 6.54 2.15 13.15
1/20/2021 7:45:00 AM 1.54 34.772 0.065 6.53 2.65 13.18
1/20/2021 8:00:00 AM 1.52 34.736 0.065 6.55 2.11 13.22
1/20/2021 8:15:00 AM 1.5 34.7 0.065 6.55 2.28 13.29
1/20/2021 8:30:00 AM 1.48 34.664 0.065 6.54 2.67 13.34
1/20/2021 8:45:00 AM 1.46 34.628 0.065 6.58 3.13 13.4
1/20/2021 9:00:00 AM 1.45 34.61 0.065 6.6 2.63 13.45
1/20/2021 9:15:00 AM 1.47 34.646 0.065 6.61 2.13 13.5
1/20/2021 9:30:00 AM 1.48 34.664 0.065 6.63 1.99 13.53
1/20/2021 9:45:00 AM 1.48 34.664 0.065 6.62 1.9 13.56
1/20/2021 10:00:00 AM 1.5 34.7 0.065 6.64 1.92 13.58
1/20/2021 10:15:00 AM 1.53 34.754 0.065 6.65 1.93 13.61
1/20/2021 10:30:00 AM 1.59 34.862 0.065 6.66 1.88 13.62
1/20/2021 10:45:00 AM 1.62 34.916 0.065 6.66 1.86 13.61
1/20/2021 11:00:00 AM 1.64 34.952 0.065 6.67 1.87 13.6
1/20/2021 11:15:00 AM 1.66 34.988 0.065 6.67 1.84 13.59
1/20/2021 11:30:00 AM 1.7 35.06 0.064 6.66 1.85 13.59
1/20/2021 11:45:00 AM 1.78 35.204 0.064 6.65 1.86 13.6
1/20/2021 12:00:00 PM 1.83 35.294 0.064 6.68 1.86 13.58
1/20/2021 12:15:00 PM 1.85 35.33 0.064 6.67 2.66 13.56
1/20/2021 12:30:00 PM 1.92 35.456 0.064 6.68 1.86 13.57
1/20/2021 12:45:00 PM 2 35.6 0.064 6.69 1.84 13.56
1/20/2021 1:00:00 PM 2.02 35.636 0.064 6.68 1.9 13.55
1/20/2021 1:15:00 PM 2.02 35.636 0.064 6.67 1.85 13.55
1/20/2021 1:30:00 PM 2.01 35.618 0.064 6.68 1.92 13.55
1/20/2021 1:45:00 PM 2.01 35.618 0.064 6.69 1.88 13.54
1/20/2021 2:00:00 PM 2.04 35.672 0.064 6.67 1.85 13.54
1/20/2021 2:15:00 PM 2.09 35.762 0.064 6.69 1.89 13.52
1/20/2021 2:30:00 PM 2.06 35.708 0.064 6.68 1.9 13.51
1/20/2021 2:45:00 PM 2.06 35.708 0.064 6.66 1.87 13.5
1/20/2021 3:00:00 PM 2.07 35.726 0.064 6.68 1.86 13.48
1/20/2021 3:15:00 PM 2.07 35.726 0.064 6.68 1.87 13.47
1/20/2021 3:30:00 PM 2.05 35.69 0.064 6.64 1.86 13.44
1/20/2021 3:45:00 PM 2.02 35.636 0.064 6.67 1.85 13.44
1/20/2021 4:00:00 PM 1.99 35.582 0.064 6.65 1.82 13.43
1/20/2021 4:15:00 PM 1.96 35.528 0.064 6.63 1.87 13.42
1/20/2021 4:30:00 PM 1.92 35.456 0.064 6.63 1.86 13.41
1/20/2021 4:45:00 PM 1.86 35.348 0.065 6.65 1.86 13.4
1/20/2021 5:00:00 PM 1.81 35.258 0.065 6.63 1.88 13.36
1/20/2021 5:15:00 PM 1.74 35.132 0.065 6.61 1.89 13.32
1/20/2021 5:30:00 PM 1.69 35.042 0.065 6.59 1.9 13.29
1/20/2021 5:45:00 PM 1.65 34.97 0.065 6.58 1.87 13.28
1/20/2021 6:00:00 PM 1.6 34.88 0.065 6.58 1.89 13.28
1/20/2021 6:15:00 PM 1.54 34.772 0.065 6.58 1.94 13.29
1/20/2021 6:30:00 PM 1.49 34.682 0.065 6.56 1.93 13.29
1/20/2021 6:45:00 PM 1.45 34.61 0.065 6.57 1.93 13.29
1/20/2021 7:00:00 PM 1.4 34.52 0.065 6.57 1.89 13.29
1/20/2021 7:15:00 PM 1.34 34.412 0.065 6.54 1.89 13.3
1/20/2021 7:30:00 PM 1.29 34.322 0.065 6.54 1.92 13.31
1/20/2021 7:45:00 PM 1.25 34.25 0.066 6.56 1.92 13.32
1/20/2021 8:00:00 PM 1.22 34.196 0.066 6.56 1.93 13.33
1/20/2021 8:15:00 PM 1.18 34.124 0.066 6.55 1.86 13.34
1/20/2021 8:30:00 PM 1.14 34.052 0.066 6.52 1.89 13.35
1/20/2021 8:45:00 PM 1.1 33.98 0.066 6.54 1.95 13.36
1/20/2021 9:00:00 PM 1.06 33.908 0.066 6.55 1.96 13.38
1/20/2021 9:15:00 PM 1.01 33.818 0.066 6.56 1.94 13.39
1/20/2021 9:30:00 PM 0.97 33.746 0.066 6.55 2.04 13.41
1/20/2021 9:45:00 PM 0.94 33.692 0.066 6.56 1.98 13.42
1/20/2021 10:00:00 PM 0.92 33.656 0.066 6.54 1.96 13.43
1/20/2021 10:15:00 PM 0.88 33.584 0.066 6.56 1.93 13.45
1/20/2021 10:30:00 PM 0.83 33.494 0.066 6.56 1.96 13.46
1/20/2021 10:45:00 PM 0.77 33.386 0.066 6.53 2.03 13.47
1/20/2021 11:00:00 PM 0.74 33.332 0.066 6.56 1.92 13.48
1/20/2021 11:15:00 PM 0.71 33.278 0.066 6.53 1.95 13.49
1/20/2021 11:30:00 PM 0.7 33.26 0.066 6.54 1.93 13.49
1/20/2021 11:45:00 PM 0.69 33.242 0.066 6.56 1.91 13.51
1/21/2021 12:00:00 AM 0.67 33.206 0.066 6.56 1.97 13.52
1/21/2021 12:15:00 AM 0.64 33.152 0.066 6.55 1.9 13.51
1/21/2021 12:30:00 AM 0.6 33.08 0.066 6.55 1.96 13.51
1/21/2021 12:45:00 AM 0.55 32.99 0.066 6.55 1.94 13.53
1/21/2021 1:00:00 AM 0.5 32.9 0.066 6.55 1.95 13.53
1/21/2021 1:15:00 AM 0.45 32.81 0.066 6.54 2.01 13.55
1/21/2021 1:30:00 AM 0.4 32.72 0.066 6.55 2.03 13.56
1/21/2021 1:45:00 AM 0.35 32.63 0.066 6.56 2 13.58
1/21/2021 2:00:00 AM 0.31 32.558 0.066 6.56 1.93 13.59
1/21/2021 2:15:00 AM 0.27 32.486 0.066 6.55 1.92 13.61
1/21/2021 2:30:00 AM 0.23 32.414 0.066 6.55 1.99 13.61
1/21/2021 2:45:00 AM 0.19 32.342 0.066 6.55 2.02 13.63
1/21/2021 3:00:00 AM 0.15 32.27 0.066 6.56 2.11 13.64
1/21/2021 3:15:00 AM 0.12 32.216 0.066 6.55 2.04 13.65
1/21/2021 3:30:00 AM 0.1 32.18 0.066 6.53 1.97 13.66
1/21/2021 3:45:00 AM 0.06 32.108 0.066 6.56 2.27 13.67
1/21/2021 4:00:00 AM 0.04 32.072 0.066 6.56 2.06 13.68
1/21/2021 4:15:00 AM 0.03 32.054 0.066 6.56 2 13.69
1/21/2021 4:30:00 AM 0.03 32.054 0.066 6.53 1.97 13.69
1/21/2021 4:45:00 AM 0.02 32.036 0.066 6.54 2.03 13.69
1/21/2021 5:00:00 AM 0.02 32.036 0.066 6.54 2.07 13.69
1/21/2021 5:15:00 AM 0.01 32.018 0.066 6.55 2.14 13.69
1/21/2021 5:30:00 AM 0.02 32.036 0.066 6.54 2.11 13.69
1/21/2021 5:45:00 AM 0.03 32.054 0.066 6.57 2.09 13.68
1/21/2021 6:00:00 AM 0.06 32.108 0.066 6.53 2.04 13.67
1/21/2021 6:15:00 AM 0.08 32.144 0.066 6.56 2.14 13.66
1/21/2021 6:30:00 AM 0.1 32.18 0.066 6.56 2.04 13.64
1/21/2021 6:45:00 AM 0.12 32.216 0.066 6.56 2.06 13.63
1/21/2021 7:00:00 AM 0.15 32.27 0.066 6.56 2.1 13.62
1/21/2021 7:15:00 AM 0.18 32.324 0.066 6.56 2.05 13.61
1/21/2021 7:30:00 AM 0.2 32.36 0.067 6.57 2.04 13.6
1/21/2021 7:45:00 AM 0.23 32.414 0.067 6.57 2.05 13.6
1/21/2021 8:00:00 AM 0.26 32.468 0.067 6.54 1.97 13.6
1/21/2021 8:15:00 AM 0.29 32.522 0.067 6.56 1.98 13.62
1/21/2021 8:30:00 AM 0.33 32.594 0.067 6.59 1.93 13.65
1/21/2021 8:45:00 AM 0.36 32.648 0.067 6.59 1.95 13.67
1/21/2021 9:00:00 AM 0.4 32.72 0.067 6.6 2.69 13.69
1/21/2021 9:15:00 AM 0.45 32.81 0.067 6.61 2.35 13.72
1/21/2021 9:30:00 AM 0.5 32.9 0.067 6.6 2.13 13.75
1/21/2021 9:45:00 AM 0.56 33.008 0.067 6.63 2.11 13.77
1/21/2021 10:00:00 AM 0.61 33.098 0.067 6.65 2.01 13.79
1/21/2021 10:15:00 AM 0.67 33.206 0.066 6.65 1.89 13.8
1/21/2021 10:30:00 AM 0.75 33.35 0.066 6.67 1.94 13.79
1/21/2021 10:45:00 AM 0.82 33.476 0.066 6.67 1.92 13.79
1/21/2021 11:00:00 AM 0.89 33.602 0.066 6.68 1.89 13.78
1/21/2021 11:15:00 AM 0.97 33.746 0.066 6.68 1.91 13.76
1/21/2021 11:30:00 AM 1.06 33.908 0.066 6.68 1.96 13.74
1/21/2021 11:45:00 AM 1.13 34.034 0.066 6.66 1.93 13.71
1/21/2021 12:00:00 PM 1.22 34.196 0.065 6.67 1.93 13.69
1/21/2021 12:15:00 PM 1.31 34.358 0.065 6.69 1.89 13.67
1/21/2021 12:30:00 PM 1.4 34.52 0.065 6.69 1.9 13.64
1/21/2021 12:45:00 PM 1.54 34.772 0.065 6.69 1.87 13.61
1/21/2021 1:00:00 PM 1.63 34.934 0.065 6.67 1.93 13.56
1/21/2021 1:15:00 PM 1.71 35.078 0.065 6.69 1.89 13.53
1/21/2021 1:30:00 PM 1.77 35.186 0.065 6.67 1.88 13.49
1/21/2021 1:45:00 PM 1.79 35.222 0.065 6.68 1.9 13.45
1/21/2021 2:00:00 PM 1.83 35.294 0.065 6.67 1.89 13.42
1/21/2021 2:15:00 PM 1.9 35.42 0.065 6.68 1.99 13.39
1/21/2021 2:30:00 PM 1.97 35.546 0.065 6.66 1.91 13.36
1/21/2021 2:45:00 PM 2.04 35.672 0.065 6.68 1.95 13.31
1/21/2021 3:00:00 PM 2.08 35.744 0.065 6.67 1.93 13.27
1/21/2021 3:15:00 PM 2.12 35.816 0.064 6.65 1.95 13.24
1/21/2021 3:30:00 PM 2.14 35.852 0.064 6.67 1.94 13.21
1/21/2021 3:45:00 PM 2.16 35.888 0.064 6.66 1.93 13.18
1/21/2021 4:00:00 PM 2.15 35.87 0.064 6.64 1.9 13.15
1/21/2021 4:15:00 PM 2.14 35.852 0.064 6.63 1.9 13.12
1/21/2021 4:30:00 PM 2.13 35.834 0.064 6.64 1.92 13.1
1/21/2021 4:45:00 PM 2.11 35.798 0.064 6.64 1.91 13.07
1/21/2021 5:00:00 PM 2.09 35.762 0.065 6.62 1.92 13.03
1/21/2021 5:15:00 PM 2.06 35.708 0.065 6.59 1.9 12.98
1/21/2021 5:30:00 PM 2.05 35.69 0.065 6.6 1.97 12.95
1/21/2021 5:45:00 PM 2.05 35.69 0.065 6.58 1.95 12.92
1/21/2021 6:00:00 PM 2.07 35.726 0.065 6.58 1.97 12.9
1/21/2021 6:15:00 PM 2.09 35.762 0.065 6.58 1.96 12.88
1/21/2021 6:30:00 PM 2.11 35.798 0.065 6.57 1.92 12.87
1/21/2021 6:45:00 PM 2.11 35.798 0.065 6.54 1.98 12.86
1/21/2021 7:00:00 PM 2.12 35.816 0.065 6.55 1.95 12.85
1/21/2021 7:15:00 PM 2.12 35.816 0.065 6.55 1.95 12.84
1/21/2021 7:30:00 PM 2.12 35.816 0.065 6.54 1.97 12.84
1/21/2021 7:45:00 PM 2.13 35.834 0.065 6.54 2.02 12.83
1/21/2021 8:00:00 PM 2.14 35.852 0.065 6.56 2.01 12.83
1/21/2021 8:15:00 PM 2.14 35.852 0.065 6.53 1.98 12.82
1/21/2021 8:30:00 PM 2.15 35.87 0.065 6.55 1.97 12.82
1/21/2021 8:45:00 PM 2.16 35.888 0.065 6.56 1.98 12.81
1/21/2021 9:00:00 PM 2.16 35.888 0.065 6.55 1.95 12.81
1/21/2021 9:15:00 PM 2.17 35.906 0.065 6.55 1.93 12.8
1/21/2021 9:30:00 PM 2.17 35.906 0.065 6.52 1.95 12.8
1/21/2021 9:45:00 PM 2.17 35.906 0.065 6.55 1.96 12.8
1/21/2021 10:00:00 PM 2.18 35.924 0.065 6.56 1.96 12.79
1/21/2021 10:15:00 PM 2.2 35.96 0.065 6.55 2.02 12.79
1/21/2021 10:30:00 PM 2.2 35.96 0.065 6.54 1.97 12.78
1/21/2021 10:45:00 PM 2.19 35.942 0.065 6.53 2.02 12.79
1/21/2021 11:00:00 PM 2.19 35.942 0.065 6.53 2.13 12.79
1/21/2021 11:15:00 PM 2.2 35.96 0.065 6.56 2.05 12.79
1/21/2021 11:30:00 PM 2.2 35.96 0.065 6.55 1.98 12.79
1/21/2021 11:45:00 PM 2.2 35.96 0.065 6.55 1.99 12.79
1/22/2021 12:00:00 AM 2.18 35.924 0.065 6.54 2.04 12.79
1/22/2021 12:15:00 AM 2.16 35.888 0.065 6.52 2.04 12.79
1/22/2021 12:30:00 AM 2.16 35.888 0.065 6.53 2 12.8
1/22/2021 12:45:00 AM 2.17 35.906 0.065 6.56 1.98 12.8
1/22/2021 1:00:00 AM 2.08 35.744 0.065 6.54 1.99 12.8
1/22/2021 1:15:00 AM 2.03 35.654 0.065 6.52 2.01 12.81
1/22/2021 1:30:00 AM 2.04 35.672 0.065 6.54 1.96 12.83
1/22/2021 1:45:00 AM 2.06 35.708 0.065 6.53 1.98 12.83
1/22/2021 2:00:00 AM 2.06 35.708 0.065 6.55 1.99 12.84
1/22/2021 2:15:00 AM 2.06 35.708 0.065 6.55 1.95 12.84
1/22/2021 2:30:00 AM 2.05 35.69 0.065 6.54 1.95 12.85
1/22/2021 2:45:00 AM 2.04 35.672 0.065 6.54 1.96 12.85
1/22/2021 3:00:00 AM 2.03 35.654 0.065 6.52 1.95 12.86
1/22/2021 3:15:00 AM 2.01 35.618 0.065 6.55 1.94 12.87
1/22/2021 3:30:00 AM 2 35.6 0.065 6.55 1.95 12.87
1/22/2021 3:45:00 AM 1.99 35.582 0.065 6.55 1.96 12.87
1/22/2021 4:00:00 AM 1.98 35.564 0.065 6.55 1.96 12.88
1/22/2021 4:15:00 AM 1.97 35.546 0.065 6.52 1.91 12.89
1/22/2021 4:30:00 AM 1.96 35.528 0.065 6.55 2 12.89
1/22/2021 4:45:00 AM 1.96 35.528 0.065 6.55 1.97 12.89
1/22/2021 5:00:00 AM 1.95 35.51 0.065 6.54 1.93 12.9
1/22/2021 5:15:00 AM 1.95 35.51 0.065 6.53 1.93 12.9
1/22/2021 5:30:00 AM 1.95 35.51 0.065 6.53 2.01 12.9
1/22/2021 5:45:00 AM 1.93 35.474 0.065 6.53 2 12.9
1/22/2021 6:00:00 AM 1.92 35.456 0.065 6.54 2.02 12.91
1/22/2021 6:15:00 AM 1.91 35.438 0.065 6.55 1.97 12.91
1/22/2021 6:30:00 AM 1.91 35.438 0.065 6.55 1.94 12.92
1/22/2021 6:45:00 AM 1.89 35.402 0.065 6.54 1.93 12.92
1/22/2021 7:00:00 AM 1.88 35.384 0.065 6.55 1.97 12.93
1/22/2021 7:15:00 AM 1.88 35.384 0.065 6.54 1.98 12.93
1/22/2021 7:30:00 AM 1.88 35.384 0.065 6.55 1.93 12.95
1/22/2021 7:45:00 AM 1.88 35.384 0.065 6.54 1.93 12.95
1/22/2021 8:00:00 AM 1.88 35.384 0.065 6.55 1.94 12.99
1/22/2021 8:15:00 AM 1.89 35.402 0.065 6.55 1.93 13.02
1/22/2021 8:30:00 AM 1.91 35.438 0.065 6.57 1.91 13.06
1/22/2021 8:45:00 AM 1.92 35.456 0.065 6.58 1.92 13.11
1/22/2021 9:00:00 AM 1.96 35.528 0.065 6.6 1.95 13.16
1/22/2021 9:15:00 AM 1.98 35.564 0.065 6.61 1.99 13.19
1/22/2021 9:30:00 AM 2.01 35.618 0.065 6.62 1.9 13.2
1/22/2021 9:45:00 AM 2.04 35.672 0.065 6.63 1.93 13.23
1/22/2021 10:00:00 AM 2.09 35.762 0.065 6.64 1.89 13.27
1/22/2021 10:15:00 AM 2.14 35.852 0.065 6.65 1.91 13.29
1/22/2021 10:30:00 AM 2.21 35.978 0.065 6.67 1.89 13.3
1/22/2021 10:45:00 AM 2.27 36.086 0.065 6.66 1.85 13.3
1/22/2021 11:00:00 AM 2.36 36.248 0.065 6.69 1.93 13.3
1/22/2021 11:15:00 AM 2.43 36.374 0.065 6.69 1.9 13.29
1/22/2021 11:30:00 AM 2.49 36.482 0.065 6.7 1.87 13.28
1/22/2021 11:45:00 AM 2.5 36.5 0.065 6.69 1.87 13.26
1/22/2021 12:00:00 PM 2.5 36.5 0.064 6.69 1.88 13.25
1/22/2021 12:15:00 PM 2.52 36.536 0.064 6.67 1.91 13.24
1/22/2021 12:30:00 PM 2.59 36.662 0.064 6.71 1.86 13.25
1/22/2021 12:45:00 PM 2.68 36.824 0.064 6.71 1.89 13.24
1/22/2021 1:00:00 PM 2.75 36.95 0.064 6.71 1.87 13.22
1/22/2021 1:15:00 PM 2.76 36.968 0.064 6.68 1.84 13.19
1/22/2021 1:30:00 PM 2.68 36.824 0.064 6.68 1.87 13.15
1/22/2021 1:45:00 PM 2.67 36.806 0.064 6.69 1.87 13.17
1/22/2021 2:00:00 PM 2.69 36.842 0.064 6.69 1.94 13.17
1/22/2021 2:15:00 PM 2.72 36.896 0.064 6.67 1.91 13.17
1/22/2021 2:30:00 PM 2.72 36.896 0.064 6.69 1.91 13.15
1/22/2021 2:45:00 PM 2.71 36.878 0.064 6.69 1.92 13.15
1/22/2021 3:00:00 PM 2.71 36.878 0.064 6.7 1.87 13.16
1/22/2021 3:15:00 PM 2.69 36.842 0.064 6.67 1.88 13.16
1/22/2021 3:30:00 PM 2.67 36.806 0.064 6.69 1.9 13.13
1/22/2021 3:45:00 PM 2.64 36.752 0.064 6.67 1.9 13.12
1/22/2021 4:00:00 PM 2.6 36.68 0.064 6.65 1.87 13.11
1/22/2021 4:15:00 PM 2.56 36.608 0.064 6.65 1.87 13.11
1/22/2021 4:30:00 PM 2.53 36.554 0.064 6.66 1.93 13.08
1/22/2021 4:45:00 PM 2.5 36.5 0.064 6.63 1.9 13.04
1/22/2021 5:00:00 PM 2.46 36.428 0.064 6.63 1.89 13.01
1/22/2021 5:15:00 PM 2.41 36.338 0.064 6.61 1.88 12.98
1/22/2021 5:30:00 PM 2.36 36.248 0.065 6.6 1.92 12.96
1/22/2021 5:45:00 PM 2.3 36.14 0.065 6.59 1.95 12.95
1/22/2021 6:00:00 PM 2.25 36.05 0.065 6.56 1.9 12.95
1/22/2021 6:15:00 PM 2.2 35.96 0.065 6.58 1.92 12.95
1/22/2021 6:30:00 PM 2.13 35.834 0.065 6.57 1.95 12.96
1/22/2021 6:45:00 PM 2.09 35.762 0.065 6.53 1.96 12.97
1/22/2021 7:00:00 PM 2.03 35.654 0.065 6.56 1.96 12.98
1/22/2021 7:15:00 PM 1.98 35.564 0.065 6.56 1.94 12.99
1/22/2021 7:30:00 PM 1.94 35.492 0.065 6.56 1.93 13
1/22/2021 7:45:00 PM 1.91 35.438 0.065 6.56 1.95 13.02
1/22/2021 8:00:00 PM 1.86 35.348 0.065 6.56 1.93 13.03
1/22/2021 8:15:00 PM 1.82 35.276 0.065 6.54 1.94 13.05
1/22/2021 8:30:00 PM 1.77 35.186 0.065 6.56 1.98 13.06
1/22/2021 8:45:00 PM 1.72 35.096 0.065 6.55 2 13.09
1/22/2021 9:00:00 PM 1.67 35.006 0.065 6.54 1.97 13.1
1/22/2021 9:15:00 PM 1.63 34.934 0.065 6.53 1.92 13.12
1/22/2021 9:30:00 PM 1.58 34.844 0.065 6.55 1.89 13.13
1/22/2021 9:45:00 PM 1.54 34.772 0.065 6.55 1.93 13.16
1/22/2021 10:00:00 PM 1.5 34.7 0.065 6.53 2.07 13.17
1/22/2021 10:15:00 PM 1.46 34.628 0.066 6.54 2.06 13.19
1/22/2021 10:30:00 PM 1.42 34.556 0.066 6.55 2.02 13.21
1/22/2021 10:45:00 PM 1.38 34.484 0.066 6.53 1.99 13.23
1/22/2021 11:00:00 PM 1.34 34.412 0.066 6.54 1.96 13.24
1/22/2021 11:15:00 PM 1.28 34.304 0.066 6.54 1.98 13.26
1/22/2021 11:30:00 PM 1.24 34.232 0.066 6.55 1.96 13.28
1/22/2021 11:45:00 PM 1.2 34.16 0.066 6.53 1.96 13.3
1/23/2021 12:00:00 AM 1.14 34.052 0.066 6.56 1.96 13.32
1/23/2021 12:15:00 AM 1.06 33.908 0.066 6.55 1.97 13.33
1/23/2021 12:30:00 AM 1.04 33.872 0.066 6.54 2.02 13.35
1/23/2021 12:45:00 AM 1.02 33.836 0.066 6.54 1.99 13.37
1/23/2021 1:00:00 AM 0.99 33.782 0.066 6.56 1.96 13.38
1/23/2021 1:15:00 AM 0.96 33.728 0.066 6.56 2 13.39
1/23/2021 1:30:00 AM 0.84 33.512 0.066 6.55 2.02 13.42
1/23/2021 1:45:00 AM 0.79 33.422 0.066 6.56 2.04 13.44
1/23/2021 2:00:00 AM 0.78 33.404 0.066 6.56 1.97 13.46
1/23/2021 2:15:00 AM 0.76 33.368 0.066 6.54 1.93 13.47
1/23/2021 2:30:00 AM 0.72 33.296 0.066 6.54 1.99 13.5
1/23/2021 2:45:00 AM 0.68 33.224 0.066 6.57 1.96 13.51
1/23/2021 3:00:00 AM 0.64 33.152 0.066 6.56 1.97 13.54
1/23/2021 3:15:00 AM 0.59 33.062 0.066 6.53 1.96 13.54
1/23/2021 3:30:00 AM 0.53 32.954 0.066 6.56 1.95 13.56
1/23/2021 3:45:00 AM 0.51 32.918 0.066 6.56 1.94 13.57
1/23/2021 4:00:00 AM 0.49 32.882 0.066 6.56 1.97 13.6
1/23/2021 4:15:00 AM 0.47 32.846 0.066 6.56 1.92 13.6
1/23/2021 4:30:00 AM 0.43 32.774 0.066 6.55 1.94 13.6
1/23/2021 4:45:00 AM 0.38 32.684 0.066 6.56 1.94 13.63
1/23/2021 5:00:00 AM 0.35 32.63 0.066 6.56 1.93 13.64
1/23/2021 5:15:00 AM 0.33 32.594 0.066 6.56 1.9 13.65
1/23/2021 5:30:00 AM 0.31 32.558 0.066 6.57 1.9 13.66
1/23/2021 5:45:00 AM 0.28 32.504 0.066 6.56 1.92 13.68
1/23/2021 6:00:00 AM 0.23 32.414 0.066 6.54 1.93 13.7
1/23/2021 6:15:00 AM 0.22 32.396 0.066 6.55 1.92 13.71
1/23/2021 6:30:00 AM 0.19 32.342 0.066 6.57 1.93 13.73
1/23/2021 6:45:00 AM 0.18 32.324 0.066 6.57 1.95 13.74
1/23/2021 7:00:00 AM 0.16 32.288 0.066 6.56 1.92 13.75
1/23/2021 7:15:00 AM 0.14 32.252 0.066 6.55 1.92 13.76
1/23/2021 7:30:00 AM 0.13 32.234 0.066 6.57 1.96 13.77
1/23/2021 7:45:00 AM 0.12 32.216 0.066 6.57 1.9 13.79
1/23/2021 8:00:00 AM 0.11 32.198 0.066 6.57 1.9 13.82
1/23/2021 8:15:00 AM 0.1 32.18 0.066 6.55 1.92 13.86
1/23/2021 8:30:00 AM 0.1 32.18 0.066 6.57 1.92 13.91
1/23/2021 8:45:00 AM 0.1 32.18 0.066 6.61 1.89 13.96
1/23/2021 9:00:00 AM 0.11 32.198 0.066 6.62 1.91 14.02
1/23/2021 9:15:00 AM 0.12 32.216 0.066 6.63 1.92 14.08
1/23/2021 9:30:00 AM 0.14 32.252 0.066 6.62 1.9 14.12
1/23/2021 9:45:00 AM 0.18 32.324 0.066 6.67 1.91 14.14
1/23/2021 10:00:00 AM 0.21 32.378 0.066 6.67 1.99 14.16
1/23/2021 10:15:00 AM 0.25 32.45 0.066 6.68 1.96 14.17
1/23/2021 10:30:00 AM 0.31 32.558 0.066 6.68 1.9 14.18
1/23/2021 10:45:00 AM 0.36 32.648 0.066 6.67 1.89 14.18
1/23/2021 11:00:00 AM 0.4 32.72 0.066 6.7 1.87 14.17
1/23/2021 11:15:00 AM 0.43 32.774 0.066 6.7 1.88 14.18
1/23/2021 11:30:00 AM 0.49 32.882 0.066 6.71 1.87 14.16
1/23/2021 11:45:00 AM 0.53 32.954 0.066 6.7 1.86 14.15
1/23/2021 12:00:00 PM 0.56 33.008 0.066 6.71 1.89 14.15
1/23/2021 12:15:00 PM 0.59 33.062 0.066 6.71 1.88 14.14
1/23/2021 12:30:00 PM 0.64 33.152 0.066 6.72 1.87 14.15
1/23/2021 12:45:00 PM 0.7 33.26 0.066 6.72 1.85 14.14
1/23/2021 1:00:00 PM 0.75 33.35 0.065 6.72 1.9 14.13
1/23/2021 1:15:00 PM 0.81 33.458 0.065 6.72 1.86 14.11
1/23/2021 1:30:00 PM 0.9 33.62 0.065 6.72 1.88 14.08
1/23/2021 1:45:00 PM 0.93 33.674 0.065 6.72 1.82 14.05
1/23/2021 2:00:00 PM 0.92 33.656 0.065 6.71 1.87 14.05
1/23/2021 2:15:00 PM 0.98 33.764 0.065 6.72 1.86 14.04
1/23/2021 2:30:00 PM 1.01 33.818 0.065 6.71 1.88 14
1/23/2021 2:45:00 PM 0.97 33.746 0.065 6.69 1.91 14.01
1/23/2021 3:00:00 PM 0.91 33.638 0.065 6.71 1.84 13.99
1/23/2021 3:15:00 PM 0.92 33.656 0.065 6.7 1.86 14.01
1/23/2021 3:30:00 PM 0.93 33.674 0.065 6.71 1.86 14.01
1/23/2021 3:45:00 PM 0.91 33.638 0.065 6.7 1.87 14.01
1/23/2021 4:00:00 PM 0.85 33.53 0.065 6.7 1.84 13.99
1/23/2021 4:15:00 PM 0.79 33.422 0.065 6.66 1.92 13.97
1/23/2021 4:30:00 PM 0.75 33.35 0.065 6.69 1.88 13.96
1/23/2021 4:45:00 PM 0.7 33.26 0.065 6.65 1.86 13.91
1/23/2021 5:00:00 PM 0.66 33.188 0.065 6.65 1.85 13.89
1/23/2021 5:15:00 PM 0.61 33.098 0.065 6.62 1.85 13.85
1/23/2021 5:30:00 PM 0.57 33.026 0.065 6.61 1.87 13.82
1/23/2021 5:45:00 PM 0.54 32.972 0.065 6.62 1.93 13.8
1/23/2021 6:00:00 PM 0.5 32.9 0.065 6.61 1.92 13.78
1/23/2021 6:15:00 PM 0.46 32.828 0.065 6.59 1.99 13.79
1/23/2021 6:30:00 PM 0.41 32.738 0.066 6.57 1.9 13.78
1/23/2021 6:45:00 PM 0.38 32.684 0.066 6.58 1.93 13.79
1/23/2021 7:00:00 PM 0.34 32.612 0.066 6.58 1.94 13.79
1/23/2021 7:15:00 PM 0.31 32.558 0.066 6.57 1.91 13.79
1/23/2021 7:30:00 PM 0.29 32.522 0.066 6.57 1.92 13.8
1/23/2021 7:45:00 PM 0.27 32.486 0.066 6.59 1.9 13.8
1/23/2021 8:00:00 PM 0.25 32.45 0.066 6.58 1.9 13.81
1/23/2021 8:15:00 PM 0.22 32.396 0.066 6.56 1.96 13.82
1/23/2021 8:30:00 PM 0.2 32.36 0.066 6.58 1.96 13.82
1/23/2021 8:45:00 PM 0.18 32.324 0.066 6.58 1.99 13.84
1/23/2021 9:00:00 PM 0.15 32.27 0.066 6.58 1.93 13.84
1/23/2021 9:15:00 PM 0.12 32.216 0.066 6.54 1.92 13.86
1/23/2021 9:30:00 PM 0.11 32.198 0.066 6.58 1.94 13.87
1/23/2021 9:45:00 PM 0.1 32.18 0.066 6.57 1.98 13.87
1/23/2021 10:00:00 PM 0.1 32.18 0.066 6.55 2.04 13.87
1/23/2021 10:15:00 PM 0.08 32.144 0.066 6.58 2 13.88
1/23/2021 10:30:00 PM 0.07 32.126 0.066 6.57 1.97 13.88
1/23/2021 10:45:00 PM 0.04 32.072 0.066 6.57 1.99 13.89
1/23/2021 11:00:00 PM 0.02 32.036 0.066 6.57 1.99 13.9
1/23/2021 11:15:00 PM 0.01 32.018 0.066 6.57 1.98 13.9
1/23/2021 11:30:00 PM -0.01 31.982 0.066 6.58 1.96 13.91
1/23/2021 11:45:00 PM -0.01 31.982 0.066 6.54 2.03 13.91
1/24/2021 12:00:00 AM -0.02 31.964 0.066 6.57 1.95 13.92
1/24/2021 12:15:00 AM -0.03 31.946 0.067 6.58 2.01 13.92
1/24/2021 12:30:00 AM -0.04 31.928 0.067 6.57 2.12 13.93
1/24/2021 12:45:00 AM -0.06 31.892 0.067 6.57 2.08 13.93
1/24/2021 1:00:00 AM -0.07 31.874 0.067 6.58 2.03 13.93
1/24/2021 1:15:00 AM -0.08 31.856 0.067 6.54 1.98 13.94
1/24/2021 1:30:00 AM -0.08 31.856 0.067 6.58 1.93 13.94
1/24/2021 1:45:00 AM -0.09 31.838 0.067 6.57 1.97 13.94
1/24/2021 2:00:00 AM -0.1 31.82 0.067 6.58 2.04 13.95
1/24/2021 2:15:00 AM -0.09 31.838 0.067 6.59 2.07 13.96
1/24/2021 2:30:00 AM -0.08 31.856 0.067 6.57 2.05 13.97
1/24/2021 2:45:00 AM -0.08 31.856 0.067 6.55 2.09 13.97
1/24/2021 3:00:00 AM -0.07 31.874 0.067 6.56 2.08 13.97
1/24/2021 3:15:00 AM -0.07 31.874 0.067 6.58 2.02 13.97
1/24/2021 3:30:00 AM -0.07 31.874 0.067 6.58 2.08 13.96
1/24/2021 3:45:00 AM -0.07 31.874 0.067 6.55 2.18 13.97
1/24/2021 4:00:00 AM -0.07 31.874 0.067 6.58 2.15 13.96
1/24/2021 4:15:00 AM -0.07 31.874 0.067 6.57 2.2 13.97
1/24/2021 4:30:00 AM -0.07 31.874 0.067 6.55 2.17 13.96
1/24/2021 4:45:00 AM -0.07 31.874 0.067 6.56 2.21 13.96
1/24/2021 5:00:00 AM -0.07 31.874 0.067 6.58 2.24 13.95
1/24/2021 5:15:00 AM -0.07 31.874 0.067 6.56 2.16 13.95
1/24/2021 5:30:00 AM -0.07 31.874 0.067 6.58 2.31 13.95
1/24/2021 5:45:00 AM -0.07 31.874 0.067 6.53 2.25 13.94
1/24/2021 6:00:00 AM -0.07 31.874 0.067 6.58 2.18 13.94
1/24/2021 6:15:00 AM -0.07 31.874 0.067 6.57 2.21 13.93
1/24/2021 6:30:00 AM -0.07 31.874 0.067 6.57 2.18 13.93
1/24/2021 6:45:00 AM -0.07 31.874 0.067 6.57 2.16 13.93
1/24/2021 7:00:00 AM -0.07 31.874 0.067 6.58 2.23 13.92
1/24/2021 7:15:00 AM -0.07 31.874 0.067 6.54 2.59 13.91
1/24/2021 7:30:00 AM -0.07 31.874 0.067 6.56 2.36 13.92
1/24/2021 7:45:00 AM -0.07 31.874 0.067 6.57 2.23 13.94
1/24/2021 8:00:00 AM -0.07 31.874 0.067 6.59 2.77 13.96
1/24/2021 8:15:00 AM -0.07 31.874 0.067 6.59 2.1 14.01
1/24/2021 8:30:00 AM -0.07 31.874 0.067 6.6 2.27 14.06
1/24/2021 8:45:00 AM -0.07 31.874 0.067 6.61 2.29 14.1
1/24/2021 9:00:00 AM -0.06 31.892 0.067 6.63 2.3 14.15
1/24/2021 9:15:00 AM -0.06 31.892 0.067 6.65 2.25 14.19
1/24/2021 9:30:00 AM -0.05 31.91 0.067 6.65 2.27 14.19
1/24/2021 9:45:00 AM -0.05 31.91 0.067 6.67 2.31 14.21
1/24/2021 10:00:00 AM -0.02 31.964 0.067 6.65 2.21 14.2
1/24/2021 10:15:00 AM 0.03 32.054 0.067 6.69 2.06 14.23
1/24/2021 10:30:00 AM 0.11 32.198 0.067 6.69 1.98 14.24
1/24/2021 10:45:00 AM 0.19 32.342 0.067 6.69 1.91 14.24
1/24/2021 11:00:00 AM 0.26 32.468 0.067 6.68 1.99 14.23
1/24/2021 11:15:00 AM 0.33 32.594 0.067 6.71 1.89 14.22
1/24/2021 11:30:00 AM 0.4 32.72 0.067 6.71 1.92 14.21
1/24/2021 11:45:00 AM 0.48 32.864 0.067 6.7 1.93 14.2
1/24/2021 12:00:00 PM 0.55 32.99 0.067 6.72 1.96 14.2
1/24/2021 12:15:00 PM 0.59 33.062 0.067 6.7 1.92 14.18
1/24/2021 12:30:00 PM 0.64 33.152 0.067 6.72 1.95 14.15
1/24/2021 12:45:00 PM 0.68 33.224 0.067 6.69 1.97 14.13
1/24/2021 1:00:00 PM 0.73 33.314 0.067 6.71 1.95 14.11
1/24/2021 1:15:00 PM 0.75 33.35 0.067 6.72 2 14.1
1/24/2021 1:30:00 PM 0.8 33.44 0.066 6.7 2 14.09
1/24/2021 1:45:00 PM 0.84 33.512 0.066 6.72 2 14.08
1/24/2021 2:00:00 PM 0.85 33.53 0.066 6.71 2 14.05
1/24/2021 2:15:00 PM 0.88 33.584 0.066 6.7 2.02 14.04
1/24/2021 2:30:00 PM 0.88 33.584 0.066 6.7 2 14.03
1/24/2021 2:45:00 PM 0.91 33.638 0.066 6.7 2 14.03
1/24/2021 3:00:00 PM 0.92 33.656 0.066 6.7 2.01 14.02
1/24/2021 3:15:00 PM 0.92 33.656 0.066 6.69 2 14
1/24/2021 3:30:00 PM 0.91 33.638 0.066 6.71 1.94 14
1/24/2021 3:45:00 PM 0.9 33.62 0.066 6.71 1.98 13.98
1/24/2021 4:00:00 PM 0.88 33.584 0.066 6.67 1.94 13.96
1/24/2021 4:15:00 PM 0.86 33.548 0.066 6.68 1.95 13.94
1/24/2021 4:30:00 PM 0.82 33.476 0.065 6.67 1.95 13.93
1/24/2021 4:45:00 PM 0.78 33.404 0.065 6.67 1.95 13.89
1/24/2021 5:00:00 PM 0.75 33.35 0.065 6.65 1.94 13.85
1/24/2021 5:15:00 PM 0.72 33.296 0.065 6.62 1.99 13.81
1/24/2021 5:30:00 PM 0.69 33.242 0.065 6.63 1.97 13.78
1/24/2021 5:45:00 PM 0.65 33.17 0.065 6.61 1.99 13.75
1/24/2021 6:00:00 PM 0.62 33.116 0.065 6.58 1.91 13.74
1/24/2021 6:15:00 PM 0.58 33.044 0.065 6.59 1.95 13.73
1/24/2021 6:30:00 PM 0.55 32.99 0.065 6.58 1.98 13.74
1/24/2021 6:45:00 PM 0.52 32.936 0.065 6.58 1.99 13.73
1/24/2021 7:00:00 PM 0.5 32.9 0.065 6.58 2 13.73
1/24/2021 7:15:00 PM 0.48 32.864 0.065 6.54 1.96 13.71
1/24/2021 7:30:00 PM 0.45 32.81 0.065 6.57 1.96 13.71
1/24/2021 7:45:00 PM 0.42 32.756 0.065 6.56 1.91 13.72
1/24/2021 8:00:00 PM 0.4 32.72 0.065 6.56 1.97 13.72
1/24/2021 8:15:00 PM 0.39 32.702 0.065 6.56 1.99 13.73
1/24/2021 8:30:00 PM 0.38 32.684 0.065 6.54 1.98 13.72
1/24/2021 8:45:00 PM 0.38 32.684 0.065 6.56 1.98 13.73
1/24/2021 9:00:00 PM 0.37 32.666 0.065 6.55 1.97 13.73
1/24/2021 9:15:00 PM 0.36 32.648 0.065 6.57 1.98 13.72
1/24/2021 9:30:00 PM 0.35 32.63 0.065 6.56 2.05 13.73
1/24/2021 9:45:00 PM 0.35 32.63 0.065 6.54 1.98 13.72
1/24/2021 10:00:00 PM 0.35 32.63 0.065 6.56 2 13.73
1/24/2021 10:15:00 PM 0.35 32.63 0.065 6.56 1.98 13.72
1/24/2021 10:30:00 PM 0.35 32.63 0.065 6.56 2.04 13.72
1/24/2021 10:45:00 PM 0.35 32.63 0.065 6.56 2.04 13.73
1/24/2021 11:00:00 PM 0.34 32.612 0.066 6.56 2.04 13.73
1/24/2021 11:15:00 PM 0.34 32.612 0.066 6.54 2.08 13.73
1/24/2021 11:30:00 PM 0.34 32.612 0.066 6.56 1.97 13.72
1/24/2021 11:45:00 PM 0.34 32.612 0.066 6.55 1.95 13.72
1/25/2021 12:00:00 AM 0.31 32.558 0.066 6.55 1.94 13.73
1/25/2021 12:15:00 AM 0.27 32.486 0.066 6.56 1.95 13.74
1/25/2021 12:30:00 AM 0.24 32.432 0.066 6.56 1.95 13.74
1/25/2021 12:45:00 AM 0.21 32.378 0.066 6.56 1.99 13.74
1/25/2021 1:00:00 AM 0.18 32.324 0.066 6.56 1.99 13.75
1/25/2021 1:15:00 AM 0.15 32.27 0.066 6.56 2.04 13.76
1/25/2021 1:30:00 AM 0.11 32.198 0.066 6.56 2.02 13.77
1/25/2021 1:45:00 AM 0.08 32.144 0.066 6.53 1.93 13.77
1/25/2021 2:00:00 AM 0.04 32.072 0.066 6.56 1.95 13.79
1/25/2021 2:15:00 AM 0.01 32.018 0.066 6.56 2.02 13.8
1/25/2021 2:30:00 AM -0.02 31.964 0.066 6.56 2 13.81
1/25/2021 2:45:00 AM -0.03 31.946 0.066 6.54 1.97 13.83
1/25/2021 3:00:00 AM -0.05 31.91 0.066 6.56 1.89 13.83
1/25/2021 3:15:00 AM -0.07 31.874 0.066 6.53 1.93 13.84
1/25/2021 3:30:00 AM -0.09 31.838 0.066 6.54 2.02 13.86
1/25/2021 3:45:00 AM -0.12 31.784 0.066 6.55 2 13.87
1/25/2021 4:00:00 AM -0.1 31.82 0.066 6.57 2.01 13.89
1/25/2021 4:15:00 AM -0.08 31.856 0.066 6.57 2.05 13.91
1/25/2021 4:30:00 AM -0.08 31.856 0.066 6.56 1.97 13.92
1/25/2021 4:45:00 AM -0.08 31.856 0.066 6.57 1.97 13.93
1/25/2021 5:00:00 AM -0.08 31.856 0.067 6.56 1.98 13.93
1/25/2021 5:15:00 AM -0.08 31.856 0.067 6.56 2.04 13.94
1/25/2021 5:30:00 AM -0.08 31.856 0.067 6.56 1.99 13.94
1/25/2021 5:45:00 AM -0.08 31.856 0.067 6.56 2.02 13.94
1/25/2021 6:00:00 AM -0.08 31.856 0.067 6.57 2.02 13.95
1/25/2021 6:15:00 AM -0.08 31.856 0.067 6.56 2.03 13.95
1/25/2021 6:30:00 AM -0.07 31.874 0.067 6.54 2.06 13.96
1/25/2021 6:45:00 AM -0.08 31.856 0.067 6.55 2.2 13.95
1/25/2021 7:00:00 AM -0.08 31.856 0.067 6.56 2.29 13.96
1/25/2021 7:15:00 AM -0.07 31.874 0.067 6.55 2.24 13.96
1/25/2021 7:30:00 AM -0.08 31.856 0.067 6.56 2.2 13.96
1/25/2021 7:45:00 AM -0.07 31.874 0.067 6.55 2.16 13.97
1/25/2021 8:00:00 AM -0.07 31.874 0.067 6.56 2.22 14
1/25/2021 8:15:00 AM -0.07 31.874 0.067 6.58 2.25 14.03
1/25/2021 8:30:00 AM -0.07 31.874 0.067 6.58 2.16 14.08
1/25/2021 8:45:00 AM -0.07 31.874 0.067 6.59 2.16 14.12
1/25/2021 9:00:00 AM -0.07 31.874 0.067 6.58 2.23 14.15
1/25/2021 9:15:00 AM -0.07 31.874 0.067 6.61 2.21 14.18
1/25/2021 9:30:00 AM -0.07 31.874 0.067 6.6 2.24 14.19
1/25/2021 9:45:00 AM -0.06 31.892 0.067 6.63 2.2 14.2
1/25/2021 10:00:00 AM -0.06 31.892 0.067 6.62 2.16 14.22
1/25/2021 10:15:00 AM -0.06 31.892 0.066 6.64 2.19 14.23
1/25/2021 10:30:00 AM -0.06 31.892 0.066 6.64 2.15 14.25
1/25/2021 10:45:00 AM -0.05 31.91 0.066 6.66 2.13 14.26
1/25/2021 11:00:00 AM -0.05 31.91 0.066 6.67 2.15 14.25
1/25/2021 11:15:00 AM -0.06 31.892 0.066 6.67 2.21 14.24
1/25/2021 11:30:00 AM -0.05 31.91 0.066 6.68 2.2 14.23
1/25/2021 11:45:00 AM -0.05 31.91 0.066 6.68 2.34 14.21
1/25/2021 12:00:00 PM -0.05 31.91 0.066 6.68 2.42 14.18
1/25/2021 12:15:00 PM -0.05 31.91 0.066 6.69 2.46 14.14
1/25/2021 12:30:00 PM -0.04 31.928 0.065 6.68 2.65 14.08
1/25/2021 12:45:00 PM 0.14 32.252 0.066 6.72 2.57 14.07
1/25/2021 1:00:00 PM 0.34 32.612 0.066 6.73 2.19 14.05
1/25/2021 1:15:00 PM 0.49 32.882 0.066 6.73 2.2 14.05
1/25/2021 1:30:00 PM 0.58 33.044 0.066 6.72 2.24 14.04
1/25/2021 1:45:00 PM 0.68 33.224 0.066 6.73 2.17 14.01
1/25/2021 2:00:00 PM 0.73 33.314 0.066 6.72 2.2 14.02
1/25/2021 2:15:00 PM 0.78 33.404 0.066 6.72 2.13 14
1/25/2021 2:30:00 PM 0.82 33.476 0.066 6.72 2.16 13.99
1/25/2021 2:45:00 PM 0.87 33.566 0.066 6.69 2.09 13.96
1/25/2021 3:00:00 PM 0.92 33.656 0.066 6.72 2.15 13.95
1/25/2021 3:15:00 PM 0.95 33.71 0.066 6.71 2.1 13.93
1/25/2021 3:30:00 PM 0.97 33.746 0.066 6.69 2.09 13.92
1/25/2021 3:45:00 PM 0.97 33.746 0.066 6.71 2.1 13.9
1/25/2021 4:00:00 PM 0.97 33.746 0.066 6.7 2.02 13.87
1/25/2021 4:15:00 PM 0.96 33.728 0.066 6.67 2.05 13.85
1/25/2021 4:30:00 PM 0.94 33.692 0.066 6.67 2.06 13.83
1/25/2021 4:45:00 PM 0.93 33.674 0.066 6.65 2.04 13.78
1/25/2021 5:00:00 PM 0.9 33.62 0.065 6.65 2.05 13.74
1/25/2021 5:15:00 PM 0.87 33.566 0.065 6.62 2.02 13.71
1/25/2021 5:30:00 PM 0.84 33.512 0.065 6.6 2.05 13.67
1/25/2021 5:45:00 PM 0.82 33.476 0.065 6.59 2.02 13.66
1/25/2021 6:00:00 PM 0.8 33.44 0.065 6.6 2.1 13.64
1/25/2021 6:15:00 PM 0.78 33.404 0.065 6.59 2.05 13.62
1/25/2021 6:30:00 PM 0.77 33.386 0.064 6.57 2.02 13.61
1/25/2021 6:45:00 PM 0.76 33.368 0.064 6.58 1.99 13.6
1/25/2021 7:00:00 PM 0.74 33.332 0.064 6.57 2 13.59
1/25/2021 7:15:00 PM 0.73 33.314 0.064 6.56 2.04 13.58
1/25/2021 7:30:00 PM 0.72 33.296 0.064 6.56 2.04 13.57
1/25/2021 7:45:00 PM 0.71 33.278 0.064 6.56 2 13.57
1/25/2021 8:00:00 PM 0.71 33.278 0.064 6.56 1.96 13.56
1/25/2021 8:15:00 PM 0.71 33.278 0.064 6.56 2.02 13.57
1/25/2021 8:30:00 PM 0.71 33.278 0.064 6.56 2.01 13.56
1/25/2021 8:45:00 PM 0.71 33.278 0.064 6.56 2.02 13.56
1/25/2021 9:00:00 PM 0.71 33.278 0.064 6.53 2.05 13.56
1/25/2021 9:15:00 PM 0.7 33.26 0.064 6.56 2.04 13.56
1/25/2021 9:30:00 PM 0.7 33.26 0.064 6.55 1.97 13.55
1/25/2021 9:45:00 PM 0.7 33.26 0.064 6.56 2.06 13.56
1/25/2021 10:00:00 PM 0.71 33.278 0.064 6.56 2.05 13.55
1/25/2021 10:15:00 PM 0.72 33.296 0.065 6.55 2.19 13.54
1/25/2021 10:30:00 PM 0.73 33.314 0.065 6.56 2.01 13.53
1/25/2021 10:45:00 PM 0.74 33.332 0.065 6.55 2.04 13.54
1/25/2021 11:00:00 PM 0.76 33.368 0.065 6.53 1.99 13.53
1/25/2021 11:15:00 PM 0.77 33.386 0.065 6.56 2.06 13.51
1/25/2021 11:30:00 PM 0.8 33.44 0.065 6.56 2.01 13.5
1/25/2021 11:45:00 PM 0.82 33.476 0.065 6.56 1.98 13.49
1/26/2021 12:00:00 AM 0.84 33.512 0.065 6.53 1.97 13.49
1/26/2021 12:15:00 AM 0.86 33.548 0.065 6.54 2.06 13.48
1/26/2021 12:30:00 AM 0.88 33.584 0.065 6.57 1.99 13.46
1/26/2021 12:45:00 AM 0.9 33.62 0.065 6.55 1.96 13.46
1/26/2021 1:00:00 AM 0.92 33.656 0.065 6.56 1.98 13.44
1/26/2021 1:15:00 AM 0.93 33.674 0.065 6.56 2.01 13.44
1/26/2021 1:30:00 AM 0.95 33.71 0.065 6.56 1.99 13.43
1/26/2021 1:45:00 AM 0.97 33.746 0.065 6.54 1.99 13.42
1/26/2021 2:00:00 AM 0.98 33.764 0.065 6.56 1.95 13.41
1/26/2021 2:15:00 AM 0.99 33.782 0.065 6.56 1.99 13.41
1/26/2021 2:30:00 AM 1 33.8 0.065 6.55 1.97 13.4
1/26/2021 2:45:00 AM 1.02 33.836 0.065 6.53 1.99 13.39
1/26/2021 3:00:00 AM 1.03 33.854 0.065 6.57 1.96 13.38
1/26/2021 3:15:00 AM 1.04 33.872 0.065 6.56 1.98 13.38
1/26/2021 3:30:00 AM 1.05 33.89 0.065 6.54 1.94 13.37
1/26/2021 3:45:00 AM 1.05 33.89 0.065 6.54 2.01 13.37
1/26/2021 4:00:00 AM 1.05 33.89 0.065 6.55 2.06 13.36
1/26/2021 4:15:00 AM 1.04 33.872 0.065 6.56 2.02 13.35
1/26/2021 4:30:00 AM 1.01 33.818 0.065 6.55 1.98 13.35
1/26/2021 4:45:00 AM 1.01 33.818 0.065 6.56 1.97 13.35
1/26/2021 5:00:00 AM 1.02 33.836 0.065 6.55 1.97 13.35
1/26/2021 5:15:00 AM 1.04 33.872 0.065 6.53 1.94 13.35
1/26/2021 5:30:00 AM 1.04 33.872 0.065 6.56 1.99 13.34
1/26/2021 5:45:00 AM 1.05 33.89 0.065 6.57 1.97 13.34
1/26/2021 6:00:00 AM 1.05 33.89 0.065 6.56 1.99 13.33
1/26/2021 6:15:00 AM 1.05 33.89 0.065 6.56 1.96 13.33
1/26/2021 6:30:00 AM 1.06 33.908 0.065 6.56 1.97 13.32
1/26/2021 6:45:00 AM 1.07 33.926 0.065 6.56 2 13.32
1/26/2021 7:00:00 AM 1.08 33.944 0.065 6.56 1.99 13.32
1/26/2021 7:15:00 AM 1.08 33.944 0.065 6.56 1.93 13.31
1/26/2021 7:30:00 AM 1.06 33.908 0.065 6.56 1.99 13.32
1/26/2021 7:45:00 AM 0.98 33.764 0.065 6.55 1.96 13.32
1/26/2021 8:00:00 AM 0.91 33.638 0.065 6.56 2 13.34
1/26/2021 8:15:00 AM 0.78 33.404 0.065 6.56 2 13.38
1/26/2021 8:30:00 AM 0.8 33.44 0.065 6.57 1.97 13.42
1/26/2021 8:45:00 AM 0.83 33.494 0.065 6.58 1.98 13.43
1/26/2021 9:00:00 AM 0.85 33.53 0.065 6.58 2.18 13.42
1/26/2021 9:15:00 AM 0.76 33.368 0.065 6.57 2.08 13.47
1/26/2021 9:30:00 AM 0.66 33.188 0.064 6.57 2.03 13.52
1/26/2021 9:45:00 AM 0.57 33.026 0.064 6.58 2.01 13.58
1/26/2021 10:00:00 AM 0.57 33.026 0.064 6.59 2.01 13.63
1/26/2021 10:15:00 AM 0.49 32.882 0.064 6.6 1.97 13.65
1/26/2021 10:30:00 AM 0.42 32.756 0.064 6.62 2.01 13.69
1/26/2021 10:45:00 AM 0.48 32.864 0.064 6.63 1.97 13.76
1/26/2021 11:00:00 AM 0.54 32.972 0.064 6.64 1.98 13.79
1/26/2021 11:15:00 AM 0.56 33.008 0.064 6.65 1.98 13.8
1/26/2021 11:30:00 AM 0.55 32.99 0.064 6.62 1.96 13.81
1/26/2021 11:45:00 AM 0.53 32.954 0.064 6.65 1.98 13.81
1/26/2021 12:00:00 PM 0.5 32.9 0.064 6.64 1.97 13.83
1/26/2021 12:15:00 PM 0.51 32.918 0.063 6.65 1.95 13.87
1/26/2021 12:30:00 PM 0.5 32.9 0.063 6.66 1.95 13.87
1/26/2021 12:45:00 PM 0.5 32.9 0.063 6.63 1.94 13.85
1/26/2021 1:00:00 PM 0.51 32.918 0.063 6.65 1.97 13.83
1/26/2021 1:15:00 PM 0.56 33.008 0.063 6.66 1.96 13.82
1/26/2021 1:30:00 PM 0.58 33.044 0.063 6.66 1.91 13.82
1/26/2021 1:45:00 PM 0.66 33.188 0.063 6.66 1.94 13.84
1/26/2021 2:00:00 PM 0.74 33.332 0.063 6.68 1.93 13.82
1/26/2021 2:15:00 PM 0.79 33.422 0.063 6.68 1.93 13.81
1/26/2021 2:30:00 PM 0.84 33.512 0.063 6.68 1.94 13.78
1/26/2021 2:45:00 PM 0.87 33.566 0.063 6.68 1.93 13.76
1/26/2021 3:00:00 PM 0.89 33.602 0.063 6.66 1.93 13.73
1/26/2021 3:15:00 PM 0.92 33.656 0.063 6.67 1.91 13.69
1/26/2021 3:30:00 PM 0.95 33.71 0.063 6.65 1.95 13.66
1/26/2021 3:45:00 PM 0.98 33.764 0.063 6.65 1.96 13.63
1/26/2021 4:00:00 PM 1.01 33.818 0.063 6.62 1.94 13.61
1/26/2021 4:15:00 PM 1.05 33.89 0.063 6.62 1.88 13.57
1/26/2021 4:30:00 PM 1.08 33.944 0.063 6.64 1.93 13.53
1/26/2021 4:45:00 PM 1.11 33.998 0.063 6.59 1.95 13.48
1/26/2021 5:00:00 PM 1.14 34.052 0.063 6.6 1.92 13.43
1/26/2021 5:15:00 PM 1.16 34.088 0.063 6.61 1.96 13.4
1/26/2021 5:30:00 PM 1.17 34.106 0.063 6.59 1.98 13.37
1/26/2021 5:45:00 PM 1.18 34.124 0.063 6.59 1.96 13.34
1/26/2021 6:00:00 PM 1.21 34.178 0.063 6.58 1.94 13.31
1/26/2021 6:15:00 PM 1.24 34.232 0.063 6.57 1.88 13.29
1/26/2021 6:30:00 PM 1.27 34.286 0.063 6.58 1.98 13.28
1/26/2021 6:45:00 PM 1.29 34.322 0.063 6.56 2.02 13.26
1/26/2021 7:00:00 PM 1.31 34.358 0.063 6.55 2.01 13.24
1/26/2021 7:15:00 PM 1.33 34.394 0.063 6.56 2.03 13.23
1/26/2021 7:30:00 PM 1.35 34.43 0.063 6.56 1.98 13.22
1/26/2021 7:45:00 PM 1.37 34.466 0.063 6.53 2.01 13.2
1/26/2021 8:00:00 PM 1.4 34.52 0.063 6.54 2.04 13.19
1/26/2021 8:15:00 PM 1.43 34.574 0.063 6.53 2.05 13.18
1/26/2021 8:30:00 PM 1.45 34.61 0.063 6.55 2 13.17
1/26/2021 8:45:00 PM 1.48 34.664 0.063 6.54 1.99 13.16
1/26/2021 9:00:00 PM 1.5 34.7 0.063 6.53 2.04 13.15
1/26/2021 9:15:00 PM 1.53 34.754 0.063 6.53 1.99 13.14
1/26/2021 9:30:00 PM 1.56 34.808 0.063 6.53 2.02 13.13
1/26/2021 9:45:00 PM 1.59 34.862 0.063 6.55 2 13.12
1/26/2021 10:00:00 PM 1.61 34.898 0.063 6.55 1.96 13.11
1/26/2021 10:15:00 PM 1.63 34.934 0.063 6.54 2.04 13.09
1/26/2021 10:30:00 PM 1.66 34.988 0.063 6.54 2.03 13.09
1/26/2021 10:45:00 PM 1.67 35.006 0.063 6.52 2 13.09
1/26/2021 11:00:00 PM 1.69 35.042 0.064 6.54 1.99 13.08
1/26/2021 11:15:00 PM 1.71 35.078 0.064 6.52 1.99 13.07
1/26/2021 11:30:00 PM 1.73 35.114 0.064 6.55 1.97 13.07
1/26/2021 11:45:00 PM 1.74 35.132 0.064 6.54 1.96 13.06
1/27/2021 12:00:00 AM 1.76 35.168 0.064 6.54 1.98 13.06
1/27/2021 12:15:00 AM 1.72 35.096 0.064 6.52 1.98 13.06
1/27/2021 12:30:00 AM 1.73 35.114 0.064 6.55 1.98 13.07
1/27/2021 12:45:00 AM 1.74 35.132 0.064 6.54 1.95 13.07
1/27/2021 1:00:00 AM 1.74 35.132 0.064 6.55 1.99 13.07
1/27/2021 1:15:00 AM 1.74 35.132 0.064 6.55 2.01 13.07
1/27/2021 1:30:00 AM 1.73 35.114 0.064 6.54 1.95 13.07
1/27/2021 1:45:00 AM 1.73 35.114 0.064 6.54 1.94 13.08
1/27/2021 2:00:00 AM 1.71 35.078 0.064 6.53 1.96 13.09
1/27/2021 2:15:00 AM 1.69 35.042 0.064 6.52 1.95 13.1
1/27/2021 2:30:00 AM 1.68 35.024 0.064 6.55 1.97 13.11
1/27/2021 2:45:00 AM 1.67 35.006 0.064 6.55 1.99 13.11
1/27/2021 3:00:00 AM 1.65 34.97 0.064 6.55 2.01 13.12
1/27/2021 3:15:00 AM 1.65 34.97 0.064 6.52 1.96 13.13
1/27/2021 3:30:00 AM 1.65 34.97 0.064 6.54 1.98 13.14
1/27/2021 3:45:00 AM 1.64 34.952 0.064 6.54 1.95 13.14
1/27/2021 4:00:00 AM 1.64 34.952 0.064 6.55 1.98 13.14
1/27/2021 4:15:00 AM 1.64 34.952 0.064 6.54 1.97 13.15
1/27/2021 4:30:00 AM 1.63 34.934 0.064 6.55 1.95 13.16
1/27/2021 4:45:00 AM 1.62 34.916 0.064 6.55 1.96 13.16
1/27/2021 5:00:00 AM 1.6 34.88 0.064 6.54 1.96 13.17
1/27/2021 5:15:00 AM 1.58 34.844 0.064 6.55 1.97 13.18
1/27/2021 5:30:00 AM 1.57 34.826 0.064 6.54 1.94 13.19
1/27/2021 5:45:00 AM 1.55 34.79 0.064 6.55 2 13.19
1/27/2021 6:00:00 AM 1.54 34.772 0.064 6.55 2.01 13.2
1/27/2021 6:15:00 AM 1.51 34.718 0.064 6.55 1.97 13.21
1/27/2021 6:30:00 AM 1.49 34.682 0.064 6.55 1.96 13.23
1/27/2021 6:45:00 AM 1.47 34.646 0.064 6.55 2 13.24
1/27/2021 7:00:00 AM 1.45 34.61 0.064 6.55 2.01 13.25
1/27/2021 7:15:00 AM 1.43 34.574 0.064 6.53 1.99 13.26
1/27/2021 7:30:00 AM 1.4 34.52 0.064 6.55 2.17 13.27
1/27/2021 7:45:00 AM 1.39 34.502 0.064 6.55 2.08 13.3
1/27/2021 8:00:00 AM 1.39 34.502 0.064 6.55 2.03 13.33
1/27/2021 8:15:00 AM 1.37 34.466 0.064 6.57 1.99 13.37
1/27/2021 8:30:00 AM 1.37 34.466 0.064 6.58 1.99 13.45
1/27/2021 8:45:00 AM 1.38 34.484 0.064 6.6 2.02 13.54
1/27/2021 9:00:00 AM 1.37 34.466 0.064 6.61 2.01 13.58
1/27/2021 9:15:00 AM 1.37 34.466 0.064 6.61 1.96 13.61
1/27/2021 9:30:00 AM 1.38 34.484 0.064 6.64 2.06 13.66
1/27/2021 9:45:00 AM 1.39 34.502 0.064 6.63 2 13.69
1/27/2021 10:00:00 AM 1.41 34.538 0.063 6.65 2.01 13.73
1/27/2021 10:15:00 AM 1.45 34.61 0.063 6.68 1.94 13.76
1/27/2021 10:30:00 AM 1.48 34.664 0.063 6.69 1.96 13.76
1/27/2021 10:45:00 AM 1.5 34.7 0.063 6.69 1.92 13.75
1/27/2021 11:00:00 AM 1.51 34.718 0.063 6.7 1.88 13.76
1/27/2021 11:15:00 AM 1.53 34.754 0.063 6.7 1.91 13.78
1/27/2021 11:30:00 AM 1.56 34.808 0.063 6.71 1.91 13.79
1/27/2021 11:45:00 AM 1.56 34.808 0.063 6.71 1.95 13.78
1/27/2021 12:00:00 PM 1.57 34.826 0.063 6.71 1.9 13.77
1/27/2021 12:15:00 PM 1.59 34.862 0.063 6.72 1.9 13.77
1/27/2021 12:30:00 PM 1.61 34.898 0.063 6.72 1.92 13.77
1/27/2021 12:45:00 PM 1.65 34.97 0.063 6.72 1.89 13.78
1/27/2021 1:00:00 PM 1.68 35.024 0.063 6.73 1.91 13.77
1/27/2021 1:15:00 PM 1.71 35.078 0.063 6.73 1.9 13.76
1/27/2021 1:30:00 PM 1.73 35.114 0.063 6.74 1.89 13.75
1/27/2021 1:45:00 PM 1.73 35.114 0.063 6.71 1.91 13.72
1/27/2021 2:00:00 PM 1.71 35.078 0.063 6.72 1.95 13.69
1/27/2021 2:15:00 PM 1.69 35.042 0.063 6.68 1.88 13.69
1/27/2021 2:30:00 PM 1.68 35.024 0.063 6.7 1.87 13.69
1/27/2021 2:45:00 PM 1.67 35.006 0.063 6.71 1.9 13.69
1/27/2021 3:00:00 PM 1.67 35.006 0.063 6.69 1.91 13.7
1/27/2021 3:15:00 PM 1.66 34.988 0.063 6.72 1.86 13.7
1/27/2021 3:30:00 PM 1.66 34.988 0.063 6.71 1.86 13.7
1/27/2021 3:45:00 PM 1.66 34.988 0.063 6.71 1.88 13.7
1/27/2021 4:00:00 PM 1.64 34.952 0.063 6.68 1.89 13.7
1/27/2021 4:15:00 PM 1.62 34.916 0.063 6.69 1.91 13.66
1/27/2021 4:30:00 PM 1.6 34.88 0.063 6.69 1.92 13.66
1/27/2021 4:45:00 PM 1.57 34.826 0.063 6.69 1.91 13.62
1/27/2021 5:00:00 PM 1.53 34.754 0.063 6.66 1.98 13.56
1/27/2021 5:15:00 PM 1.51 34.718 0.063 6.65 1.95 13.51
1/27/2021 5:30:00 PM 1.47 34.646 0.063 6.61 1.94 13.47
1/27/2021 5:45:00 PM 1.44 34.592 0.063 6.62 1.98 13.45
1/27/2021 6:00:00 PM 1.42 34.556 0.063 6.59 1.95 13.43
1/27/2021 6:15:00 PM 1.39 34.502 0.063 6.59 1.95 13.42
1/27/2021 6:30:00 PM 1.36 34.448 0.063 6.59 1.96 13.41
1/27/2021 6:45:00 PM 1.33 34.394 0.063 6.59 1.94 13.4
1/27/2021 7:00:00 PM 1.28 34.304 0.063 6.57 1.99 13.4
1/27/2021 7:15:00 PM 1.22 34.196 0.063 6.58 2.04 13.41
1/27/2021 7:30:00 PM 1.17 34.106 0.063 6.56 2.03 13.41
1/27/2021 7:45:00 PM 1.12 34.016 0.064 6.58 2 13.43
1/27/2021 8:00:00 PM 1.08 33.944 0.064 6.57 2.06 13.43
1/27/2021 8:15:00 PM 1.04 33.872 0.064 6.54 2.06 13.44
1/27/2021 8:30:00 PM 1 33.8 0.064 6.57 1.99 13.45
1/27/2021 8:45:00 PM 0.96 33.728 0.064 6.56 1.99 13.47
1/27/2021 9:00:00 PM 0.91 33.638 0.064 6.54 2.01 13.49
1/27/2021 9:15:00 PM 0.86 33.548 0.064 6.57 1.97 13.5
1/27/2021 9:30:00 PM 0.8 33.44 0.064 6.56 2.01 13.52
1/27/2021 9:45:00 PM 0.76 33.368 0.064 6.56 2.04 13.53
1/27/2021 10:00:00 PM 0.71 33.278 0.064 6.55 2.06 13.57
1/27/2021 10:15:00 PM 0.67 33.206 0.064 6.56 2.04 13.58
1/27/2021 10:30:00 PM 0.62 33.116 0.064 6.57 2.02 13.59
1/27/2021 10:45:00 PM 0.56 33.008 0.064 6.54 1.98 13.62
1/27/2021 11:00:00 PM 0.51 32.918 0.064 6.56 2.04 13.64
1/27/2021 11:15:00 PM 0.46 32.828 0.064 6.55 2.01 13.65
1/27/2021 11:30:00 PM 0.41 32.738 0.064 6.56 1.98 13.66
1/27/2021 11:45:00 PM 0.38 32.684 0.064 6.54 2.05 13.69
1/28/2021 12:00:00 AM 0.37 32.666 0.064 6.55 2.02 13.7
1/28/2021 12:15:00 AM 0.35 32.63 0.064 6.55 1.96 13.71
1/28/2021 12:30:00 AM 0.32 32.576 0.064 6.56 1.95 13.72
1/28/2021 12:45:00 AM 0.29 32.522 0.064 6.56 1.91 13.74
1/28/2021 1:00:00 AM 0.26 32.468 0.064 6.56 1.93 13.75
1/28/2021 1:15:00 AM 0.24 32.432 0.064 6.57 1.98 13.76
1/28/2021 1:30:00 AM 0.2 32.36 0.064 6.55 1.95 13.77
1/28/2021 1:45:00 AM 0.16 32.288 0.064 6.55 2.01 13.79
1/28/2021 2:00:00 AM 0.13 32.234 0.064 6.57 2 13.8
1/28/2021 2:15:00 AM 0.1 32.18 0.064 6.57 1.97 13.81
1/28/2021 2:30:00 AM 0.07 32.126 0.064 6.57 1.99 13.83
1/28/2021 2:45:00 AM 0.05 32.09 0.064 6.58 1.99 13.84
1/28/2021 3:00:00 AM 0.03 32.054 0.064 6.54 1.99 13.85
1/28/2021 3:15:00 AM 0.02 32.036 0.064 6.56 2.02 13.86
1/28/2021 3:30:00 AM 0 32 0.064 6.56 2.02 13.86
1/28/2021 3:45:00 AM -0.02 31.964 0.064 6.56 1.98 13.87
1/28/2021 4:00:00 AM -0.03 31.946 0.065 6.56 2 13.88
1/28/2021 4:15:00 AM -0.06 31.892 0.065 6.58 2.01 13.88
1/28/2021 4:30:00 AM -0.07 31.874 0.065 6.57 2.06 13.89
1/28/2021 4:45:00 AM -0.07 31.874 0.065 6.55 2.09 13.9
1/28/2021 5:00:00 AM -0.07 31.874 0.065 6.57 2.06 13.91
1/28/2021 5:15:00 AM -0.07 31.874 0.065 6.58 2.04 13.92
1/28/2021 5:30:00 AM -0.08 31.856 0.065 6.58 2.02 13.92
1/28/2021 5:45:00 AM -0.08 31.856 0.065 6.57 2.07 13.93
1/28/2021 6:00:00 AM -0.08 31.856 0.065 6.55 2.18 13.94
1/28/2021 6:15:00 AM -0.08 31.856 0.065 6.58 2.2 13.94
1/28/2021 6:30:00 AM -0.07 31.874 0.065 6.58 2.12 13.95
1/28/2021 6:45:00 AM -0.07 31.874 0.065 6.57 2.2 13.94
1/28/2021 7:00:00 AM -0.07 31.874 0.065 6.58 2.36 13.94
1/28/2021 7:15:00 AM -0.07 31.874 0.065 6.58 2.33 13.95
1/28/2021 7:30:00 AM -0.07 31.874 0.065 6.59 2.19 13.96
1/28/2021 7:45:00 AM -0.07 31.874 0.066 6.57 2.14 14
1/28/2021 8:00:00 AM -0.07 31.874 0.066 6.59 2.22 14.03
1/28/2021 8:15:00 AM -0.07 31.874 0.066 6.59 2.21 14.1
1/28/2021 8:30:00 AM -0.07 31.874 0.065 6.61 2.23 14.16
1/28/2021 8:45:00 AM -0.07 31.874 0.065 6.63 2.14 14.21
1/28/2021 9:00:00 AM -0.07 31.874 0.065 6.62 2.07 14.24
1/28/2021 9:15:00 AM -0.06 31.892 0.065 6.65 2.03 14.28
1/28/2021 9:30:00 AM -0.06 31.892 0.065 6.64 2.1 14.33
1/28/2021 9:45:00 AM -0.06 31.892 0.065 6.67 2 14.34
1/28/2021 10:00:00 AM -0.06 31.892 0.065 6.68 2.03 14.36
1/28/2021 10:15:00 AM -0.06 31.892 0.065 6.66 1.99 14.38
1/28/2021 10:30:00 AM -0.06 31.892 0.065 6.68 2.03 14.39
1/28/2021 10:45:00 AM -0.06 31.892 0.065 6.69 2.08 14.4
1/28/2021 11:00:00 AM -0.06 31.892 0.065 6.71 1.97 14.39
1/28/2021 11:15:00 AM -0.05 31.91 0.065 6.72 2.04 14.39
1/28/2021 11:30:00 AM -0.05 31.91 0.065 6.72 2.06 14.38
1/28/2021 11:45:00 AM -0.06 31.892 0.064 6.72 2.12 14.36
1/28/2021 12:00:00 PM -0.05 31.91 0.064 6.72 2.11 14.35
1/28/2021 12:15:00 PM 0.03 32.054 0.064 6.73 2.06 14.36
1/28/2021 12:30:00 PM 0.18 32.324 0.064 6.74 2.01 14.33
1/28/2021 12:45:00 PM 0.28 32.504 0.064 6.74 2 14.32
1/28/2021 1:00:00 PM 0.34 32.612 0.064 6.74 1.95 14.3
1/28/2021 1:15:00 PM 0.43 32.774 0.064 6.74 1.99 14.28
1/28/2021 1:30:00 PM 0.5 32.9 0.064 6.74 1.98 14.25
1/28/2021 1:45:00 PM 0.54 32.972 0.064 6.73 1.98 14.22
1/28/2021 2:00:00 PM 0.54 32.972 0.064 6.73 1.98 14.2
1/28/2021 2:15:00 PM 0.55 32.99 0.064 6.73 2.06 14.18
1/28/2021 2:30:00 PM 0.54 32.972 0.064 6.69 2 14.16
1/28/2021 2:45:00 PM 0.51 32.918 0.064 6.7 1.99 14.16
1/28/2021 3:00:00 PM 0.52 32.936 0.064 6.71 1.99 14.15
1/28/2021 3:15:00 PM 0.53 32.954 0.064 6.72 1.99 14.14
1/28/2021 3:30:00 PM 0.5 32.9 0.064 6.72 2 14.14
1/28/2021 3:45:00 PM 0.46 32.828 0.064 6.72 1.99 14.13
1/28/2021 4:00:00 PM 0.41 32.738 0.064 6.67 2 14.13
1/28/2021 4:15:00 PM 0.34 32.612 0.064 6.7 1.98 14.14
1/28/2021 4:30:00 PM 0.27 32.486 0.064 6.69 1.97 14.15
1/28/2021 4:45:00 PM 0.19 32.342 0.064 6.69 1.98 14.15
1/28/2021 5:00:00 PM 0.13 32.234 0.064 6.68 1.97 14.14
1/28/2021 5:15:00 PM 0.09 32.162 0.064 6.66 1.95 14.11
1/28/2021 5:30:00 PM 0.01 32.018 0.065 6.65 1.97 14.09
1/28/2021 5:45:00 PM -0.05 31.91 0.065 6.65 2 14.06
1/28/2021 6:00:00 PM -0.07 31.874 0.065 6.6 2.05 14.06
1/28/2021 6:15:00 PM -0.07 31.874 0.065 6.61 2.12 14.06
1/28/2021 6:30:00 PM -0.07 31.874 0.065 6.62 2.08 14.07
1/28/2021 6:45:00 PM -0.07 31.874 0.065 6.62 2.09 14.06
1/28/2021 7:00:00 PM -0.07 31.874 0.065 6.61 2.04 14.05
1/28/2021 7:15:00 PM -0.07 31.874 0.065 6.6 2.05 14.05
1/28/2021 7:30:00 PM -0.07 31.874 0.065 6.58 2.05 14.04
1/28/2021 7:45:00 PM -0.07 31.874 0.065 6.6 2.13 14.04
1/28/2021 8:00:00 PM -0.07 31.874 0.064 6.59 2.21 14.03
1/28/2021 8:15:00 PM -0.07 31.874 0.064 6.59 2.23 14.02
1/28/2021 8:30:00 PM -0.07 31.874 0.064 6.59 2.17 14.02
1/28/2021 8:45:00 PM -0.07 31.874 0.065 6.56 2.19 14.02
1/28/2021 9:00:00 PM -0.07 31.874 0.065 6.59 2.18 14.01
1/28/2021 9:15:00 PM -0.07 31.874 0.065 6.58 2.13 14.01
1/28/2021 9:30:00 PM -0.07 31.874 0.065 6.56 2.16 14.01
1/28/2021 9:45:00 PM -0.07 31.874 0.065 6.57 2.2 14
1/28/2021 10:00:00 PM -0.07 31.874 0.065 6.57 2.2 14
1/28/2021 10:15:00 PM -0.07 31.874 0.065 6.57 2.2 13.99
1/28/2021 10:30:00 PM -0.07 31.874 0.065 6.59 2.2 13.99
1/28/2021 10:45:00 PM -0.07 31.874 0.065 6.56 2.23 13.98
1/28/2021 11:00:00 PM -0.07 31.874 0.065 6.57 2.27 13.98
1/28/2021 11:15:00 PM -0.07 31.874 0.065 6.58 2.23 13.98
1/28/2021 11:30:00 PM -0.07 31.874 0.065 6.58 2.16 13.97
1/28/2021 11:45:00 PM -0.07 31.874 0.065 6.58 2.23 13.96
1/29/2021 12:00:00 AM -0.07 31.874 0.066 6.58 2.18 13.97
1/29/2021 12:15:00 AM -0.07 31.874 0.066 6.58 2.23 13.95
1/29/2021 12:30:00 AM -0.07 31.874 0.066 6.58 2.21 13.95
1/29/2021 12:45:00 AM -0.07 31.874 0.066 6.56 2.21 13.95
1/29/2021 1:00:00 AM -0.07 31.874 0.066 6.56 2.14 13.94
1/29/2021 1:15:00 AM -0.07 31.874 0.066 6.58 2.12 13.94
1/29/2021 1:30:00 AM -0.07 31.874 0.066 6.58 2.03 13.94
1/29/2021 1:45:00 AM -0.07 31.874 0.066 6.58 2.03 13.94
1/29/2021 2:00:00 AM -0.07 31.874 0.066 6.54 2.06 13.94
1/29/2021 2:15:00 AM -0.07 31.874 0.066 6.56 2.12 13.94
1/29/2021 2:30:00 AM -0.07 31.874 0.066 6.58 2.06 13.94
1/29/2021 2:45:00 AM -0.07 31.874 0.066 6.58 2.1 13.94
1/29/2021 3:00:00 AM -0.07 31.874 0.066 6.55 2.08 13.93
1/29/2021 3:15:00 AM -0.07 31.874 0.066 6.57 2.02 13.93
1/29/2021 3:30:00 AM -0.07 31.874 0.066 6.58 2.09 13.93
1/29/2021 3:45:00 AM -0.07 31.874 0.066 6.55 2.07 13.93
1/29/2021 4:00:00 AM -0.07 31.874 0.066 6.58 2.15 13.93
1/29/2021 4:15:00 AM -0.07 31.874 0.066 6.57 2.07 13.93
1/29/2021 4:30:00 AM -0.07 31.874 0.066 6.58 2.13 13.93
1/29/2021 4:45:00 AM -0.07 31.874 0.066 6.56 2.08 13.93
1/29/2021 5:00:00 AM -0.07 31.874 0.066 6.57 2.11 13.93
1/29/2021 5:15:00 AM -0.07 31.874 0.067 6.57 2.06 13.93
1/29/2021 5:30:00 AM -0.07 31.874 0.067 6.58 2.17 13.92
1/29/2021 5:45:00 AM -0.07 31.874 0.067 6.53 2.09 13.92
1/29/2021 6:00:00 AM -0.07 31.874 0.067 6.56 2.07 13.92
1/29/2021 6:15:00 AM -0.07 31.874 0.067 6.57 2.15 13.92
1/29/2021 6:30:00 AM -0.07 31.874 0.067 6.57 2.14 13.93
1/29/2021 6:45:00 AM -0.07 31.874 0.067 6.54 2.14 13.93
1/29/2021 7:00:00 AM -0.07 31.874 0.067 6.58 2.12 13.93
1/29/2021 7:15:00 AM -0.07 31.874 0.067 6.55 2.07 13.93
1/29/2021 7:30:00 AM -0.07 31.874 0.067 6.58 2.05 13.95
1/29/2021 7:45:00 AM -0.07 31.874 0.067 6.57 2.1 13.97
1/29/2021 8:00:00 AM -0.07 31.874 0.067 6.58 2.1 14.01
1/29/2021 8:15:00 AM -0.07 31.874 0.067 6.59 2.15 14.06
1/29/2021 8:30:00 AM -0.06 31.892 0.067 6.6 2.13 14.11
1/29/2021 8:45:00 AM -0.06 31.892 0.067 6.61 2.15 14.17
1/29/2021 9:00:00 AM -0.06 31.892 0.067 6.62 2.13 14.22
1/29/2021 9:15:00 AM -0.06 31.892 0.067 6.63 2.06 14.25
1/29/2021 9:30:00 AM -0.06 31.892 0.067 6.64 2.19 14.28
1/29/2021 9:45:00 AM -0.06 31.892 0.067 6.64 2.13 14.3
1/29/2021 10:00:00 AM -0.06 31.892 0.066 6.66 2.08 14.33
1/29/2021 10:15:00 AM -0.06 31.892 0.066 6.67 2.12 14.35
1/29/2021 10:30:00 AM -0.07 31.874 0.066 6.66 2.11 14.36
1/29/2021 10:45:00 AM -0.06 31.892 0.066 6.7 2.17 14.38
1/29/2021 11:00:00 AM -0.06 31.892 0.066 6.69 2.2 14.4
1/29/2021 11:15:00 AM -0.06 31.892 0.066 6.7 2.22 14.41
1/29/2021 11:30:00 AM -0.06 31.892 0.066 6.69 2.17 14.41
1/29/2021 11:45:00 AM -0.06 31.892 0.065 6.72 2.2 14.41
1/29/2021 12:00:00 PM -0.06 31.892 0.065 6.72 2.18 14.42
1/29/2021 12:15:00 PM -0.06 31.892 0.065 6.7 2.18 14.41
1/29/2021 12:30:00 PM -0.06 31.892 0.065 6.73 2.16 14.4
1/29/2021 12:45:00 PM -0.06 31.892 0.065 6.74 2.13 14.39
1/29/2021 1:00:00 PM -0.06 31.892 0.065 6.71 2.14 14.38
1/29/2021 1:15:00 PM -0.06 31.892 0.065 6.74 2.09 14.37
1/29/2021 1:30:00 PM -0.06 31.892 0.065 6.74 2.23 14.37
1/29/2021 1:45:00 PM -0.06 31.892 0.065 6.73 2.27 14.36
1/29/2021 2:00:00 PM -0.06 31.892 0.065 6.75 2.15 14.36
1/29/2021 2:15:00 PM -0.06 31.892 0.065 6.75 2.16 14.35
1/29/2021 2:30:00 PM -0.06 31.892 0.065 6.75 2.3 14.35
1/29/2021 2:45:00 PM -0.06 31.892 0.065 6.75 2.26 14.34
1/29/2021 3:00:00 PM -0.06 31.892 0.065 6.74 2.25 14.32
1/29/2021 3:15:00 PM -0.06 31.892 0.065 6.76 2.26 14.32
1/29/2021 3:30:00 PM -0.06 31.892 0.065 6.75 2.21 14.3
1/29/2021 3:45:00 PM -0.06 31.892 0.065 6.75 2.22 14.29
1/29/2021 4:00:00 PM -0.06 31.892 0.065 6.74 2.11 14.29
1/29/2021 4:15:00 PM -0.06 31.892 0.065 6.73 2.25 14.27
1/29/2021 4:30:00 PM -0.06 31.892 0.065 6.71 2.14 14.24
1/29/2021 4:45:00 PM -0.06 31.892 0.065 6.69 2.13 14.19
1/29/2021 5:00:00 PM -0.06 31.892 0.065 6.7 2.11 14.14
1/29/2021 5:15:00 PM -0.06 31.892 0.065 6.69 2.15 14.1
1/29/2021 5:30:00 PM -0.06 31.892 0.065 6.63 2.13 14.07
1/29/2021 5:45:00 PM -0.06 31.892 0.065 6.65 2.09 14.04
1/29/2021 6:00:00 PM -0.06 31.892 0.065 6.64 2.09 14.02
1/29/2021 6:15:00 PM -0.06 31.892 0.065 6.63 2.07 14.01
1/29/2021 6:30:00 PM -0.06 31.892 0.065 6.62 2.06 13.99
1/29/2021 6:45:00 PM -0.06 31.892 0.065 6.61 2.12 13.98
1/29/2021 7:00:00 PM -0.06 31.892 0.065 6.61 2.23 13.97
1/29/2021 7:15:00 PM -0.06 31.892 0.065 6.6 2.08 13.95
1/29/2021 7:30:00 PM -0.06 31.892 0.065 6.6 2.08 13.95
1/29/2021 7:45:00 PM -0.06 31.892 0.065 6.59 2.07 13.95
1/29/2021 8:00:00 PM -0.06 31.892 0.065 6.59 2.1 13.94
1/29/2021 8:15:00 PM -0.06 31.892 0.065 6.57 2.15 13.93
1/29/2021 8:30:00 PM -0.06 31.892 0.065 6.59 2.06 13.93
1/29/2021 8:45:00 PM -0.06 31.892 0.065 6.59 2.14 13.93
1/29/2021 9:00:00 PM -0.06 31.892 0.065 6.57 2.14 13.92
1/29/2021 9:15:00 PM -0.06 31.892 0.065 6.57 2.09 13.92
1/29/2021 9:30:00 PM -0.06 31.892 0.065 6.58 2.13 13.92
1/29/2021 9:45:00 PM -0.06 31.892 0.065 6.54 2.19 13.92
1/29/2021 10:00:00 PM -0.06 31.892 0.065 6.56 2.11 13.92
1/29/2021 10:15:00 PM -0.06 31.892 0.065 6.56 2.07 13.92
1/29/2021 10:30:00 PM -0.06 31.892 0.065 6.57 2.11 13.92
1/29/2021 10:45:00 PM -0.06 31.892 0.065 6.57 2.07 13.92
1/29/2021 11:00:00 PM -0.06 31.892 0.065 6.57 2.08 13.91
1/29/2021 11:15:00 PM -0.06 31.892 0.065 6.56 2.08 13.91
1/29/2021 11:30:00 PM -0.06 31.892 0.065 6.57 2.1 13.91
1/29/2021 11:45:00 PM -0.06 31.892 0.065 6.56 2.08 13.91
1/30/2021 12:00:00 AM -0.06 31.892 0.065 6.56 2.08 13.91
1/30/2021 12:15:00 AM -0.06 31.892 0.065 6.56 2.09 13.92
1/30/2021 12:30:00 AM -0.06 31.892 0.065 6.57 2.13 13.91
1/30/2021 12:45:00 AM -0.06 31.892 0.065 6.56 2.11 13.92
1/30/2021 1:00:00 AM -0.06 31.892 0.065 6.56 2.09 13.92
1/30/2021 1:15:00 AM -0.06 31.892 0.065 6.56 2.08 13.92
1/30/2021 1:30:00 AM -0.06 31.892 0.065 6.57 2.16 13.92
1/30/2021 1:45:00 AM -0.06 31.892 0.065 6.53 2.17 13.93
1/30/2021 2:00:00 AM -0.06 31.892 0.065 6.55 2.12 13.92
1/30/2021 2:15:00 AM -0.06 31.892 0.065 6.55 2.08 13.93
1/30/2021 2:30:00 AM -0.06 31.892 0.065 6.57 2.11 13.93
1/30/2021 2:45:00 AM -0.06 31.892 0.065 6.56 2.07 13.93
1/30/2021 3:00:00 AM -0.06 31.892 0.065 6.56 2.04 13.93
1/30/2021 3:15:00 AM -0.06 31.892 0.065 6.56 2.04 13.93
1/30/2021 3:30:00 AM -0.06 31.892 0.065 6.57 2.07 13.94
1/30/2021 3:45:00 AM -0.06 31.892 0.066 6.53 2.12 13.93
1/30/2021 4:00:00 AM -0.06 31.892 0.066 6.56 2.09 13.93
1/30/2021 4:15:00 AM -0.06 31.892 0.066 6.56 2.11 13.94
1/30/2021 4:30:00 AM -0.06 31.892 0.066 6.56 2.1 13.94
1/30/2021 4:45:00 AM -0.06 31.892 0.066 6.56 2.13 13.94
1/30/2021 5:00:00 AM -0.06 31.892 0.066 6.56 2.18 13.94
1/30/2021 5:15:00 AM -0.06 31.892 0.066 6.56 2.13 13.94
1/30/2021 5:30:00 AM -0.06 31.892 0.066 6.55 2.15 13.94
1/30/2021 5:45:00 AM -0.06 31.892 0.066 6.53 2.06 13.94
1/30/2021 6:00:00 AM -0.06 31.892 0.066 6.56 2.13 13.95
1/30/2021 6:15:00 AM -0.06 31.892 0.066 6.55 2.08 13.95
1/30/2021 6:30:00 AM -0.06 31.892 0.066 6.55 2.08 13.96
1/30/2021 6:45:00 AM -0.06 31.892 0.066 6.53 2.14 13.96
1/30/2021 7:00:00 AM -0.06 31.892 0.066 6.56 2.17 13.98
1/30/2021 7:15:00 AM -0.06 31.892 0.066 6.55 2.2 13.98
1/30/2021 7:30:00 AM -0.06 31.892 0.066 6.55 2.21 13.98
1/30/2021 7:45:00 AM -0.06 31.892 0.066 6.55 2.16 13.99
1/30/2021 8:00:00 AM -0.06 31.892 0.066 6.55 2.09 14.04
1/30/2021 8:15:00 AM -0.06 31.892 0.066 6.56 2.13 14.09
1/30/2021 8:30:00 AM -0.06 31.892 0.066 6.57 2.27 14.14
1/30/2021 8:45:00 AM -0.06 31.892 0.066 6.58 2.33 14.19
1/30/2021 9:00:00 AM -0.06 31.892 0.066 6.6 2.34 14.23
1/30/2021 9:15:00 AM -0.06 31.892 0.066 6.58 2.24 14.27
1/30/2021 9:30:00 AM -0.06 31.892 0.066 6.62 2.33 14.3
1/30/2021 9:45:00 AM -0.06 31.892 0.066 6.64 2.21 14.34
1/30/2021 10:00:00 AM -0.06 31.892 0.066 6.64 2.14 14.37
1/30/2021 10:15:00 AM -0.06 31.892 0.065 6.66 2.16 14.4
1/30/2021 10:30:00 AM -0.06 31.892 0.065 6.65 2.13 14.42
1/30/2021 10:45:00 AM -0.06 31.892 0.065 6.67 2.05 14.44
1/30/2021 11:00:00 AM -0.06 31.892 0.065 6.68 2.28 14.47
1/30/2021 11:15:00 AM -0.06 31.892 0.065 6.69 2.16 14.47
1/30/2021 11:30:00 AM -0.06 31.892 0.065 6.71 2.11 14.47
1/30/2021 11:45:00 AM -0.06 31.892 0.065 6.72 2.22 14.46
1/30/2021 12:00:00 PM -0.06 31.892 0.064 6.68 2.15 14.45
1/30/2021 12:15:00 PM -0.06 31.892 0.064 6.73 2.16 14.43
1/30/2021 12:30:00 PM -0.06 31.892 0.064 6.72 2.12 14.4
1/30/2021 12:45:00 PM -0.06 31.892 0.064 6.73 2.08 14.37
1/30/2021 1:00:00 PM -0.06 31.892 0.064 6.69 2.12 14.34
1/30/2021 1:15:00 PM -0.06 31.892 0.064 6.73 2.23 14.32
1/30/2021 1:30:00 PM -0.06 31.892 0.064 6.74 2.18 14.29
1/30/2021 1:45:00 PM -0.06 31.892 0.064 6.74 2.05 14.27
1/30/2021 2:00:00 PM -0.06 31.892 0.064 6.74 2.29 14.23
1/30/2021 2:15:00 PM -0.06 31.892 0.064 6.71 2.13 14.21
1/30/2021 2:30:00 PM -0.06 31.892 0.064 6.74 2.35 14.18
1/30/2021 2:45:00 PM -0.06 31.892 0.063 6.73 2.63 14.16
1/30/2021 3:00:00 PM -0.03 31.946 0.063 6.73 2.85 14.16
1/30/2021 3:15:00 PM -0.05 31.91 0.063 6.71 2.42 14.15
1/30/2021 3:30:00 PM -0.02 31.964 0.063 6.72 2.35 14.15
1/30/2021 3:45:00 PM 0.04 32.072 0.063 6.73 2.35 14.15
1/30/2021 4:00:00 PM 0.02 32.036 0.063 6.72 2.28 14.13
1/30/2021 4:15:00 PM 0.05 32.09 0.063 6.71 2.22 14.13
1/30/2021 4:30:00 PM 0.04 32.072 0.063 6.68 2.4 14.12
1/30/2021 4:45:00 PM 0.07 32.126 0.063 6.68 2.21 14.11
1/30/2021 5:00:00 PM 0.09 32.162 0.064 6.68 2.18 14.09
1/30/2021 5:15:00 PM 0.08 32.144 0.064 6.67 2.15 14.06
1/30/2021 5:30:00 PM 0.06 32.108 0.064 6.64 2.22 14.04
1/30/2021 5:45:00 PM 0.04 32.072 0.064 6.64 2.16 14.01
1/30/2021 6:00:00 PM 0.02 32.036 0.064 6.61 2.14 13.99
1/30/2021 6:15:00 PM 0 32 0.064 6.59 2.16 13.99
1/30/2021 6:30:00 PM -0.02 31.964 0.064 6.62 2.13 13.98
1/30/2021 6:45:00 PM -0.04 31.928 0.064 6.58 2.15 13.98
1/30/2021 7:00:00 PM -0.05 31.91 0.065 6.6 2.19 13.98
1/30/2021 7:15:00 PM -0.07 31.874 0.064 6.6 2.15 13.97
1/30/2021 7:30:00 PM -0.09 31.838 0.064 6.56 2.14 13.98
1/30/2021 7:45:00 PM -0.1 31.82 0.064 6.56 2.12 13.98
1/30/2021 8:00:00 PM -0.09 31.838 0.064 6.57 2.21 14
1/30/2021 8:15:00 PM -0.08 31.856 0.064 6.56 2.24 14
1/30/2021 8:30:00 PM -0.08 31.856 0.064 6.56 2.15 14.01
1/30/2021 8:45:00 PM -0.08 31.856 0.064 6.56 2.2 14.01
1/30/2021 9:00:00 PM -0.08 31.856 0.064 6.56 2.24 14.02
1/30/2021 9:15:00 PM -0.08 31.856 0.064 6.54 2.25 14.02
1/30/2021 9:30:00 PM -0.08 31.856 0.064 6.55 2.31 14.02
1/30/2021 9:45:00 PM -0.08 31.856 0.064 6.57 2.33 14.03
1/30/2021 10:00:00 PM -0.08 31.856 0.064 6.56 2.32 14.03
1/30/2021 10:15:00 PM -0.07 31.874 0.064 6.56 2.36 14.02
1/30/2021 10:30:00 PM -0.07 31.874 0.064 6.56 2.48 14.02
1/30/2021 10:45:00 PM -0.07 31.874 0.064 6.53 2.44 14.01
1/30/2021 11:00:00 PM -0.07 31.874 0.065 6.54 2.45 14.01
1/30/2021 11:15:00 PM -0.07 31.874 0.065 6.54 2.35 14
1/30/2021 11:30:00 PM -0.07 31.874 0.065 6.54 2.21 14
1/30/2021 11:45:00 PM -0.07 31.874 0.065 6.55 2.23 13.99
1/31/2021 12:00:00 AM -0.07 31.874 0.065 6.55 2.17 13.99
1/31/2021 12:15:00 AM -0.07 31.874 0.065 6.54 2.18 13.98
1/31/2021 12:30:00 AM -0.07 31.874 0.065 6.55 2.2 13.98
1/31/2021 12:45:00 AM -0.07 31.874 0.065 6.55 2.23 13.97
1/31/2021 1:00:00 AM -0.07 31.874 0.065 6.55 2.23 13.97
1/31/2021 1:15:00 AM -0.07 31.874 0.065 6.55 2.33 13.97
1/31/2021 1:30:00 AM -0.07 31.874 0.065 6.56 2.28 13.96
1/31/2021 1:45:00 AM -0.07 31.874 0.065 6.54 2.27 13.96
1/31/2021 2:00:00 AM -0.07 31.874 0.065 6.55 2.23 13.95
1/31/2021 2:15:00 AM -0.07 31.874 0.065 6.55 2.19 13.94
1/31/2021 2:30:00 AM -0.07 31.874 0.065 6.52 2.16 13.94
1/31/2021 2:45:00 AM -0.07 31.874 0.065 6.53 2.13 13.93
1/31/2021 3:00:00 AM -0.07 31.874 0.065 6.55 2.15 13.93
1/31/2021 3:15:00 AM -0.07 31.874 0.065 6.53 2.12 13.93
1/31/2021 3:30:00 AM -0.07 31.874 0.065 6.53 2.19 13.93
1/31/2021 3:45:00 AM -0.07 31.874 0.065 6.54 2.19 13.92
1/31/2021 4:00:00 AM -0.07 31.874 0.065 6.53 2.23 13.92
1/31/2021 4:15:00 AM -0.07 31.874 0.065 6.55 2.21 13.92
1/31/2021 4:30:00 AM -0.07 31.874 0.065 6.55 2.18 13.91
1/31/2021 4:45:00 AM -0.07 31.874 0.065 6.53 2.13 13.91
1/31/2021 5:00:00 AM -0.07 31.874 0.065 6.54 2.14 13.91
1/31/2021 5:15:00 AM -0.07 31.874 0.065 6.54 2.15 13.91
1/31/2021 5:30:00 AM -0.07 31.874 0.065 6.54 2.16 13.9
1/31/2021 5:45:00 AM -0.07 31.874 0.065 6.55 2.14 13.9
1/31/2021 6:00:00 AM -0.07 31.874 0.065 6.55 2.17 13.9
1/31/2021 6:15:00 AM -0.07 31.874 0.066 6.55 2.24 13.9
1/31/2021 6:30:00 AM -0.07 31.874 0.066 6.55 2.2 13.89
1/31/2021 6:45:00 AM -0.07 31.874 0.066 6.55 2.2 13.89
1/31/2021 7:00:00 AM -0.07 31.874 0.066 6.55 2.18 13.88
1/31/2021 7:15:00 AM -0.07 31.874 0.066 6.55 2.25 13.88
1/31/2021 7:30:00 AM -0.07 31.874 0.066 6.56 2.2 13.88
1/31/2021 7:45:00 AM -0.07 31.874 0.066 6.52 2.56 13.89
1/31/2021 8:00:00 AM -0.07 31.874 0.066 6.56 2.66 13.91
1/31/2021 8:15:00 AM -0.06 31.892 0.066 6.56 2.49 13.94
1/31/2021 8:30:00 AM -0.06 31.892 0.066 6.57 2.29 13.98
1/31/2021 8:45:00 AM -0.06 31.892 0.066 6.58 2.23 14.01
1/31/2021 9:00:00 AM -0.06 31.892 0.066 6.58 2.21 14.04
1/31/2021 9:15:00 AM -0.06 31.892 0.066 6.59 2.13 14.05
1/31/2021 9:30:00 AM -0.06 31.892 0.066 6.6 2.12 14.07
1/31/2021 9:45:00 AM -0.06 31.892 0.066 6.61 2.14 14.11
1/31/2021 10:00:00 AM -0.06 31.892 0.065 6.63 2.08 14.16
1/31/2021 10:15:00 AM -0.06 31.892 0.065 6.62 2.09 14.18
1/31/2021 10:30:00 AM -0.06 31.892 0.065 6.63 2.11 14.19
1/31/2021 10:45:00 AM -0.06 31.892 0.065 6.64 2.13 14.22
1/31/2021 11:00:00 AM -0.06 31.892 0.065 6.67 2.15 14.22
1/31/2021 11:15:00 AM -0.06 31.892 0.065 6.66 2.11 14.22
1/31/2021 11:30:00 AM -0.06 31.892 0.065 6.66 2.09 14.22
1/31/2021 11:45:00 AM -0.06 31.892 0.065 6.65 2.07 14.24
1/31/2021 12:00:00 PM -0.06 31.892 0.064 6.68 2.11 14.26
1/31/2021 12:15:00 PM -0.06 31.892 0.064 6.68 2.09 14.27
1/31/2021 12:30:00 PM -0.05 31.91 0.064 6.69 2.11 14.28
1/31/2021 12:45:00 PM -0.05 31.91 0.064 6.7 2.14 14.29
1/31/2021 1:00:00 PM -0.05 31.91 0.064 6.67 2.17 14.29
1/31/2021 1:15:00 PM -0.05 31.91 0.064 6.71 2.12 14.28
1/31/2021 1:30:00 PM -0.06 31.892 0.064 6.71 2.21 14.26
1/31/2021 1:45:00 PM -0.06 31.892 0.064 6.68 2.21 14.24
1/31/2021 2:00:00 PM -0.05 31.91 0.064 6.7 2.13 14.23
1/31/2021 2:15:00 PM -0.06 31.892 0.063 6.69 2.13 14.22
1/31/2021 2:30:00 PM -0.05 31.91 0.063 6.7 2.18 14.2
1/31/2021 2:45:00 PM -0.05 31.91 0.063 6.67 3.15 14.17
1/31/2021 3:00:00 PM -0.04 31.928 0.063 6.69 2.26 14.13
1/31/2021 3:15:00 PM 0.03 32.054 0.063 6.73 2.23 14.11
1/31/2021 3:30:00 PM 0.09 32.162 0.063 6.69 2.02 14.1
1/31/2021 3:45:00 PM 0.13 32.234 0.063 6.69 2.02 14.08
1/31/2021 4:00:00 PM 0.14 32.252 0.063 6.71 1.98 14.05
1/31/2021 4:15:00 PM 0.14 32.252 0.063 6.67 1.96 14.03
1/31/2021 4:30:00 PM 0.14 32.252 0.063 6.68 1.93 14
1/31/2021 4:45:00 PM 0.15 32.27 0.063 6.69 1.97 13.96
1/31/2021 5:00:00 PM 0.16 32.288 0.063 6.66 1.91 13.92
1/31/2021 5:15:00 PM 0.15 32.27 0.063 6.66 1.94 13.89
1/31/2021 5:30:00 PM 0.15 32.27 0.063 6.63 1.96 13.86
1/31/2021 5:45:00 PM 0.14 32.252 0.063 6.62 1.93 13.84
1/31/2021 6:00:00 PM 0.14 32.252 0.063 6.6 1.9 13.82
1/31/2021 6:15:00 PM 0.13 32.234 0.063 6.62 1.98 13.81
1/31/2021 6:30:00 PM 0.13 32.234 0.063 6.58 2 13.81
1/31/2021 6:45:00 PM 0.13 32.234 0.063 6.6 1.94 13.79
1/31/2021 7:00:00 PM 0.12 32.216 0.063 6.6 1.94 13.78
1/31/2021 7:15:00 PM 0.12 32.216 0.063 6.55 1.97 13.78
1/31/2021 7:30:00 PM 0.11 32.198 0.063 6.59 1.95 13.78
1/31/2021 7:45:00 PM 0.09 32.162 0.063 6.58 1.91 13.77
1/31/2021 8:00:00 PM 0.08 32.144 0.063 6.58 1.94 13.77
1/31/2021 8:15:00 PM 0.08 32.144 0.063 6.55 1.99 13.77
1/31/2021 8:30:00 PM 0.07 32.126 0.063 6.58 2.01 13.77
1/31/2021 8:45:00 PM 0.06 32.108 0.063 6.55 1.99 13.77
1/31/2021 9:00:00 PM 0.03 32.054 0.063 6.55 1.94 13.77
1/31/2021 9:15:00 PM 0.02 32.036 0.063 6.57 1.97 13.77
1/31/2021 9:30:00 PM 0.02 32.036 0.063 6.57 2.04 13.77
1/31/2021 9:45:00 PM 0.03 32.054 0.063 6.57 1.98 13.78
1/31/2021 10:00:00 PM 0.03 32.054 0.063 6.56 2.06 13.77
1/31/2021 10:15:00 PM 0.02 32.036 0.063 6.56 1.97 13.78
1/31/2021 10:30:00 PM 0.01 32.018 0.063 6.53 2.01 13.78
1/31/2021 10:45:00 PM -0.01 31.982 0.063 6.55 2.01 13.78
1/31/2021 11:00:00 PM -0.01 31.982 0.063 6.56 2 13.79
1/31/2021 11:15:00 PM -0.01 31.982 0.063 6.56 2.02 13.79
1/31/2021 11:30:00 PM -0.01 31.982 0.063 6.55 2.09 13.8
1/31/2021 11:45:00 PM 0 32 0.063 6.55 2.08 13.79
2/1/2021 12:00:00 AM 0.01 32.018 0.063 6.56 2 13.79
2/1/2021 12:15:00 AM 0 32 0.063 6.56 2.01 13.79
2/1/2021 12:30:00 AM -0.02 31.964 0.063 6.53 2 13.79
2/1/2021 12:45:00 AM -0.01 31.982 0.063 6.56 2.02 13.79
2/1/2021 1:00:00 AM 0 32 0.063 6.55 2.06 13.78
2/1/2021 1:15:00 AM -0.01 31.982 0.063 6.56 2.03 13.78
2/1/2021 1:30:00 AM 0 32 0.063 6.52 2.05 13.78
2/1/2021 1:45:00 AM 0.01 32.018 0.063 6.56 1.99 13.77
2/1/2021 2:00:00 AM 0.03 32.054 0.063 6.55 2 13.77
2/1/2021 2:15:00 AM 0.03 32.054 0.063 6.53 2.01 13.77
2/1/2021 2:30:00 AM 0.03 32.054 0.063 6.57 2.05 13.76
2/1/2021 2:45:00 AM 0.03 32.054 0.063 6.55 1.98 13.76
2/1/2021 3:00:00 AM 0.03 32.054 0.063 6.55 2.01 13.76
2/1/2021 3:15:00 AM 0.03 32.054 0.063 6.56 2.01 13.76
2/1/2021 3:30:00 AM 0.02 32.036 0.063 6.53 2.02 13.76
2/1/2021 3:45:00 AM 0.02 32.036 0.063 6.56 2.04 13.76
2/1/2021 4:00:00 AM 0.03 32.054 0.063 6.52 2.03 13.76
2/1/2021 4:15:00 AM 0.03 32.054 0.063 6.56 2.04 13.75
2/1/2021 4:30:00 AM 0.03 32.054 0.063 6.55 2.15 13.75
2/1/2021 4:45:00 AM 0.02 32.036 0.063 6.56 2.19 13.75
2/1/2021 5:00:00 AM 0.02 32.036 0.063 6.52 2.27 13.75
2/1/2021 5:15:00 AM 0.03 32.054 0.063 6.56 2.16 13.75
2/1/2021 5:30:00 AM 0.03 32.054 0.063 6.53 2.09 13.75
2/1/2021 5:45:00 AM 0.04 32.072 0.063 6.55 2.06 13.75
2/1/2021 6:00:00 AM 0.04 32.072 0.063 6.55 2.04 13.75
2/1/2021 6:15:00 AM 0.04 32.072 0.063 6.54 2 13.75
2/1/2021 6:30:00 AM 0.03 32.054 0.063 6.57 2.01 13.76
2/1/2021 6:45:00 AM 0.03 32.054 0.063 6.56 2.03 13.76
2/1/2021 7:00:00 AM 0.01 32.018 0.063 6.56 2 13.77
2/1/2021 7:15:00 AM 0 32 0.063 6.53 1.97 13.77
2/1/2021 7:30:00 AM 0.01 32.018 0.063 6.54 2.05 13.77
2/1/2021 7:45:00 AM 0.02 32.036 0.063 6.56 2 13.79
2/1/2021 8:00:00 AM 0.03 32.054 0.063 6.57 2.08 13.81
2/1/2021 8:15:00 AM 0.03 32.054 0.063 6.58 2.11 13.83
2/1/2021 8:30:00 AM 0.03 32.054 0.063 6.57 2.03 13.85
2/1/2021 8:45:00 AM 0.01 32.018 0.063 6.59 2.08 13.88
2/1/2021 9:00:00 AM 0 32 0.063 6.57 2.01 13.91
2/1/2021 9:15:00 AM 0 32 0.063 6.59 2.01 13.96
2/1/2021 9:30:00 AM 0.02 32.036 0.063 6.62 1.95 14
2/1/2021 9:45:00 AM 0.03 32.054 0.062 6.63 1.92 14.01
2/1/2021 10:00:00 AM 0.03 32.054 0.062 6.6 1.93 14.03
2/1/2021 10:15:00 AM 0.05 32.09 0.062 6.64 1.95 14.06
2/1/2021 10:30:00 AM 0.09 32.162 0.062 6.65 1.89 14.09
2/1/2021 10:45:00 AM 0.12 32.216 0.062 6.66 1.92 14.1
2/1/2021 11:00:00 AM 0.15 32.27 0.062 6.66 1.93 14.11
2/1/2021 11:15:00 AM 0.18 32.324 0.062 6.68 1.93 14.12
2/1/2021 11:30:00 AM 0.22 32.396 0.062 6.65 1.88 14.11
2/1/2021 11:45:00 AM 0.25 32.45 0.062 6.69 1.89 14.11
2/1/2021 12:00:00 PM 0.3 32.54 0.062 6.69 1.9 14.1
2/1/2021 12:15:00 PM 0.35 32.63 0.061 6.67 1.89 14.08
2/1/2021 12:30:00 PM 0.39 32.702 0.061 6.68 1.86 14.07
2/1/2021 12:45:00 PM 0.42 32.756 0.061 6.7 1.85 14.04
2/1/2021 1:00:00 PM 0.44 32.792 0.061 6.7 1.9 14.03
2/1/2021 1:15:00 PM 0.47 32.846 0.061 6.7 1.88 14.01
2/1/2021 1:30:00 PM 0.51 32.918 0.061 6.7 1.87 13.98
2/1/2021 1:45:00 PM 0.54 32.972 0.061 6.7 1.94 13.96
2/1/2021 2:00:00 PM 0.59 33.062 0.061 6.7 1.87 13.95
2/1/2021 2:15:00 PM 0.61 33.098 0.061 6.68 1.89 13.93
2/1/2021 2:30:00 PM 0.65 33.17 0.061 6.69 1.88 13.91
2/1/2021 2:45:00 PM 0.7 33.26 0.061 6.71 1.89 13.9
2/1/2021 3:00:00 PM 0.72 33.296 0.061 6.7 1.86 13.88
2/1/2021 3:15:00 PM 0.74 33.332 0.061 6.7 1.87 13.86
2/1/2021 3:30:00 PM 0.74 33.332 0.061 6.7 1.86 13.83
2/1/2021 3:45:00 PM 0.73 33.314 0.061 6.69 1.89 13.81
2/1/2021 4:00:00 PM 0.73 33.314 0.061 6.69 1.87 13.79
2/1/2021 4:15:00 PM 0.74 33.332 0.061 6.67 1.89 13.8
2/1/2021 4:30:00 PM 0.73 33.314 0.061 6.67 1.87 13.76
2/1/2021 4:45:00 PM 0.69 33.242 0.061 6.67 1.88 13.75
2/1/2021 5:00:00 PM 0.67 33.206 0.061 6.64 1.88 13.7
2/1/2021 5:15:00 PM 0.66 33.188 0.061 6.66 1.91 13.68
2/1/2021 5:30:00 PM 0.64 33.152 0.061 6.64 1.92 13.65
2/1/2021 5:45:00 PM 0.6 33.08 0.061 6.62 1.94 13.64
2/1/2021 6:00:00 PM 0.58 33.044 0.061 6.61 1.91 13.62
2/1/2021 6:15:00 PM 0.57 33.026 0.061 6.61 1.94 13.6
2/1/2021 6:30:00 PM 0.54 32.972 0.061 6.6 1.9 13.61
2/1/2021 6:45:00 PM 0.53 32.954 0.061 6.61 1.96 13.59
2/1/2021 7:00:00 PM 0.51 32.918 0.061 6.57 1.92 13.6
2/1/2021 7:15:00 PM 0.47 32.846 0.061 6.59 2 13.59
2/1/2021 7:30:00 PM 0.43 32.774 0.061 6.58 2.02 13.59
2/1/2021 7:45:00 PM 0.42 32.756 0.061 6.58 1.96 13.6
2/1/2021 8:00:00 PM 0.41 32.738 0.061 6.58 2.03 13.61
2/1/2021 8:15:00 PM 0.4 32.72 0.061 6.57 1.98 13.61
2/1/2021 8:30:00 PM 0.38 32.684 0.061 6.57 1.93 13.62
2/1/2021 8:45:00 PM 0.37 32.666 0.061 6.57 1.91 13.61
2/1/2021 9:00:00 PM 0.36 32.648 0.061 6.54 1.95 13.62
2/1/2021 9:15:00 PM 0.35 32.63 0.062 6.55 1.95 13.62
2/1/2021 9:30:00 PM 0.34 32.612 0.062 6.56 1.94 13.63
2/1/2021 9:45:00 PM 0.33 32.594 0.062 6.57 1.97 13.63
2/1/2021 10:00:00 PM 0.32 32.576 0.062 6.56 1.98 13.63
2/1/2021 10:15:00 PM 0.3 32.54 0.062 6.57 1.97 13.63
2/1/2021 10:30:00 PM 0.29 32.522 0.062 6.53 1.94 13.64
2/1/2021 10:45:00 PM 0.29 32.522 0.062 6.54 1.95 13.64
2/1/2021 11:00:00 PM 0.28 32.504 0.062 6.55 2.02 13.65
2/1/2021 11:15:00 PM 0.27 32.486 0.062 6.54 1.96 13.64
2/1/2021 11:30:00 PM 0.25 32.45 0.062 6.54 2 13.65
2/1/2021 11:45:00 PM 0.24 32.432 0.062 6.55 1.97 13.66
2/2/2021 12:00:00 AM 0.23 32.414 0.062 6.56 1.96 13.66
2/2/2021 12:15:00 AM 0.21 32.378 0.062 6.56 2 13.66
2/2/2021 12:30:00 AM 0.2 32.36 0.062 6.55 1.99 13.66
2/2/2021 12:45:00 AM 0.19 32.342 0.062 6.54 1.99 13.67
2/2/2021 1:00:00 AM 0.18 32.324 0.062 6.56 1.96 13.67
2/2/2021 1:15:00 AM 0.18 32.324 0.062 6.56 1.98 13.67
2/2/2021 1:30:00 AM 0.17 32.306 0.062 6.52 1.94 13.67
2/2/2021 1:45:00 AM 0.16 32.288 0.062 6.56 2.07 13.67
2/2/2021 2:00:00 AM 0.15 32.27 0.062 6.56 2.24 13.67
2/2/2021 2:15:00 AM 0.15 32.27 0.062 6.53 2.18 13.67
2/2/2021 2:30:00 AM 0.15 32.27 0.062 6.54 2.06 13.68
2/2/2021 2:45:00 AM 0.14 32.252 0.062 6.54 2.06 13.68
2/2/2021 3:00:00 AM 0.15 32.27 0.062 6.54 1.99 13.68
2/2/2021 3:15:00 AM 0.15 32.27 0.062 6.56 2.05 13.67
2/2/2021 3:30:00 AM 0.15 32.27 0.062 6.56 2.18 13.67
2/2/2021 3:45:00 AM 0.15 32.27 0.062 6.52 2.02 13.67
2/2/2021 4:00:00 AM 0.13 32.234 0.062 6.56 2.03 13.68
2/2/2021 4:15:00 AM 0.11 32.198 0.062 6.55 1.96 13.68
2/2/2021 4:30:00 AM 0.11 32.198 0.062 6.56 1.98 13.68
2/2/2021 4:45:00 AM 0.1 32.18 0.062 6.55 1.95 13.67
2/2/2021 5:00:00 AM 0.09 32.162 0.062 6.56 2 13.67
2/2/2021 5:15:00 AM 0.08 32.144 0.062 6.53 1.99 13.68
2/2/2021 5:30:00 AM 0.08 32.144 0.062 6.56 2.01 13.68
2/2/2021 5:45:00 AM 0.05 32.09 0.062 6.56 2.01 13.69
2/2/2021 6:00:00 AM 0.03 32.054 0.062 6.56 2.07 13.69
2/2/2021 6:15:00 AM 0.01 32.018 0.062 6.56 2.19 13.7
2/2/2021 6:30:00 AM -0.01 31.982 0.062 6.56 2.1 13.7
2/2/2021 6:45:00 AM 0 32 0.062 6.55 2.09 13.7
2/2/2021 7:00:00 AM 0.02 32.036 0.062 6.56 2.02 13.69
2/2/2021 7:15:00 AM 0.04 32.072 0.062 6.56 2.09 13.69
2/2/2021 7:30:00 AM 0.04 32.072 0.062 6.56 2.07 13.7
2/2/2021 7:45:00 AM 0.03 32.054 0.062 6.54 1.99 13.72
2/2/2021 8:00:00 AM 0.02 32.036 0.062 6.57 1.97 13.76
2/2/2021 8:15:00 AM 0.03 32.054 0.062 6.56 1.96 13.79
2/2/2021 8:30:00 AM 0.04 32.072 0.062 6.6 1.91 13.82
2/2/2021 8:45:00 AM 0.06 32.108 0.062 6.59 2.01 13.84
2/2/2021 9:00:00 AM 0.07 32.126 0.062 6.61 1.93 13.85
2/2/2021 9:15:00 AM 0.09 32.162 0.062 6.6 1.94 13.88
2/2/2021 9:30:00 AM 0.11 32.198 0.062 6.6 1.96 13.91
2/2/2021 9:45:00 AM 0.13 32.234 0.062 6.63 2.05 13.94
2/2/2021 10:00:00 AM 0.17 32.306 0.062 6.65 2.04 13.97
2/2/2021 10:15:00 AM 0.21 32.378 0.062 6.65 2 13.98
2/2/2021 10:30:00 AM 0.23 32.414 0.062 6.66 1.93 13.98
2/2/2021 10:45:00 AM 0.26 32.468 0.062 6.67 1.97 13.98
2/2/2021 11:00:00 AM 0.29 32.522 0.062 6.67 1.98 13.99
2/2/2021 11:15:00 AM 0.32 32.576 0.062 6.68 1.94 13.98
2/2/2021 11:30:00 AM 0.36 32.648 0.062 6.69 1.96 13.98
2/2/2021 11:45:00 AM 0.38 32.684 0.062 6.69 1.91 13.97
2/2/2021 12:00:00 PM 0.38 32.684 0.061 6.69 1.88 13.95
2/2/2021 12:15:00 PM 0.39 32.702 0.062 6.68 1.87 13.95
2/2/2021 12:30:00 PM 0.41 32.738 0.062 6.68 1.89 13.96
2/2/2021 12:45:00 PM 0.42 32.756 0.062 6.71 1.9 13.96
2/2/2021 1:00:00 PM 0.42 32.756 0.061 6.7 1.94 13.95
2/2/2021 1:15:00 PM 0.42 32.756 0.061 6.7 1.89 13.94
2/2/2021 1:30:00 PM 0.43 32.774 0.061 6.68 1.91 13.93
2/2/2021 1:45:00 PM 0.42 32.756 0.061 6.69 1.87 13.92
2/2/2021 2:00:00 PM 0.45 32.81 0.061 6.71 1.9 13.92
2/2/2021 2:15:00 PM 0.46 32.828 0.061 6.7 1.87 13.93
2/2/2021 2:30:00 PM 0.48 32.864 0.061 6.71 1.9 13.93
2/2/2021 2:45:00 PM 0.49 32.882 0.061 6.71 1.94 13.91
2/2/2021 3:00:00 PM 0.49 32.882 0.061 6.7 1.87 13.9
2/2/2021 3:15:00 PM 0.49 32.882 0.061 6.71 1.88 13.89
2/2/2021 3:30:00 PM 0.5 32.9 0.061 6.71 1.87 13.91
2/2/2021 3:45:00 PM 0.53 32.954 0.061 6.69 1.91 13.91
2/2/2021 4:00:00 PM 0.53 32.954 0.061 6.72 1.88 13.9
2/2/2021 4:15:00 PM 0.5 32.9 0.061 6.7 1.89 13.88
2/2/2021 4:30:00 PM 0.49 32.882 0.061 6.7 1.87 13.86
2/2/2021 4:45:00 PM 0.48 32.864 0.061 6.7 1.89 13.84
2/2/2021 5:00:00 PM 0.45 32.81 0.061 6.68 1.91 13.78
2/2/2021 5:15:00 PM 0.43 32.774 0.061 6.67 1.87 13.75
2/2/2021 5:30:00 PM 0.42 32.756 0.061 6.65 1.92 13.7
2/2/2021 5:45:00 PM 0.41 32.738 0.061 6.64 1.88 13.66
2/2/2021 6:00:00 PM 0.39 32.702 0.061 6.63 1.89 13.64
2/2/2021 6:15:00 PM 0.36 32.648 0.061 6.62 1.95 13.63
2/2/2021 6:30:00 PM 0.32 32.576 0.061 6.62 1.9 13.63
2/2/2021 6:45:00 PM 0.29 32.522 0.061 6.6 1.92 13.62
2/2/2021 7:00:00 PM 0.25 32.45 0.061 6.6 1.93 13.62
2/2/2021 7:15:00 PM 0.24 32.432 0.061 6.6 1.93 13.61
2/2/2021 7:30:00 PM 0.24 32.432 0.062 6.59 1.98 13.6
2/2/2021 7:45:00 PM 0.22 32.396 0.062 6.59 1.92 13.6
2/2/2021 8:00:00 PM 0.16 32.288 0.062 6.58 1.92 13.59
2/2/2021 8:15:00 PM 0.11 32.198 0.062 6.58 1.97 13.6
2/2/2021 8:30:00 PM 0.08 32.144 0.062 6.59 1.95 13.61
2/2/2021 8:45:00 PM 0.08 32.144 0.062 6.55 1.98 13.61
2/2/2021 9:00:00 PM 0.1 32.18 0.062 6.56 1.93 13.61
2/2/2021 9:15:00 PM 0.12 32.216 0.062 6.57 2 13.61
2/2/2021 9:30:00 PM 0.11 32.198 0.062 6.58 1.94 13.61
2/2/2021 9:45:00 PM 0.1 32.18 0.062 6.58 1.96 13.62
2/2/2021 10:00:00 PM 0.1 32.18 0.062 6.54 1.94 13.61
2/2/2021 10:15:00 PM 0.1 32.18 0.062 6.56 2.01 13.62
2/2/2021 10:30:00 PM 0.1 32.18 0.062 6.58 1.98 13.61
2/2/2021 10:45:00 PM 0.11 32.198 0.062 6.57 2.01 13.61
2/2/2021 11:00:00 PM 0.12 32.216 0.062 6.57 1.95 13.6
2/2/2021 11:15:00 PM 0.13 32.234 0.062 6.57 2.04 13.6
2/2/2021 11:30:00 PM 0.14 32.252 0.062 6.57 2.01 13.6
2/2/2021 11:45:00 PM 0.14 32.252 0.062 6.54 1.97 13.59
2/3/2021 12:00:00 AM 0.15 32.27 0.062 6.57 2 13.59
2/3/2021 12:15:00 AM 0.18 32.324 0.062 6.56 1.97 13.58
2/3/2021 12:30:00 AM 0.19 32.342 0.062 6.55 2 13.57
2/3/2021 12:45:00 AM 0.2 32.36 0.062 6.58 2 13.56
2/3/2021 1:00:00 AM 0.2 32.36 0.062 6.56 1.98 13.56
2/3/2021 1:15:00 AM 0.22 32.396 0.062 6.57 1.96 13.55
2/3/2021 1:30:00 AM 0.24 32.432 0.062 6.57 1.95 13.55
2/3/2021 1:45:00 AM 0.25 32.45 0.062 6.53 2.01 13.55
2/3/2021 2:00:00 AM 0.26 32.468 0.062 6.57 2.02 13.54
2/3/2021 2:15:00 AM 0.26 32.468 0.062 6.57 2 13.54
2/3/2021 2:30:00 AM 0.26 32.468 0.062 6.56 1.99 13.54
2/3/2021 2:45:00 AM 0.26 32.468 0.062 6.56 1.97 13.54
2/3/2021 3:00:00 AM 0.26 32.468 0.062 6.56 1.95 13.54
2/3/2021 3:15:00 AM 0.26 32.468 0.062 6.54 1.95 13.53
2/3/2021 3:30:00 AM 0.26 32.468 0.062 6.57 1.97 13.54
2/3/2021 3:45:00 AM 0.26 32.468 0.062 6.56 2.03 13.53
2/3/2021 4:00:00 AM 0.27 32.486 0.062 6.56 2.07 13.54
2/3/2021 4:15:00 AM 0.27 32.486 0.062 6.56 2.02 13.54
2/3/2021 4:30:00 AM 0.25 32.45 0.062 6.56 1.95 13.54
2/3/2021 4:45:00 AM 0.25 32.45 0.062 6.56 2 13.54
2/3/2021 5:00:00 AM 0.25 32.45 0.062 6.56 2.14 13.55
2/3/2021 5:15:00 AM 0.24 32.432 0.062 6.56 2.02 13.56
2/3/2021 5:30:00 AM 0.22 32.396 0.062 6.54 2.05 13.56
2/3/2021 5:45:00 AM 0.21 32.378 0.062 6.57 2.02 13.57
2/3/2021 6:00:00 AM 0.19 32.342 0.062 6.56 2.02 13.57
2/3/2021 6:15:00 AM 0.18 32.324 0.062 6.57 2.04 13.58
2/3/2021 6:30:00 AM 0.17 32.306 0.062 6.53 2.02 13.58
2/3/2021 6:45:00 AM 0.17 32.306 0.062 6.56 1.98 13.58
2/3/2021 7:00:00 AM 0.17 32.306 0.062 6.57 2.13 13.59
2/3/2021 7:15:00 AM 0.17 32.306 0.062 6.56 2.46 13.59
2/3/2021 7:30:00 AM 0.18 32.324 0.062 6.57 2.41 13.6
2/3/2021 7:45:00 AM 0.17 32.306 0.062 6.55 2.26 13.61
2/3/2021 8:00:00 AM 0.15 32.27 0.062 6.58 2.03 13.64
2/3/2021 8:15:00 AM 0.15 32.27 0.062 6.57 2.01 13.67
2/3/2021 8:30:00 AM 0.15 32.27 0.062 6.59 1.96 13.71
2/3/2021 8:45:00 AM 0.16 32.288 0.062 6.6 1.97 13.75
2/3/2021 9:00:00 AM 0.17 32.306 0.062 6.6 1.98 13.8
2/3/2021 9:15:00 AM 0.18 32.324 0.062 6.63 1.96 13.84
2/3/2021 9:30:00 AM 0.2 32.36 0.062 6.6 1.94 13.88
2/3/2021 9:45:00 AM 0.22 32.396 0.062 6.63 2 13.92
2/3/2021 10:00:00 AM 0.22 32.396 0.062 6.65 1.96 13.94
2/3/2021 10:15:00 AM 0.25 32.45 0.061 6.67 2.09 13.95
2/3/2021 10:30:00 AM 0.28 32.504 0.061 6.67 2.29 13.95
2/3/2021 10:45:00 AM 0.34 32.612 0.061 6.67 2.21 13.97
2/3/2021 11:00:00 AM 0.4 32.72 0.061 6.69 2.01 13.97
2/3/2021 11:15:00 AM 0.47 32.846 0.061 6.69 1.97 13.97
2/3/2021 11:30:00 AM 0.53 32.954 0.061 6.68 1.98 13.95
2/3/2021 11:45:00 AM 0.58 33.044 0.061 6.7 1.95 13.95
2/3/2021 12:00:00 PM 0.66 33.188 0.061 6.69 1.95 13.92
2/3/2021 12:15:00 PM 0.77 33.386 0.061 6.71 1.91 13.89
2/3/2021 12:30:00 PM 0.86 33.548 0.061 6.72 1.9 13.86
2/3/2021 12:45:00 PM 0.95 33.71 0.061 6.7 1.89 13.83
2/3/2021 1:00:00 PM 1.05 33.89 0.06 6.72 1.91 13.8
2/3/2021 1:15:00 PM 1.11 33.998 0.06 6.7 1.89 13.78
2/3/2021 1:30:00 PM 1.17 34.106 0.06 6.72 1.87 13.76
2/3/2021 1:45:00 PM 1.23 34.214 0.06 6.71 1.85 13.74
2/3/2021 2:00:00 PM 1.29 34.322 0.06 6.72 1.89 13.72
2/3/2021 2:15:00 PM 1.36 34.448 0.06 6.72 1.91 13.7
2/3/2021 2:30:00 PM 1.39 34.502 0.06 6.71 1.92 13.67
2/3/2021 2:45:00 PM 1.39 34.502 0.06 6.71 1.89 13.66
2/3/2021 3:00:00 PM 1.4 34.52 0.06 6.7 1.89 13.65
2/3/2021 3:15:00 PM 1.39 34.502 0.06 6.71 1.88 13.63
2/3/2021 3:30:00 PM 1.35 34.43 0.06 6.69 1.89 13.61
2/3/2021 3:45:00 PM 1.31 34.358 0.06 6.67 1.87 13.6
2/3/2021 4:00:00 PM 1.28 34.304 0.06 6.67 1.9 13.6
2/3/2021 4:15:00 PM 1.26 34.268 0.06 6.67 1.91 13.6
2/3/2021 4:30:00 PM 1.22 34.196 0.06 6.67 1.94 13.6
2/3/2021 4:45:00 PM 1.17 34.106 0.06 6.68 1.93 13.61
2/3/2021 5:00:00 PM 1.11 33.998 0.06 6.68 1.95 13.61
2/3/2021 5:15:00 PM 1.06 33.908 0.06 6.63 1.92 13.58
2/3/2021 5:30:00 PM 0.99 33.782 0.06 6.65 1.93 13.54
2/3/2021 5:45:00 PM 0.93 33.674 0.06 6.63 1.93 13.51
2/3/2021 6:00:00 PM 0.87 33.566 0.06 6.62 1.97 13.51
2/3/2021 6:15:00 PM 0.81 33.458 0.061 6.61 1.95 13.51
2/3/2021 6:30:00 PM 0.76 33.368 0.061 6.57 1.98 13.52
2/3/2021 6:45:00 PM 0.71 33.278 0.061 6.61 1.95 13.51
2/3/2021 7:00:00 PM 0.67 33.206 0.061 6.56 1.96 13.53
2/3/2021 7:15:00 PM 0.62 33.116 0.061 6.58 1.94 13.52
2/3/2021 7:30:00 PM 0.57 33.026 0.061 6.59 1.92 13.53
2/3/2021 7:45:00 PM 0.52 32.936 0.061 6.58 1.94 13.54
2/3/2021 8:00:00 PM 0.47 32.846 0.061 6.58 1.95 13.56
2/3/2021 8:15:00 PM 0.42 32.756 0.061 6.55 1.95 13.57
2/3/2021 8:30:00 PM 0.39 32.702 0.061 6.56 1.92 13.58
2/3/2021 8:45:00 PM 0.34 32.612 0.061 6.57 1.97 13.6
2/3/2021 9:00:00 PM 0.3 32.54 0.061 6.57 2.08 13.61
2/3/2021 9:15:00 PM 0.27 32.486 0.061 6.57 1.98 13.62
2/3/2021 9:30:00 PM 0.23 32.414 0.061 6.57 1.98 13.64
2/3/2021 9:45:00 PM 0.2 32.36 0.061 6.55 1.99 13.65
2/3/2021 10:00:00 PM 0.16 32.288 0.061 6.58 2.04 13.66
2/3/2021 10:15:00 PM 0.13 32.234 0.061 6.55 1.98 13.68
2/3/2021 10:30:00 PM 0.11 32.198 0.061 6.57 2 13.69
2/3/2021 10:45:00 PM 0.08 32.144 0.061 6.57 1.99 13.7
2/3/2021 11:00:00 PM 0.05 32.09 0.062 6.56 1.98 13.71
2/3/2021 11:15:00 PM 0.02 32.036 0.062 6.54 2 13.72
2/3/2021 11:30:00 PM -0.01 31.982 0.062 6.57 2.04 13.73
2/3/2021 11:45:00 PM -0.03 31.946 0.062 6.56 2.04 13.74
2/4/2021 12:00:00 AM -0.04 31.928 0.062 6.57 2.01 13.75
2/4/2021 12:15:00 AM -0.06 31.892 0.062 6.56 2.01 13.76
2/4/2021 12:30:00 AM -0.08 31.856 0.062 6.54 1.97 13.77
2/4/2021 12:45:00 AM -0.09 31.838 0.062 6.55 1.96 13.78
2/4/2021 1:00:00 AM -0.09 31.838 0.062 6.57 2.02 13.79
2/4/2021 1:15:00 AM -0.08 31.856 0.062 6.57 2.05 13.8
2/4/2021 1:30:00 AM -0.08 31.856 0.062 6.55 2.13 13.81
2/4/2021 1:45:00 AM -0.07 31.874 0.062 6.54 2.13 13.8
2/4/2021 2:00:00 AM -0.07 31.874 0.062 6.57 2.12 13.8
2/4/2021 2:15:00 AM -0.07 31.874 0.062 6.52 2.07 13.79
2/4/2021 2:30:00 AM -0.07 31.874 0.062 6.57 2.09 13.81
2/4/2021 2:45:00 AM -0.07 31.874 0.062 6.52 2.1 13.82
2/4/2021 3:00:00 AM -0.07 31.874 0.062 6.56 2.03 13.82
2/4/2021 3:15:00 AM -0.07 31.874 0.062 6.53 2.14 13.82
2/4/2021 3:30:00 AM -0.07 31.874 0.062 6.56 2.08 13.82
2/4/2021 3:45:00 AM -0.07 31.874 0.063 6.56 2.14 13.83
2/4/2021 4:00:00 AM -0.07 31.874 0.063 6.56 2.17 13.83
2/4/2021 4:15:00 AM -0.07 31.874 0.063 6.53 2.18 13.84
2/4/2021 4:30:00 AM -0.07 31.874 0.063 6.55 2.16 13.83
2/4/2021 4:45:00 AM -0.07 31.874 0.063 6.55 2.76 13.82
2/4/2021 5:00:00 AM -0.07 31.874 0.063 6.55 2.17 13.81
2/4/2021 5:15:00 AM -0.07 31.874 0.063 6.55 2.27 13.82
2/4/2021 5:30:00 AM -0.07 31.874 0.063 6.55 2.42 13.82
2/4/2021 5:45:00 AM -0.07 31.874 0.063 6.52 2.32 13.81
2/4/2021 6:00:00 AM -0.07 31.874 0.063 6.53 2.25 13.81
2/4/2021 6:15:00 AM -0.07 31.874 0.063 6.53 2.2 13.81
2/4/2021 6:30:00 AM -0.07 31.874 0.063 6.54 2.22 13.81
2/4/2021 6:45:00 AM -0.07 31.874 0.063 6.54 2.19 13.81
2/4/2021 7:00:00 AM -0.07 31.874 0.063 6.51 2.21 13.82
2/4/2021 7:15:00 AM -0.07 31.874 0.063 6.53 2.14 13.82
2/4/2021 7:30:00 AM -0.07 31.874 0.063 6.54 2.28 13.84
2/4/2021 7:45:00 AM -0.07 31.874 0.063 6.54 2.19 13.86
2/4/2021 8:00:00 AM -0.07 31.874 0.063 6.55 2.15 13.89
2/4/2021 8:15:00 AM -0.07 31.874 0.063 6.56 2.21 13.94
2/4/2021 8:30:00 AM -0.07 31.874 0.063 6.54 2.1 13.98
2/4/2021 8:45:00 AM -0.07 31.874 0.063 6.57 2.48 14.02
2/4/2021 9:00:00 AM -0.07 31.874 0.063 6.56 2.24 14.05
2/4/2021 9:15:00 AM -0.06 31.892 0.063 6.59 2.19 14.08
2/4/2021 9:30:00 AM -0.06 31.892 0.063 6.6 2.23 14.09
2/4/2021 9:45:00 AM -0.06 31.892 0.063 6.6 2.22 14.11
2/4/2021 10:00:00 AM -0.05 31.91 0.063 6.58 2.22 14.13
2/4/2021 10:15:00 AM -0.05 31.91 0.063 6.61 2.13 14.14
2/4/2021 10:30:00 AM -0.05 31.91 0.063 6.6 2.3 14.16
2/4/2021 10:45:00 AM -0.05 31.91 0.063 6.63 2.44 14.17
2/4/2021 11:00:00 AM -0.04 31.928 0.062 6.63 2.3 14.19
2/4/2021 11:15:00 AM -0.04 31.928 0.062 6.63 2.27 14.19
2/4/2021 11:30:00 AM -0.04 31.928 0.062 6.66 2.2 14.19
2/4/2021 11:45:00 AM -0.04 31.928 0.062 6.65 2.34 14.18
2/4/2021 12:00:00 PM -0.04 31.928 0.062 6.67 2.47 14.15
2/4/2021 12:15:00 PM -0.04 31.928 0.061 6.64 2.7 14.12
2/4/2021 12:30:00 PM -0.04 31.928 0.061 6.67 2.47 14.09
2/4/2021 12:45:00 PM -0.03 31.946 0.061 6.69 2.68 14.03
2/4/2021 1:00:00 PM 0.02 32.036 0.061 6.7 2.6 13.99
2/4/2021 1:15:00 PM 0.19 32.342 0.061 6.69 2.46 13.95
2/4/2021 1:30:00 PM 0.35 32.63 0.061 6.71 2.2 13.91
2/4/2021 1:45:00 PM 0.5 32.9 0.061 6.72 2.13 13.89
2/4/2021 2:00:00 PM 0.58 33.044 0.061 6.71 2.37 13.89
2/4/2021 2:15:00 PM 0.65 33.17 0.061 6.71 2.27 13.87
2/4/2021 2:30:00 PM 0.74 33.332 0.061 6.71 2.3 13.84
2/4/2021 2:45:00 PM 0.8 33.44 0.061 6.71 2.26 13.83
2/4/2021 3:00:00 PM 0.89 33.602 0.061 6.7 2.27 13.8
2/4/2021 3:15:00 PM 0.96 33.728 0.061 6.71 2.24 13.79
2/4/2021 3:30:00 PM 1.02 33.836 0.061 6.7 2.14 13.78
2/4/2021 3:45:00 PM 1.05 33.89 0.061 6.69 2.16 13.75
2/4/2021 4:00:00 PM 1.06 33.908 0.061 6.69 2.18 13.76
2/4/2021 4:15:00 PM 1.09 33.962 0.061 6.68 2.14 13.78
2/4/2021 4:30:00 PM 1.08 33.944 0.061 6.69 2.11 13.73
2/4/2021 4:45:00 PM 1.03 33.854 0.061 6.67 2.08 13.69
2/4/2021 5:00:00 PM 0.98 33.764 0.061 6.64 2.06 13.66
2/4/2021 5:15:00 PM 0.94 33.692 0.061 6.64 2.09 13.63
2/4/2021 5:30:00 PM 0.9 33.62 0.061 6.63 2.1 13.6
2/4/2021 5:45:00 PM 0.86 33.548 0.061 6.62 2.02 13.57
2/4/2021 6:00:00 PM 0.82 33.476 0.062 6.6 2.1 13.56
2/4/2021 6:15:00 PM 0.78 33.404 0.062 6.58 2.06 13.55
2/4/2021 6:30:00 PM 0.73 33.314 0.062 6.59 2.1 13.55
2/4/2021 6:45:00 PM 0.69 33.242 0.062 6.57 2.08 13.56
2/4/2021 7:00:00 PM 0.64 33.152 0.062 6.57 2.11 13.56
2/4/2021 7:15:00 PM 0.6 33.08 0.062 6.58 2.13 13.55
2/4/2021 7:30:00 PM 0.56 33.008 0.062 6.57 2.1 13.56
2/4/2021 7:45:00 PM 0.52 32.936 0.062 6.57 2.09 13.56
2/4/2021 8:00:00 PM 0.49 32.882 0.062 6.57 2.11 13.56
2/4/2021 8:15:00 PM 0.46 32.828 0.062 6.57 2.04 13.58
2/4/2021 8:30:00 PM 0.42 32.756 0.062 6.55 2.04 13.58
2/4/2021 8:45:00 PM 0.38 32.684 0.062 6.56 2.02 13.59
2/4/2021 9:00:00 PM 0.36 32.648 0.062 6.55 2 13.6
2/4/2021 9:15:00 PM 0.33 32.594 0.062 6.56 1.99 13.61
2/4/2021 9:30:00 PM 0.31 32.558 0.062 6.55 2.04 13.62
2/4/2021 9:45:00 PM 0.29 32.522 0.062 6.55 2.03 13.61
2/4/2021 10:00:00 PM 0.28 32.504 0.062 6.54 2.01 13.61
2/4/2021 10:15:00 PM 0.28 32.504 0.062 6.57 2.02 13.62
2/4/2021 10:30:00 PM 0.28 32.504 0.062 6.55 2.02 13.61
2/4/2021 10:45:00 PM 0.28 32.504 0.062 6.56 2.02 13.62
2/4/2021 11:00:00 PM 0.28 32.504 0.062 6.55 2.06 13.6
2/4/2021 11:15:00 PM 0.29 32.522 0.062 6.54 2.02 13.61
2/4/2021 11:30:00 PM 0.3 32.54 0.062 6.56 2.04 13.6
2/4/2021 11:45:00 PM 0.31 32.558 0.062 6.56 2.03 13.59
2/5/2021 12:00:00 AM 0.32 32.576 0.062 6.57 1.98 13.58
2/5/2021 12:15:00 AM 0.32 32.576 0.062 6.53 2 13.58
2/5/2021 12:30:00 AM 0.3 32.54 0.062 6.54 2.01 13.58
2/5/2021 12:45:00 AM 0.31 32.558 0.062 6.56 1.97 13.58
2/5/2021 1:00:00 AM 0.34 32.612 0.062 6.57 2.02 13.56
2/5/2021 1:15:00 AM 0.38 32.684 0.062 6.57 2.01 13.54
2/5/2021 1:30:00 AM 0.41 32.738 0.062 6.53 2.05 13.53
2/5/2021 1:45:00 AM 0.42 32.756 0.062 6.56 2.13 13.52
2/5/2021 2:00:00 AM 0.44 32.792 0.062 6.56 2.15 13.5
2/5/2021 2:15:00 AM 0.45 32.81 0.062 6.57 2.05 13.49
2/5/2021 2:30:00 AM 0.46 32.828 0.062 6.56 2.06 13.49
2/5/2021 2:45:00 AM 0.47 32.846 0.062 6.54 2.04 13.48
2/5/2021 3:00:00 AM 0.47 32.846 0.062 6.57 2.11 13.47
2/5/2021 3:15:00 AM 0.49 32.882 0.062 6.57 2.1 13.46
2/5/2021 3:30:00 AM 0.51 32.918 0.062 6.56 2.17 13.44
2/5/2021 3:45:00 AM 0.53 32.954 0.062 6.57 2.18 13.44
2/5/2021 4:00:00 AM 0.55 32.99 0.062 6.57 2.11 13.42
2/5/2021 4:15:00 AM 0.56 33.008 0.062 6.56 2.03 13.41
2/5/2021 4:30:00 AM 0.58 33.044 0.062 6.57 2.03 13.4
2/5/2021 4:45:00 AM 0.59 33.062 0.062 6.57 2.07 13.4
2/5/2021 5:00:00 AM 0.6 33.08 0.062 6.57 2.23 13.39
2/5/2021 5:15:00 AM 0.61 33.098 0.062 6.54 2.2 13.38
2/5/2021 5:30:00 AM 0.63 33.134 0.062 6.57 2.14 13.37
2/5/2021 5:45:00 AM 0.63 33.134 0.062 6.57 2.06 13.37
2/5/2021 6:00:00 AM 0.63 33.134 0.062 6.57 2.07 13.36
2/5/2021 6:15:00 AM 0.63 33.134 0.062 6.56 2.08 13.35
2/5/2021 6:30:00 AM 0.65 33.17 0.063 6.54 2.09 13.35
2/5/2021 6:45:00 AM 0.67 33.206 0.063 6.57 2.16 13.35
2/5/2021 7:00:00 AM 0.65 33.17 0.063 6.55 2.09 13.35
2/5/2021 7:15:00 AM 0.53 32.954 0.063 6.55 2.1 13.35
2/5/2021 7:30:00 AM 0.49 32.882 0.063 6.55 2.05 13.37
2/5/2021 7:45:00 AM 0.56 33.008 0.063 6.57 2 13.38
2/5/2021 8:00:00 AM 0.64 33.152 0.063 6.58 2 13.41
2/5/2021 8:15:00 AM 0.69 33.242 0.063 6.59 1.96 13.45
2/5/2021 8:30:00 AM 0.7 33.26 0.063 6.59 1.99 13.52
2/5/2021 8:45:00 AM 0.71 33.278 0.063 6.6 2.04 13.57
2/5/2021 9:00:00 AM 0.71 33.278 0.063 6.62 2.02 13.59
2/5/2021 9:15:00 AM 0.75 33.35 0.063 6.64 2.08 13.63
2/5/2021 9:30:00 AM 0.78 33.404 0.063 6.65 2.06 13.64
2/5/2021 9:45:00 AM 0.82 33.476 0.063 6.65 2.02 13.67
2/5/2021 10:00:00 AM 0.86 33.548 0.063 6.67 2.01 13.7
2/5/2021 10:15:00 AM 0.94 33.692 0.063 6.67 1.99